Rohardt, Gerd; Kasten, Sabine (2013): Physical oceanography during HEINCKE cruise HE406 [dataset]. Alfred Wegener Institute, Helmholtz Centre for Polar and Marine Research, Bremerhaven, PANGAEA, https://doi.org/10.1594/PANGAEA.824863
Always quote citation above when using data! You can download the citation in several formats below.
Published: 2013-12-20 • DOI registered: 2014-01-17
Project(s):
Physical Oceanography @ AWI (AWI_PhyOce)
Coverage:
Median Latitude: 55.298619 * Median Longitude: 4.129340 * South-bound Latitude: 55.214670 * West-bound Longitude: 4.042000 * North-bound Latitude: 55.306500 * East-bound Longitude: 4.574170
Date/Time Start: 2013-07-20T06:50:00 * Date/Time End: 2013-07-24T11:54:00
Minimum DEPTH, water: 2.0 m * Maximum DEPTH, water: 47.6 m
Event(s):
HE406/13-2 * Latitude: 55.214830 * Longitude: 4.574000 * Date/Time: 2013-07-20T06:50:00 * Elevation: -44.2 m * Location: North Sea * Campaign: HE406 * Basis: Heincke * Method/Device: CTD/Rosette (CTD-RO)
HE406/13-3 * Latitude: 55.214670 * Longitude: 4.574170 * Date/Time: 2013-07-20T07:10:00 * Elevation: -44.1 m * Location: North Sea * Campaign: HE406 * Basis: Heincke * Method/Device: CTD/Rosette (CTD-RO)
HE406/14-1 * Latitude: 55.305830 * Longitude: 4.090670 * Date/Time: 2013-07-20T09:01:00 * Elevation: -39.3 m * Location: North Sea * Campaign: HE406 * Basis: Heincke * Method/Device: CTD/Rosette (CTD-RO)
Parameter(s):
License:
Creative Commons Attribution 3.0 Unported (CC-BY-3.0)
Size:
11418 data points
Data
| 1 Event | 2 Date/Time | 3 Latitude | 4 Longitude | 5 Elevation [m] | 6 Depth water [m] | 7 Press [dbar] | 8 Temp [°C] | 9 Cond [mS/cm] | 10 Sal | 11 Tpot [°C] | 12 Sigma-theta [kg/m3] | 13 O2 [µmol/l] | 14 O2 sat [%] | 15 Attenuation [arbitrary units] | 16 Fluorometer [arbitrary units] | 17 NOBS [#] |
|---|---|---|---|---|---|---|---|---|---|---|---|---|---|---|---|---|
| HE406/13-2 | 2013-07-20T06:50 | 55.2148 | 4.5740 | -44 | 3.0 | 3 | 16.4692 | 43.7854 | 34.4830 | 16.4687 | 25.2421 | 173.681 | 70.18 | 92.61 | 0.35 | 22 |
| HE406/13-2 | 2013-07-20T06:50 | 55.2148 | 4.5740 | -44 | 4.0 | 4 | 16.4556 | 43.7573 | 34.4697 | 16.4550 | 25.2350 | 185.870 | 75.08 | 92.66 | 0.36 | 27 |
| HE406/13-2 | 2013-07-20T06:50 | 55.2148 | 4.5740 | -44 | 5.0 | 5 | 16.4589 | 43.7879 | 34.4935 | 16.4581 | 25.2526 | 178.666 | 72.18 | 92.57 | 0.37 | 21 |
| HE406/13-2 | 2013-07-20T06:50 | 55.2148 | 4.5740 | -44 | 5.9 | 6 | 16.4485 | 43.7675 | 34.4841 | 16.4475 | 25.2478 | 175.759 | 70.99 | 92.65 | 0.35 | 23 |
| HE406/13-2 | 2013-07-20T06:50 | 55.2148 | 4.5740 | -44 | 6.9 | 7 | 16.4610 | 43.7746 | 34.4791 | 16.4599 | 25.2411 | 171.403 | 69.24 | 92.62 | 0.37 | 24 |
| HE406/13-2 | 2013-07-20T06:50 | 55.2148 | 4.5740 | -44 | 7.9 | 8 | 16.4281 | 43.7948 | 34.5250 | 16.4268 | 25.2841 | 168.032 | 67.86 | 92.61 | 0.36 | 25 |
| HE406/13-2 | 2013-07-20T06:50 | 55.2148 | 4.5740 | -44 | 8.9 | 9 | 16.4069 | 43.7827 | 34.5323 | 16.4055 | 25.2946 | 168.470 | 68.01 | 92.60 | 0.38 | 28 |
| HE406/13-2 | 2013-07-20T06:50 | 55.2148 | 4.5740 | -44 | 9.9 | 10 | 16.3921 | 43.7712 | 34.5346 | 16.3905 | 25.2998 | 165.513 | 66.80 | 92.50 | 0.35 | 21 |
| HE406/13-2 | 2013-07-20T06:50 | 55.2148 | 4.5740 | -44 | 10.9 | 11 | 16.3963 | 43.7656 | 34.5256 | 16.3945 | 25.2920 | 164.540 | 66.41 | 92.63 | 0.39 | 23 |
| HE406/13-2 | 2013-07-20T06:50 | 55.2148 | 4.5740 | -44 | 11.9 | 12 | 16.3407 | 43.7566 | 34.5655 | 16.3388 | 25.3356 | 167.594 | 67.58 | 92.45 | 0.41 | 24 |
| HE406/13-2 | 2013-07-20T06:50 | 55.2148 | 4.5740 | -44 | 12.9 | 13 | 15.7906 | 43.2356 | 34.5813 | 15.7886 | 25.4735 | 168.365 | 67.16 | 92.36 | 0.44 | 23 |
| HE406/13-2 | 2013-07-20T06:50 | 55.2148 | 4.5740 | -44 | 13.9 | 14 | 15.6558 | 43.1218 | 34.5971 | 15.6536 | 25.5161 | 166.914 | 66.41 | 92.28 | 0.49 | 22 |
| HE406/13-2 | 2013-07-20T06:50 | 55.2148 | 4.5740 | -44 | 14.9 | 15 | 15.5334 | 43.0201 | 34.6129 | 15.5311 | 25.5558 | 166.404 | 66.06 | 91.74 | 0.57 | 24 |
| HE406/13-2 | 2013-07-20T06:50 | 55.2148 | 4.5740 | -44 | 15.9 | 16 | 15.0245 | 42.4792 | 34.5722 | 15.0221 | 25.6373 | 212.978 | 83.67 | 91.60 | 0.63 | 21 |
| HE406/13-2 | 2013-07-20T06:50 | 55.2148 | 4.5740 | -44 | 16.8 | 17 | 14.8582 | 42.2977 | 34.5538 | 14.8557 | 25.6594 | 231.969 | 90.81 | 91.65 | 0.68 | 19 |
| HE406/13-2 | 2013-07-20T06:50 | 55.2148 | 4.5740 | -44 | 17.8 | 18 | 14.4567 | 41.8657 | 34.5143 | 14.4541 | 25.7156 | 229.917 | 89.26 | 91.44 | 0.69 | 20 |
| HE406/13-2 | 2013-07-20T06:50 | 55.2148 | 4.5740 | -44 | 18.8 | 19 | 13.9800 | 41.3725 | 34.4835 | 13.9773 | 25.7927 | 228.795 | 87.95 | 91.61 | 0.78 | 17 |
| HE406/13-2 | 2013-07-20T06:50 | 55.2148 | 4.5740 | -44 | 19.8 | 20 | 13.8044 | 41.2228 | 34.5012 | 13.8016 | 25.8430 | 230.893 | 88.44 | 91.43 | 0.84 | 19 |
| HE406/13-2 | 2013-07-20T06:50 | 55.2148 | 4.5740 | -44 | 20.8 | 21 | 13.4508 | 40.8721 | 34.4909 | 13.4479 | 25.9079 | 234.232 | 89.06 | 91.37 | 0.92 | 19 |
| HE406/13-2 | 2013-07-20T06:50 | 55.2148 | 4.5740 | -44 | 21.8 | 22 | 13.0802 | 40.5220 | 34.4954 | 13.0772 | 25.9865 | 234.441 | 88.46 | 91.16 | 0.99 | 18 |
| HE406/13-2 | 2013-07-20T06:50 | 55.2148 | 4.5740 | -44 | 22.8 | 23 | 12.9473 | 40.4086 | 34.5082 | 12.9442 | 26.0230 | 235.486 | 88.62 | 90.83 | 1.23 | 18 |
| HE406/13-2 | 2013-07-20T06:50 | 55.2148 | 4.5740 | -44 | 23.8 | 24 | 12.9581 | 40.4871 | 34.5728 | 12.9548 | 26.0709 | 235.150 | 88.55 | 90.89 | 1.09 | 17 |
| HE406/13-2 | 2013-07-20T06:50 | 55.2148 | 4.5740 | -44 | 24.8 | 25 | 12.9090 | 40.4586 | 34.5901 | 12.9056 | 26.0941 | 236.286 | 88.89 | 91.19 | 0.98 | 18 |
| HE406/13-2 | 2013-07-20T06:50 | 55.2148 | 4.5740 | -44 | 25.8 | 26 | 12.8662 | 40.4346 | 34.6059 | 12.8627 | 26.1150 | 239.273 | 89.95 | 91.53 | 1.05 | 18 |
| HE406/13-2 | 2013-07-20T06:50 | 55.2148 | 4.5740 | -44 | 26.8 | 27 | 12.7614 | 40.3383 | 34.6095 | 12.7578 | 26.1386 | 238.966 | 89.64 | 91.58 | 1.06 | 15 |
| HE406/13-2 | 2013-07-20T06:50 | 55.2148 | 4.5740 | -44 | 27.7 | 28 | 11.9203 | 39.4774 | 34.5528 | 11.9167 | 26.2576 | 241.169 | 88.84 | 91.24 | 1.14 | 16 |
| HE406/13-2 | 2013-07-20T06:50 | 55.2148 | 4.5740 | -44 | 28.7 | 29 | 9.8034 | 37.4392 | 34.5089 | 9.8001 | 26.6023 | 237.936 | 83.70 | 88.35 | 2.13 | 21 |
| HE406/13-2 | 2013-07-20T06:50 | 55.2148 | 4.5740 | -44 | 29.7 | 30 | 8.3605 | 36.0035 | 34.4060 | 8.3574 | 26.7534 | 251.171 | 85.49 | 85.55 | 3.47 | 17 |
| HE406/13-2 | 2013-07-20T06:50 | 55.2148 | 4.5740 | -44 | 30.7 | 31 | 6.6273 | 34.4408 | 34.4278 | 6.6245 | 27.0190 | 259.237 | 84.79 | 82.92 | 5.74 | 16 |
| HE406/13-2 | 2013-07-20T06:50 | 55.2148 | 4.5740 | -44 | 31.7 | 32 | 6.2310 | 34.1387 | 34.4908 | 6.2283 | 27.1210 | 236.263 | 76.59 | 78.71 | 5.85 | 19 |
| HE406/13-2 | 2013-07-20T06:50 | 55.2148 | 4.5740 | -44 | 32.7 | 33 | 6.0454 | 33.9868 | 34.5082 | 6.0426 | 27.1586 | 219.122 | 70.73 | 78.46 | 2.06 | 20 |
| HE406/13-2 | 2013-07-20T06:50 | 55.2148 | 4.5740 | -44 | 33.7 | 34 | 6.0057 | 33.9597 | 34.5176 | 6.0028 | 27.1711 | 215.976 | 69.66 | 77.93 | 1.22 | 17 |
| HE406/13-2 | 2013-07-20T06:50 | 55.2148 | 4.5740 | -44 | 34.7 | 35 | 5.9761 | 33.9441 | 34.5297 | 5.9732 | 27.1844 | 211.515 | 68.18 | 76.35 | 0.74 | 19 |
| HE406/13-2 | 2013-07-20T06:50 | 55.2148 | 4.5740 | -44 | 35.7 | 36 | 5.9593 | 33.9359 | 34.5371 | 5.9563 | 27.1924 | 207.863 | 66.98 | 75.01 | 0.59 | 19 |
| HE406/13-2 | 2013-07-20T06:50 | 55.2148 | 4.5740 | -44 | 36.7 | 37 | 5.9528 | 33.9345 | 34.5416 | 5.9497 | 27.1968 | 206.553 | 66.54 | 74.93 | 0.57 | 20 |
| HE406/13-2 | 2013-07-20T06:50 | 55.2148 | 4.5740 | -44 | 37.7 | 38 | 5.9351 | 33.9184 | 34.5410 | 5.9319 | 27.1986 | 203.776 | 65.62 | 74.35 | 0.51 | 17 |
| HE406/13-2 | 2013-07-20T06:50 | 55.2148 | 4.5740 | -44 | 38.6 | 39 | 5.9317 | 33.9154 | 34.5405 | 5.9284 | 27.1986 | 203.258 | 65.45 | 73.98 | 0.50 | 19 |
| HE406/13-2 | 2013-07-20T06:50 | 55.2148 | 4.5740 | -44 | 39.6 | 40 | 5.9321 | 33.9161 | 34.5404 | 5.9288 | 27.1985 | 203.124 | 65.41 | 73.79 | 0.50 | 18 |
| HE406/13-2 | 2013-07-20T06:50 | 55.2148 | 4.5740 | -44 | 40.6 | 41 | 5.9318 | 33.9161 | 34.5402 | 5.9284 | 27.1984 | 203.263 | 65.45 | 73.41 | 0.44 | 18 |
| HE406/13-2 | 2013-07-20T06:50 | 55.2148 | 4.5740 | -44 | 41.6 | 42 | 5.9305 | 33.9156 | 34.5404 | 5.9270 | 27.1988 | 203.115 | 65.40 | 73.38 | 0.42 | 17 |
| HE406/13-2 | 2013-07-20T06:50 | 55.2148 | 4.5740 | -44 | 42.6 | 43 | 5.9311 | 33.9166 | 34.5404 | 5.9275 | 27.1987 | 202.827 | 65.31 | 73.18 | 0.44 | 20 |
| HE406/13-2 | 2013-07-20T06:50 | 55.2148 | 4.5740 | -44 | 43.6 | 44 | 5.9295 | 33.9155 | 34.5403 | 5.9258 | 27.1988 | 202.938 | 65.34 | 72.97 | 0.41 | 18 |
| HE406/13-2 | 2013-07-20T06:50 | 55.2148 | 4.5740 | -44 | 44.6 | 45 | 5.9285 | 33.9150 | 34.5403 | 5.9247 | 27.1989 | 202.788 | 65.29 | 73.04 | 0.44 | 15 |
| HE406/13-2 | 2013-07-20T06:50 | 55.2148 | 4.5740 | -44 | 45.6 | 46 | 5.9286 | 33.9156 | 34.5404 | 5.9248 | 27.1990 | 202.649 | 65.25 | 72.61 | 0.47 | 24 |
| HE406/13-2 | 2013-07-20T06:50 | 55.2148 | 4.5740 | -44 | 46.6 | 47 | 5.9278 | 33.9153 | 34.5403 | 5.9239 | 27.1990 | 202.622 | 65.24 | 72.85 | 0.49 | 21 |
| HE406/13-2 | 2013-07-20T06:50 | 55.2148 | 4.5740 | -44 | 47.6 | 48 | 5.9281 | 33.9160 | 34.5402 | 5.9241 | 27.1990 | 202.215 | 65.11 | 72.29 | 0.41 | 17 |
| HE406/13-3 | 2013-07-20T07:10 | 55.2147 | 4.5742 | -44 | 3.0 | 3 | 16.4842 | 43.8924 | 34.5644 | 16.4837 | 25.3011 | 218.126 | 88.21 | 92.70 | 0.35 | 4 |
| HE406/13-3 | 2013-07-20T07:10 | 55.2147 | 4.5742 | -44 | 4.0 | 4 | 16.4849 | 43.8939 | 34.5648 | 16.4843 | 25.3013 | 218.529 | 88.37 | 92.70 | 0.35 | 25 |
| HE406/13-3 | 2013-07-20T07:10 | 55.2147 | 4.5742 | -44 | 5.0 | 5 | 16.4853 | 43.8947 | 34.5647 | 16.4845 | 25.3012 | 218.191 | 88.23 | 92.72 | 0.35 | 21 |
| HE406/13-3 | 2013-07-20T07:10 | 55.2147 | 4.5742 | -44 | 5.9 | 6 | 16.4850 | 43.8951 | 34.5649 | 16.4840 | 25.3014 | 217.901 | 88.12 | 92.63 | 0.32 | 18 |
| HE406/13-3 | 2013-07-20T07:10 | 55.2147 | 4.5742 | -44 | 6.9 | 7 | 16.4848 | 43.8953 | 34.5649 | 16.4837 | 25.3015 | 218.224 | 88.25 | 92.66 | 0.35 | 26 |
| HE406/13-3 | 2013-07-20T07:10 | 55.2147 | 4.5742 | -44 | 7.9 | 8 | 16.4788 | 43.8898 | 34.5649 | 16.4775 | 25.3029 | 218.503 | 88.35 | 92.74 | 0.35 | 19 |
| HE406/13-3 | 2013-07-20T07:10 | 55.2147 | 4.5742 | -44 | 8.9 | 9 | 16.4708 | 43.8828 | 34.5652 | 16.4694 | 25.3051 | 217.841 | 88.07 | 92.67 | 0.35 | 20 |
| HE406/13-3 | 2013-07-20T07:10 | 55.2147 | 4.5742 | -44 | 9.9 | 10 | 16.4665 | 43.8791 | 34.5653 | 16.4649 | 25.3062 | 218.303 | 88.25 | 92.71 | 0.37 | 22 |
| HE406/13-3 | 2013-07-20T07:10 | 55.2147 | 4.5742 | -44 | 10.9 | 11 | 16.3643 | 43.7749 | 34.5616 | 16.3625 | 25.3271 | 219.093 | 88.39 | 92.60 | 0.34 | 19 |
| HE406/13-3 | 2013-07-20T07:10 | 55.2147 | 4.5742 | -44 | 11.9 | 12 | 15.9548 | 43.3655 | 34.5542 | 15.9529 | 25.4154 | 220.312 | 88.16 | 92.54 | 0.35 | 20 |
| HE406/13-3 | 2013-07-20T07:10 | 55.2147 | 4.5742 | -44 | 12.9 | 13 | 15.2478 | 42.6783 | 34.5568 | 15.2458 | 25.5761 | 221.766 | 87.50 | 92.20 | 0.42 | 15 |
| HE406/13-3 | 2013-07-20T07:10 | 55.2147 | 4.5742 | -44 | 13.9 | 14 | 15.0412 | 42.4868 | 34.5651 | 15.0391 | 25.6281 | 223.372 | 87.77 | 91.60 | 0.56 | 22 |
| HE406/13-3 | 2013-07-20T07:10 | 55.2147 | 4.5742 | -44 | 14.9 | 15 | 14.9857 | 42.4352 | 34.5670 | 14.9835 | 25.6417 | 229.267 | 89.99 | 91.61 | 0.59 | 25 |
| HE406/13-3 | 2013-07-20T07:10 | 55.2147 | 4.5742 | -44 | 15.9 | 16 | 14.8963 | 42.3351 | 34.5546 | 14.8939 | 25.6517 | 229.777 | 90.02 | 91.57 | 0.64 | 21 |
| HE406/13-3 | 2013-07-20T07:10 | 55.2147 | 4.5742 | -44 | 16.8 | 17 | 14.2898 | 41.6732 | 34.4859 | 14.2873 | 25.7292 | 231.872 | 89.70 | 91.61 | 0.66 | 15 |
| HE406/13-3 | 2013-07-20T07:10 | 55.2147 | 4.5742 | -44 | 17.8 | 18 | 13.9265 | 41.3022 | 34.4664 | 13.9239 | 25.7906 | 230.777 | 88.60 | 91.59 | 0.66 | 15 |
| HE406/13-3 | 2013-07-20T07:10 | 55.2147 | 4.5742 | -44 | 18.8 | 19 | 13.5469 | 40.9521 | 34.4801 | 13.5442 | 25.8798 | 230.123 | 87.67 | 91.17 | 0.85 | 21 |
| HE406/13-3 | 2013-07-20T07:10 | 55.2147 | 4.5742 | -44 | 19.8 | 20 | 12.9913 | 40.4218 | 34.4819 | 12.9886 | 25.9937 | 235.105 | 88.54 | 90.74 | 0.96 | 15 |
| HE406/13-3 | 2013-07-20T07:10 | 55.2147 | 4.5742 | -44 | 20.8 | 21 | 12.9708 | 40.4606 | 34.5372 | 12.9679 | 26.0407 | 235.122 | 88.54 | 90.89 | 0.92 | 15 |
| HE406/13-3 | 2013-07-20T07:10 | 55.2147 | 4.5742 | -44 | 21.8 | 22 | 12.9184 | 40.4434 | 34.5682 | 12.9154 | 26.0752 | 235.701 | 88.68 | 91.06 | 0.91 | 17 |
| HE406/13-3 | 2013-07-20T07:10 | 55.2147 | 4.5742 | -44 | 22.8 | 23 | 12.8957 | 40.4450 | 34.5901 | 12.8926 | 26.0968 | 239.325 | 90.01 | 91.65 | 0.92 | 20 |
| HE406/13-3 | 2013-07-20T07:10 | 55.2147 | 4.5742 | -44 | 23.8 | 24 | 12.8182 | 40.3839 | 34.6023 | 12.8150 | 26.1216 | 240.534 | 90.33 | 91.76 | 0.90 | 16 |
| HE406/13-3 | 2013-07-20T07:10 | 55.2147 | 4.5742 | -44 | 24.8 | 25 | 12.6870 | 40.2521 | 34.5960 | 12.6837 | 26.1428 | 240.329 | 90.00 | 91.72 | 0.86 | 14 |
| HE406/13-3 | 2013-07-20T07:10 | 55.2147 | 4.5742 | -44 | 25.8 | 26 | 11.8287 | 39.3484 | 34.5127 | 11.8254 | 26.2437 | 243.421 | 89.47 | 91.50 | 1.02 | 14 |
| HE406/13-3 | 2013-07-20T07:10 | 55.2147 | 4.5742 | -44 | 26.8 | 27 | 10.1918 | 37.7516 | 34.4582 | 10.1887 | 26.4965 | 239.826 | 85.06 | 89.48 | 1.83 | 18 |
| HE406/13-3 | 2013-07-20T07:10 | 55.2147 | 4.5742 | -44 | 27.7 | 28 | 9.1625 | 36.7566 | 34.4200 | 9.1595 | 26.6384 | 245.609 | 85.13 | 87.71 | 2.65 | 15 |
| HE406/13-3 | 2013-07-20T07:10 | 55.2147 | 4.5742 | -44 | 28.7 | 29 | 7.7099 | 35.3858 | 34.3841 | 7.7071 | 26.8333 | 251.964 | 84.48 | 86.41 | 3.94 | 15 |
| HE406/13-3 | 2013-07-20T07:10 | 55.2147 | 4.5742 | -44 | 29.7 | 30 | 6.4801 | 34.3165 | 34.4385 | 6.4775 | 27.0471 | 252.322 | 82.25 | 80.86 | 7.69 | 15 |
| HE406/13-3 | 2013-07-20T07:10 | 55.2147 | 4.5742 | -44 | 30.7 | 31 | 6.2457 | 34.1346 | 34.4718 | 6.2430 | 27.1041 | 246.220 | 79.84 | 79.86 | 7.22 | 17 |
| HE406/13-3 | 2013-07-20T07:10 | 55.2147 | 4.5742 | -44 | 31.7 | 32 | 6.0947 | 34.0164 | 34.4919 | 6.0920 | 27.1394 | 232.294 | 75.07 | 78.65 | 5.44 | 19 |
| HE406/13-3 | 2013-07-20T07:10 | 55.2147 | 4.5742 | -44 | 32.7 | 33 | 6.0346 | 33.9796 | 34.5112 | 6.0318 | 27.1623 | 212.836 | 68.69 | 78.86 | 2.03 | 17 |
| HE406/13-3 | 2013-07-20T07:10 | 55.2147 | 4.5742 | -44 | 33.7 | 34 | 5.9906 | 33.9517 | 34.5240 | 5.9877 | 27.1781 | 211.322 | 68.13 | 78.44 | 0.93 | 13 |
| HE406/13-3 | 2013-07-20T07:10 | 55.2147 | 4.5742 | -44 | 34.7 | 35 | 5.9714 | 33.9395 | 34.5293 | 5.9685 | 27.1847 | 211.000 | 68.00 | 78.36 | 0.73 | 13 |
| HE406/13-3 | 2013-07-20T07:10 | 55.2147 | 4.5742 | -44 | 35.7 | 36 | 5.9566 | 33.9350 | 34.5389 | 5.9536 | 27.1942 | 209.390 | 67.46 | 77.21 | 0.88 | 17 |
| HE406/13-3 | 2013-07-20T07:10 | 55.2147 | 4.5742 | -44 | 36.7 | 37 | 5.9507 | 33.9334 | 34.5425 | 5.9476 | 27.1978 | 208.580 | 67.19 | 76.64 | 0.77 | 14 |
| HE406/13-3 | 2013-07-20T07:10 | 55.2147 | 4.5742 | -44 | 37.7 | 38 | 5.9443 | 33.9284 | 34.5429 | 5.9411 | 27.1989 | 208.264 | 67.08 | 76.32 | 0.62 | 17 |
| HE406/13-3 | 2013-07-20T07:10 | 55.2147 | 4.5742 | -44 | 38.6 | 39 | 5.9375 | 33.9241 | 34.5445 | 5.9342 | 27.2010 | 207.093 | 66.70 | 75.08 | 0.60 | 18 |
| HE406/13-3 | 2013-07-20T07:10 | 55.2147 | 4.5742 | -44 | 39.6 | 40 | 5.9342 | 33.9226 | 34.5457 | 5.9309 | 27.2024 | 205.883 | 66.30 | 74.23 | 0.49 | 18 |
| HE406/13-3 | 2013-07-20T07:10 | 55.2147 | 4.5742 | -44 | 40.6 | 41 | 5.9337 | 33.9234 | 34.5465 | 5.9303 | 27.2032 | 204.846 | 65.97 | 73.57 | 0.47 | 16 |
| HE406/13-3 | 2013-07-20T07:10 | 55.2147 | 4.5742 | -44 | 41.6 | 42 | 5.9323 | 33.9228 | 34.5468 | 5.9288 | 27.2036 | 204.328 | 65.80 | 73.39 | 0.40 | 15 |
| HE406/13-3 | 2013-07-20T07:10 | 55.2147 | 4.5742 | -44 | 42.6 | 43 | 5.9311 | 33.9222 | 34.5468 | 5.9275 | 27.2037 | 204.217 | 65.76 | 73.30 | 0.38 | 16 |
| HE406/13-3 | 2013-07-20T07:10 | 55.2147 | 4.5742 | -44 | 43.6 | 44 | 5.9306 | 33.9219 | 34.5465 | 5.9269 | 27.2036 | 204.154 | 65.74 | 73.02 | 0.38 | 16 |
| HE406/13-3 | 2013-07-20T07:10 | 55.2147 | 4.5742 | -44 | 44.6 | 45 | 5.9289 | 33.9206 | 34.5462 | 5.9251 | 27.2036 | 204.030 | 65.70 | 72.50 | 0.36 | 15 |
| HE406/13-3 | 2013-07-20T07:10 | 55.2147 | 4.5742 | -44 | 45.6 | 46 | 5.9292 | 33.9209 | 34.5457 | 5.9254 | 27.2031 | 203.655 | 65.58 | 72.23 | 0.37 | 15 |
| HE406/14-1 | 2013-07-20T09:01 | 55.3058 | 4.0907 | -39 | 3.0 | 3 | 16.6169 | 44.0315 | 34.5720 | 16.6164 | 25.2760 | 222.564 | 90.24 | 84.63 | 0.91 | 15 |
| HE406/14-1 | 2013-07-20T09:01 | 55.3058 | 4.0907 | -39 | 4.0 | 4 | 16.6170 | 44.0321 | 34.5720 | 16.6164 | 25.2761 | 222.795 | 90.33 | 85.28 | 0.92 | 25 |
| HE406/14-1 | 2013-07-20T09:01 | 55.3058 | 4.0907 | -39 | 5.0 | 5 | 16.6176 | 44.0332 | 34.5721 | 16.6168 | 25.2760 | 222.731 | 90.31 | 85.43 | 0.91 | 25 |
| HE406/14-1 | 2013-07-20T09:01 | 55.3058 | 4.0907 | -39 | 5.9 | 6 | 16.6180 | 44.0342 | 34.5722 | 16.6170 | 25.2761 | 223.498 | 90.62 | 85.52 | 0.91 | 25 |
| HE406/14-1 | 2013-07-20T09:01 | 55.3058 | 4.0907 | -39 | 6.9 | 7 | 16.6187 | 44.0353 | 34.5722 | 16.6176 | 25.2759 | 223.221 | 90.51 | 85.63 | 0.93 | 22 |
| HE406/14-1 | 2013-07-20T09:01 | 55.3058 | 4.0907 | -39 | 7.9 | 8 | 16.6185 | 44.0356 | 34.5723 | 16.6172 | 25.2760 | 223.146 | 90.48 | 85.64 | 0.93 | 16 |
| HE406/14-1 | 2013-07-20T09:01 | 55.3058 | 4.0907 | -39 | 8.9 | 9 | 16.6185 | 44.0361 | 34.5723 | 16.6170 | 25.2761 | 223.522 | 90.63 | 85.69 | 0.96 | 28 |
| HE406/14-1 | 2013-07-20T09:01 | 55.3058 | 4.0907 | -39 | 9.9 | 10 | 16.6182 | 44.0363 | 34.5723 | 16.6166 | 25.2762 | 224.075 | 90.85 | 85.54 | 0.99 | 18 |
| HE406/14-1 | 2013-07-20T09:01 | 55.3058 | 4.0907 | -39 | 10.9 | 11 | 16.5934 | 44.0121 | 34.5722 | 16.5916 | 25.2820 | 223.835 | 90.71 | 85.64 | 0.98 | 21 |
| HE406/14-1 | 2013-07-20T09:01 | 55.3058 | 4.0907 | -39 | 11.9 | 12 | 16.5775 | 43.9971 | 34.5724 | 16.5756 | 25.2858 | 223.486 | 90.54 | 85.73 | 0.99 | 21 |
| HE406/14-1 | 2013-07-20T09:01 | 55.3058 | 4.0907 | -39 | 12.9 | 13 | 16.1139 | 43.5276 | 34.5593 | 16.1118 | 25.3830 | 226.269 | 90.83 | 85.81 | 1.05 | 21 |
| HE406/14-1 | 2013-07-20T09:01 | 55.3058 | 4.0907 | -39 | 13.9 | 14 | 15.2775 | 42.7104 | 34.5592 | 15.2754 | 25.5714 | 228.703 | 90.29 | 86.46 | 1.00 | 18 |
| HE406/14-1 | 2013-07-20T09:01 | 55.3058 | 4.0907 | -39 | 14.9 | 15 | 15.1425 | 42.5886 | 34.5677 | 15.1402 | 25.6078 | 226.895 | 89.34 | 88.41 | 1.04 | 20 |
| HE406/14-1 | 2013-07-20T09:01 | 55.3058 | 4.0907 | -39 | 15.9 | 16 | 15.0700 | 42.5172 | 34.5665 | 15.0676 | 25.6229 | 233.173 | 91.68 | 89.18 | 1.09 | 23 |
| HE406/14-1 | 2013-07-20T09:01 | 55.3058 | 4.0907 | -39 | 16.8 | 17 | 15.0117 | 42.4631 | 34.5685 | 15.0091 | 25.6372 | 235.610 | 92.53 | 89.91 | 1.17 | 20 |
| HE406/14-1 | 2013-07-20T09:01 | 55.3058 | 4.0907 | -39 | 17.8 | 18 | 14.8656 | 42.3196 | 34.5669 | 14.8629 | 25.6679 | 234.753 | 91.92 | 90.25 | 1.08 | 15 |
| HE406/14-1 | 2013-07-20T09:01 | 55.3058 | 4.0907 | -39 | 18.8 | 19 | 14.0312 | 41.4731 | 34.5311 | 14.0285 | 25.8188 | 237.507 | 91.42 | 90.49 | 1.07 | 12 |
| HE406/14-1 | 2013-07-20T09:01 | 55.3058 | 4.0907 | -39 | 19.8 | 20 | 13.2417 | 40.7530 | 34.5685 | 13.2389 | 26.0104 | 236.659 | 89.64 | 90.30 | 1.25 | 24 |
| HE406/14-1 | 2013-07-20T09:01 | 55.3058 | 4.0907 | -39 | 20.8 | 21 | 12.8857 | 40.3840 | 34.5418 | 12.8829 | 26.0613 | 244.568 | 91.94 | 90.46 | 1.58 | 19 |
| HE406/14-1 | 2013-07-20T09:01 | 55.3058 | 4.0907 | -39 | 21.8 | 22 | 12.7840 | 40.3031 | 34.5572 | 12.7810 | 26.0934 | 250.517 | 93.98 | 90.56 | 1.59 | 18 |
| HE406/14-1 | 2013-07-20T09:01 | 55.3058 | 4.0907 | -39 | 22.8 | 23 | 12.7694 | 40.3099 | 34.5766 | 12.7663 | 26.1114 | 247.836 | 92.96 | 90.72 | 1.40 | 18 |
| HE406/14-1 | 2013-07-20T09:01 | 55.3058 | 4.0907 | -39 | 23.8 | 24 | 12.7157 | 40.2638 | 34.5812 | 12.7125 | 26.1256 | 246.698 | 92.43 | 90.86 | 1.53 | 17 |
| HE406/14-1 | 2013-07-20T09:01 | 55.3058 | 4.0907 | -39 | 24.8 | 25 | 12.5931 | 40.1464 | 34.5807 | 12.5898 | 26.1494 | 246.661 | 92.18 | 90.78 | 1.79 | 17 |
| HE406/14-1 | 2013-07-20T09:01 | 55.3058 | 4.0907 | -39 | 25.8 | 26 | 12.3098 | 39.8770 | 34.5815 | 12.3064 | 26.2052 | 245.856 | 91.33 | 90.41 | 2.04 | 17 |
| HE406/14-1 | 2013-07-20T09:01 | 55.3058 | 4.0907 | -39 | 26.8 | 27 | 11.2379 | 38.8529 | 34.5757 | 11.2346 | 26.4025 | 245.298 | 89.06 | 89.85 | 2.48 | 16 |
| HE406/14-1 | 2013-07-20T09:01 | 55.3058 | 4.0907 | -39 | 27.7 | 28 | 8.4991 | 36.2896 | 34.5749 | 8.4962 | 26.8645 | 247.448 | 84.58 | 89.91 | 2.77 | 18 |
| HE406/14-1 | 2013-07-20T09:01 | 55.3058 | 4.0907 | -39 | 28.7 | 29 | 7.4207 | 35.3279 | 34.6087 | 7.4179 | 27.0517 | 234.415 | 78.19 | 87.24 | 3.98 | 19 |
| HE406/14-1 | 2013-07-20T09:01 | 55.3058 | 4.0907 | -39 | 29.7 | 30 | 7.2082 | 35.1244 | 34.5985 | 7.2054 | 27.0738 | 226.773 | 75.27 | 88.15 | 3.70 | 16 |
| HE406/14-1 | 2013-07-20T09:01 | 55.3058 | 4.0907 | -39 | 30.7 | 31 | 7.2054 | 35.1374 | 34.6152 | 7.2025 | 27.0873 | 208.754 | 69.29 | 88.99 | 1.86 | 19 |
| HE406/14-1 | 2013-07-20T09:01 | 55.3058 | 4.0907 | -39 | 31.7 | 32 | 7.2021 | 35.1357 | 34.6160 | 7.1991 | 27.0885 | 194.566 | 64.58 | 89.25 | 1.43 | 16 |
| HE406/14-1 | 2013-07-20T09:01 | 55.3058 | 4.0907 | -39 | 32.7 | 33 | 7.1938 | 35.1315 | 34.6193 | 7.1907 | 27.0923 | 193.987 | 64.37 | 89.56 | 0.91 | 16 |
| HE406/14-1 | 2013-07-20T09:01 | 55.3058 | 4.0907 | -39 | 33.7 | 34 | 7.1604 | 35.1063 | 34.6247 | 7.1572 | 27.1012 | 194.530 | 64.51 | 89.36 | 1.06 | 20 |
| HE406/14-1 | 2013-07-20T09:01 | 55.3058 | 4.0907 | -39 | 34.7 | 35 | 7.1385 | 35.0905 | 34.6289 | 7.1352 | 27.1076 | 194.557 | 64.48 | 88.80 | 2.13 | 17 |
| HE406/14-1 | 2013-07-20T09:01 | 55.3058 | 4.0907 | -39 | 35.7 | 36 | 7.1240 | 35.0806 | 34.6321 | 7.1207 | 27.1122 | 194.249 | 64.36 | 88.37 | 2.27 | 16 |
| HE406/14-1 | 2013-07-20T09:01 | 55.3058 | 4.0907 | -39 | 36.7 | 37 | 7.0935 | 35.0554 | 34.6346 | 7.0901 | 27.1184 | 194.270 | 64.32 | 88.07 | 1.53 | 15 |
| HE406/14-1 | 2013-07-20T09:01 | 55.3058 | 4.0907 | -39 | 37.7 | 38 | 7.0788 | 35.0434 | 34.6356 | 7.0753 | 27.1213 | 193.885 | 64.17 | 87.72 | 1.52 | 14 |
| HE406/14-1 | 2013-07-20T09:01 | 55.3058 | 4.0907 | -39 | 38.6 | 39 | 7.0679 | 35.0328 | 34.6345 | 7.0643 | 27.1219 | 192.907 | 63.83 | 87.62 | 1.90 | 19 |
| HE406/14-1 | 2013-07-20T09:01 | 55.3058 | 4.0907 | -39 | 39.6 | 40 | 7.0480 | 35.0153 | 34.6347 | 7.0443 | 27.1249 | 192.892 | 63.80 | 87.22 | 1.39 | 18 |
| HE406/14-1 | 2013-07-20T09:01 | 55.3058 | 4.0907 | -39 | 40.6 | 41 | 7.0223 | 34.9923 | 34.6348 | 7.0185 | 27.1286 | 192.984 | 63.79 | 86.23 | 1.28 | 12 |
| HE406/15-1 | 2013-07-20T10:10 | 55.3062 | 4.0905 | -40 | 3.0 | 3 | 16.5334 | 43.9434 | 34.5667 | 16.5329 | 25.2915 | 223.690 | 90.54 | 85.15 | 0.84 | 12 |
| HE406/15-1 | 2013-07-20T10:10 | 55.3062 | 4.0905 | -40 | 4.0 | 4 | 16.5335 | 43.9442 | 34.5669 | 16.5329 | 25.2916 | 223.720 | 90.56 | 85.26 | 0.84 | 30 |
| HE406/15-1 | 2013-07-20T10:10 | 55.3062 | 4.0905 | -40 | 5.0 | 5 | 16.5334 | 43.9447 | 34.5671 | 16.5326 | 25.2918 | 223.895 | 90.63 | 85.29 | 0.82 | 23 |
| HE406/15-1 | 2013-07-20T10:10 | 55.3062 | 4.0905 | -40 | 5.9 | 6 | 16.5336 | 43.9453 | 34.5670 | 16.5326 | 25.2918 | 223.915 | 90.64 | 85.14 | 0.84 | 25 |
| HE406/15-1 | 2013-07-20T10:10 | 55.3062 | 4.0905 | -40 | 6.9 | 7 | 16.5335 | 43.9456 | 34.5671 | 16.5324 | 25.2918 | 223.862 | 90.61 | 85.10 | 0.94 | 18 |
| HE406/15-1 | 2013-07-20T10:10 | 55.3062 | 4.0905 | -40 | 7.9 | 8 | 16.5341 | 43.9466 | 34.5670 | 16.5328 | 25.2917 | 223.635 | 90.52 | 85.26 | 0.99 | 18 |
| HE406/15-1 | 2013-07-20T10:10 | 55.3062 | 4.0905 | -40 | 8.9 | 9 | 16.5352 | 43.9482 | 34.5671 | 16.5338 | 25.2915 | 224.032 | 90.69 | 85.38 | 0.98 | 25 |
| HE406/15-1 | 2013-07-20T10:10 | 55.3062 | 4.0905 | -40 | 9.9 | 10 | 16.5350 | 43.9484 | 34.5671 | 16.5334 | 25.2916 | 223.961 | 90.66 | 85.21 | 0.98 | 19 |
| HE406/15-1 | 2013-07-20T10:10 | 55.3062 | 4.0905 | -40 | 10.9 | 11 | 16.5348 | 43.9487 | 34.5671 | 16.5330 | 25.2917 | 224.092 | 90.71 | 85.19 | 1.00 | 22 |
| HE406/15-1 | 2013-07-20T10:10 | 55.3062 | 4.0905 | -40 | 11.9 | 12 | 16.5299 | 43.9441 | 34.5669 | 16.5280 | 25.2928 | 224.233 | 90.76 | 85.29 | 1.04 | 21 |
| HE406/15-1 | 2013-07-20T10:10 | 55.3062 | 4.0905 | -40 | 12.9 | 13 | 16.4544 | 43.8591 | 34.5570 | 16.4523 | 25.3027 | 224.324 | 90.65 | 85.34 | 1.00 | 19 |
| HE406/15-1 | 2013-07-20T10:10 | 55.3062 | 4.0905 | -40 | 13.9 | 14 | 15.4115 | 42.8385 | 34.5569 | 15.4094 | 25.5399 | 228.126 | 90.31 | 85.75 | 1.06 | 24 |
| HE406/15-1 | 2013-07-20T10:10 | 55.3062 | 4.0905 | -40 | 14.9 | 15 | 15.1269 | 42.5877 | 34.5806 | 15.1246 | 25.6212 | 225.906 | 88.93 | 87.73 | 1.06 | 21 |
| HE406/15-1 | 2013-07-20T10:10 | 55.3062 | 4.0905 | -40 | 15.9 | 16 | 15.0805 | 42.5388 | 34.5768 | 15.0781 | 25.6285 | 235.154 | 92.48 | 89.15 | 1.01 | 19 |
| HE406/15-1 | 2013-07-20T10:10 | 55.3062 | 4.0905 | -40 | 16.8 | 17 | 15.0388 | 42.5013 | 34.5793 | 15.0362 | 25.6396 | 237.223 | 93.22 | 89.81 | 1.01 | 19 |
| HE406/15-1 | 2013-07-20T10:10 | 55.3062 | 4.0905 | -40 | 17.8 | 18 | 14.9647 | 42.4334 | 34.5827 | 14.9620 | 25.6585 | 236.517 | 92.81 | 89.95 | 1.03 | 17 |
| HE406/15-1 | 2013-07-20T10:10 | 55.3062 | 4.0905 | -40 | 18.8 | 19 | 14.5664 | 42.0358 | 34.5726 | 14.5636 | 25.7371 | 235.711 | 91.74 | 90.22 | 1.16 | 18 |
| HE406/15-1 | 2013-07-20T10:10 | 55.3062 | 4.0905 | -40 | 19.8 | 20 | 13.0348 | 40.4875 | 34.5048 | 13.0321 | 26.0028 | 237.267 | 89.45 | 90.29 | 1.34 | 18 |
| HE406/15-1 | 2013-07-20T10:10 | 55.3062 | 4.0905 | -40 | 20.8 | 21 | 12.7548 | 40.2574 | 34.5406 | 12.7520 | 26.0863 | 235.803 | 88.40 | 90.36 | 1.32 | 14 |
| HE406/15-1 | 2013-07-20T10:10 | 55.3062 | 4.0905 | -40 | 21.8 | 22 | 12.7902 | 40.3192 | 34.5669 | 12.7872 | 26.0997 | 239.374 | 89.82 | 90.86 | 1.20 | 15 |
| HE406/15-1 | 2013-07-20T10:10 | 55.3062 | 4.0905 | -40 | 22.8 | 23 | 12.7467 | 40.2864 | 34.5749 | 12.7436 | 26.1145 | 244.125 | 91.52 | 91.07 | 1.35 | 19 |
| HE406/15-1 | 2013-07-20T10:10 | 55.3062 | 4.0905 | -40 | 23.8 | 24 | 12.6857 | 40.2311 | 34.5775 | 12.6825 | 26.1286 | 247.423 | 92.64 | 90.77 | 1.56 | 17 |
| HE406/15-1 | 2013-07-20T10:10 | 55.3062 | 4.0905 | -40 | 24.8 | 25 | 12.5904 | 40.1430 | 34.5799 | 12.5871 | 26.1493 | 246.249 | 92.02 | 90.78 | 2.02 | 17 |
| HE406/15-1 | 2013-07-20T10:10 | 55.3062 | 4.0905 | -40 | 25.8 | 26 | 12.3365 | 39.8939 | 34.5732 | 12.3331 | 26.1936 | 244.829 | 91.00 | 90.38 | 2.28 | 17 |
| HE406/15-1 | 2013-07-20T10:10 | 55.3062 | 4.0905 | -40 | 26.8 | 27 | 11.5306 | 39.1132 | 34.5590 | 11.5272 | 26.3355 | 245.730 | 89.77 | 90.04 | 2.33 | 16 |
| HE406/15-1 | 2013-07-20T10:10 | 55.3062 | 4.0905 | -40 | 27.7 | 28 | 10.3616 | 38.0194 | 34.5680 | 10.3583 | 26.5529 | 240.093 | 85.53 | 89.97 | 3.05 | 18 |
| HE406/15-1 | 2013-07-20T10:10 | 55.3062 | 4.0905 | -40 | 28.7 | 29 | 8.9418 | 36.6801 | 34.5536 | 8.9387 | 26.7784 | 247.161 | 85.32 | 89.34 | 3.28 | 19 |
| HE406/15-1 | 2013-07-20T10:10 | 55.3062 | 4.0905 | -40 | 29.7 | 30 | 7.4805 | 35.3528 | 34.5756 | 7.4776 | 27.0170 | 254.625 | 85.03 | 89.06 | 2.73 | 14 |
| HE406/15-1 | 2013-07-20T10:10 | 55.3062 | 4.0905 | -40 | 30.7 | 31 | 7.1070 | 35.0429 | 34.6103 | 7.1041 | 27.0973 | 245.547 | 81.31 | 88.53 | 2.02 | 18 |
| HE406/15-1 | 2013-07-20T10:10 | 55.3062 | 4.0905 | -40 | 31.7 | 32 | 7.0584 | 35.0087 | 34.6210 | 7.0554 | 27.1125 | 213.938 | 70.77 | 88.04 | 1.47 | 16 |
| HE406/15-1 | 2013-07-20T10:10 | 55.3062 | 4.0905 | -40 | 32.7 | 33 | 7.0181 | 34.9684 | 34.6167 | 7.0151 | 27.1148 | 198.376 | 65.56 | 87.92 | 1.37 | 15 |
| HE406/15-1 | 2013-07-20T10:10 | 55.3062 | 4.0905 | -40 | 33.7 | 34 | 7.0127 | 34.9682 | 34.6215 | 7.0096 | 27.1193 | 195.569 | 64.63 | 87.87 | 1.28 | 14 |
| HE406/15-1 | 2013-07-20T10:10 | 55.3062 | 4.0905 | -40 | 34.7 | 35 | 7.0112 | 34.9698 | 34.6242 | 7.0080 | 27.1216 | 195.155 | 64.49 | 87.49 | 1.33 | 20 |
| HE406/15-1 | 2013-07-20T10:10 | 55.3062 | 4.0905 | -40 | 35.7 | 36 | 7.0077 | 34.9713 | 34.6289 | 7.0044 | 27.1259 | 195.881 | 64.73 | 87.50 | 1.37 | 17 |
| HE406/15-1 | 2013-07-20T10:10 | 55.3062 | 4.0905 | -40 | 36.7 | 37 | 6.9980 | 34.9669 | 34.6333 | 6.9946 | 27.1306 | 196.236 | 64.83 | 87.37 | 1.01 | 18 |
| HE406/15-1 | 2013-07-20T10:10 | 55.3062 | 4.0905 | -40 | 37.7 | 38 | 6.9984 | 34.9695 | 34.6353 | 6.9949 | 27.1322 | 196.314 | 64.86 | 87.20 | 0.88 | 17 |
| HE406/15-1 | 2013-07-20T10:10 | 55.3062 | 4.0905 | -40 | 38.6 | 39 | 7.0024 | 34.9767 | 34.6387 | 6.9988 | 27.1343 | 195.946 | 64.74 | 87.19 | 1.23 | 18 |
| HE406/15-1 | 2013-07-20T10:10 | 55.3062 | 4.0905 | -40 | 39.6 | 40 | 6.9959 | 34.9719 | 34.6394 | 6.9922 | 27.1358 | 195.378 | 64.55 | 87.17 | 1.18 | 17 |
| HE406/15-1 | 2013-07-20T10:10 | 55.3062 | 4.0905 | -40 | 40.6 | 41 | 6.9953 | 34.9719 | 34.6396 | 6.9915 | 27.1360 | 194.851 | 64.37 | 86.93 | 1.53 | 16 |
| HE406/15-1 | 2013-07-20T10:10 | 55.3062 | 4.0905 | -40 | 41.6 | 42 | 6.9953 | 34.9713 | 34.6384 | 6.9914 | 27.1351 | 194.213 | 64.16 | 86.93 | 1.82 | 17 |
| HE406/15-1 | 2013-07-20T10:10 | 55.3062 | 4.0905 | -40 | 42.6 | 43 | 6.9976 | 34.9713 | 34.6356 | 6.9936 | 27.1326 | 194.042 | 64.11 | 87.09 | 1.89 | 7 |
| HE406/16-1 | 2013-07-20T10:48 | 55.3060 | 4.0908 | -40 | 3.0 | 3 | 16.5322 | 43.9434 | 34.5677 | 16.5317 | 25.2925 | 224.668 | 90.94 | 84.72 | 0.81 | 6 |
| HE406/16-1 | 2013-07-20T10:48 | 55.3060 | 4.0908 | -40 | 4.0 | 4 | 16.5323 | 43.9441 | 34.5679 | 16.5317 | 25.2927 | 223.475 | 90.46 | 84.40 | 0.81 | 23 |
| HE406/16-1 | 2013-07-20T10:48 | 55.3060 | 4.0908 | -40 | 5.0 | 5 | 16.5319 | 43.9443 | 34.5680 | 16.5311 | 25.2929 | 222.988 | 90.26 | 84.62 | 0.93 | 24 |
| HE406/16-1 | 2013-07-20T10:48 | 55.3060 | 4.0908 | -40 | 5.9 | 6 | 16.5308 | 43.9438 | 34.5682 | 16.5298 | 25.2933 | 223.468 | 90.45 | 84.44 | 0.97 | 26 |
| HE406/16-1 | 2013-07-20T10:48 | 55.3060 | 4.0908 | -40 | 6.9 | 7 | 16.5309 | 43.9443 | 34.5682 | 16.5298 | 25.2933 | 223.470 | 90.45 | 84.66 | 0.99 | 25 |
| HE406/16-1 | 2013-07-20T10:48 | 55.3060 | 4.0908 | -40 | 7.9 | 8 | 16.5315 | 43.9454 | 34.5682 | 16.5302 | 25.2932 | 223.403 | 90.43 | 84.71 | 0.97 | 25 |
| HE406/16-1 | 2013-07-20T10:48 | 55.3060 | 4.0908 | -40 | 8.9 | 9 | 16.5209 | 43.9354 | 34.5682 | 16.5195 | 25.2957 | 224.011 | 90.65 | 84.74 | 1.01 | 24 |
| HE406/16-1 | 2013-07-20T10:48 | 55.3060 | 4.0908 | -40 | 9.9 | 10 | 16.5186 | 43.9336 | 34.5682 | 16.5170 | 25.2963 | 223.538 | 90.46 | 84.93 | 1.03 | 20 |
| HE406/16-1 | 2013-07-20T10:48 | 55.3060 | 4.0908 | -40 | 10.9 | 11 | 16.5118 | 43.9276 | 34.5685 | 16.5100 | 25.2981 | 224.055 | 90.65 | 85.01 | 1.07 | 19 |
| HE406/16-1 | 2013-07-20T10:48 | 55.3060 | 4.0908 | -40 | 11.9 | 12 | 16.5076 | 43.9242 | 34.5686 | 16.5057 | 25.2993 | 224.185 | 90.70 | 85.04 | 1.06 | 17 |
| HE406/16-1 | 2013-07-20T10:48 | 55.3060 | 4.0908 | -40 | 12.9 | 13 | 16.4965 | 43.9134 | 34.5684 | 16.4944 | 25.3017 | 224.153 | 90.67 | 84.93 | 1.06 | 20 |
| HE406/16-1 | 2013-07-20T10:48 | 55.3060 | 4.0908 | -40 | 13.9 | 14 | 15.9515 | 43.3625 | 34.5536 | 15.9493 | 25.4158 | 226.500 | 90.63 | 85.13 | 1.12 | 27 |
| HE406/16-1 | 2013-07-20T10:48 | 55.3060 | 4.0908 | -40 | 14.9 | 15 | 15.1377 | 42.5802 | 34.5643 | 15.1354 | 25.6062 | 227.262 | 89.48 | 86.14 | 1.19 | 21 |
| HE406/16-1 | 2013-07-20T10:48 | 55.3060 | 4.0908 | -40 | 15.9 | 16 | 15.0915 | 42.5462 | 34.5738 | 15.0891 | 25.6238 | 232.409 | 91.42 | 88.38 | 1.13 | 21 |
| HE406/16-1 | 2013-07-20T10:48 | 55.3060 | 4.0908 | -40 | 16.8 | 17 | 15.0513 | 42.5225 | 34.5875 | 15.0487 | 25.6432 | 235.979 | 92.76 | 89.38 | 1.23 | 17 |
| HE406/16-1 | 2013-07-20T10:48 | 55.3060 | 4.0908 | -40 | 17.8 | 18 | 14.9462 | 42.4263 | 34.5926 | 14.9435 | 25.6702 | 235.628 | 92.43 | 90.18 | 1.11 | 21 |
| HE406/16-1 | 2013-07-20T10:48 | 55.3060 | 4.0908 | -40 | 18.8 | 19 | 14.1728 | 41.6405 | 34.5596 | 14.1701 | 25.8109 | 237.274 | 91.61 | 90.56 | 1.32 | 23 |
| HE406/16-1 | 2013-07-20T10:48 | 55.3060 | 4.0908 | -40 | 19.8 | 20 | 12.8477 | 40.3143 | 34.5104 | 12.8450 | 26.0445 | 235.981 | 88.62 | 90.46 | 1.54 | 18 |
| HE406/16-1 | 2013-07-20T10:48 | 55.3060 | 4.0908 | -40 | 20.8 | 21 | 12.8185 | 40.3336 | 34.5551 | 12.8157 | 26.0849 | 241.123 | 90.52 | 90.50 | 1.47 | 18 |
| HE406/16-1 | 2013-07-20T10:48 | 55.3060 | 4.0908 | -40 | 21.8 | 22 | 12.7908 | 40.3334 | 34.5799 | 12.7878 | 26.1097 | 241.449 | 90.61 | 91.12 | 1.32 | 17 |
| HE406/16-1 | 2013-07-20T10:48 | 55.3060 | 4.0908 | -40 | 22.8 | 23 | 12.7480 | 40.2998 | 34.5866 | 12.7449 | 26.1234 | 245.075 | 91.89 | 90.96 | 1.37 | 19 |
| HE406/16-1 | 2013-07-20T10:48 | 55.3060 | 4.0908 | -40 | 23.8 | 24 | 12.6907 | 40.2498 | 34.5908 | 12.6875 | 26.1380 | 246.064 | 92.15 | 90.30 | 1.85 | 17 |
| HE406/16-1 | 2013-07-20T10:48 | 55.3060 | 4.0908 | -40 | 24.8 | 25 | 12.3365 | 39.8849 | 34.5649 | 12.3332 | 26.1871 | 246.529 | 91.63 | 90.02 | 1.99 | 11 |
| HE406/16-1 | 2013-07-20T10:48 | 55.3060 | 4.0908 | -40 | 25.8 | 26 | 11.3713 | 38.9762 | 34.5731 | 11.3681 | 26.3760 | 248.697 | 90.56 | 89.85 | 2.24 | 14 |
| HE406/16-1 | 2013-07-20T10:48 | 55.3060 | 4.0908 | -40 | 26.8 | 27 | 8.6377 | 36.3939 | 34.5501 | 8.6349 | 26.8235 | 247.436 | 84.83 | 88.90 | 2.86 | 18 |
| HE406/16-1 | 2013-07-20T10:48 | 55.3060 | 4.0908 | -40 | 27.7 | 28 | 7.1853 | 35.0929 | 34.5880 | 7.1827 | 27.0687 | 242.797 | 80.54 | 87.70 | 1.84 | 16 |
| HE406/16-1 | 2013-07-20T10:48 | 55.3060 | 4.0908 | -40 | 28.7 | 29 | 7.1736 | 35.0830 | 34.5884 | 7.1709 | 27.0707 | 220.781 | 73.22 | 87.92 | 1.61 | 15 |
| HE406/16-1 | 2013-07-20T10:48 | 55.3060 | 4.0908 | -40 | 29.7 | 30 | 7.1602 | 35.0802 | 34.5982 | 7.1574 | 27.0804 | 197.342 | 65.43 | 87.98 | 1.28 | 15 |
| HE406/16-1 | 2013-07-20T10:48 | 55.3060 | 4.0908 | -40 | 30.7 | 31 | 7.1513 | 35.0803 | 34.6068 | 7.1484 | 27.0884 | 192.917 | 63.95 | 87.98 | 1.30 | 17 |
| HE406/16-1 | 2013-07-20T10:48 | 55.3060 | 4.0908 | -40 | 31.7 | 32 | 7.1385 | 35.0743 | 34.6126 | 7.1355 | 27.0947 | 193.593 | 64.16 | 88.04 | 1.42 | 19 |
| HE406/16-1 | 2013-07-20T10:48 | 55.3060 | 4.0908 | -40 | 32.7 | 33 | 7.1170 | 35.0601 | 34.6181 | 7.1139 | 27.1021 | 193.093 | 63.96 | 88.03 | 1.64 | 19 |
| HE406/16-1 | 2013-07-20T10:48 | 55.3060 | 4.0908 | -40 | 33.7 | 34 | 7.1139 | 35.0621 | 34.6229 | 7.1107 | 27.1063 | 192.578 | 63.79 | 87.81 | 1.29 | 18 |
| HE406/16-1 | 2013-07-20T10:48 | 55.3060 | 4.0908 | -40 | 34.7 | 35 | 7.0935 | 35.0470 | 34.6263 | 7.0903 | 27.1118 | 192.659 | 63.79 | 87.87 | 1.43 | 14 |
| HE406/16-1 | 2013-07-20T10:48 | 55.3060 | 4.0908 | -40 | 35.7 | 36 | 7.0679 | 35.0262 | 34.6288 | 7.0646 | 27.1174 | 192.450 | 63.68 | 87.55 | 1.69 | 16 |
| HE406/16-1 | 2013-07-20T10:48 | 55.3060 | 4.0908 | -40 | 36.7 | 37 | 7.0313 | 34.9996 | 34.6358 | 7.0279 | 27.1280 | 192.401 | 63.61 | 87.33 | 1.26 | 19 |
| HE406/16-1 | 2013-07-20T10:48 | 55.3060 | 4.0908 | -40 | 37.7 | 38 | 7.0076 | 34.9787 | 34.6361 | 7.0041 | 27.1316 | 193.102 | 63.81 | 87.31 | 0.96 | 15 |
| HE406/16-1 | 2013-07-20T10:48 | 55.3060 | 4.0908 | -40 | 38.6 | 39 | 6.9980 | 34.9711 | 34.6369 | 6.9944 | 27.1336 | 193.376 | 63.89 | 87.13 | 0.93 | 18 |
| HE406/16-1 | 2013-07-20T10:48 | 55.3060 | 4.0908 | -40 | 39.6 | 40 | 6.9924 | 34.9666 | 34.6371 | 6.9887 | 27.1345 | 193.799 | 64.02 | 87.00 | 1.72 | 18 |
| HE406/16-1 | 2013-07-20T10:48 | 55.3060 | 4.0908 | -40 | 40.6 | 41 | 6.9883 | 34.9627 | 34.6364 | 6.9845 | 27.1345 | 193.686 | 63.97 | 87.10 | 1.16 | 16 |
| HE406/16-1 | 2013-07-20T10:48 | 55.3060 | 4.0908 | -40 | 41.6 | 42 | 6.9920 | 34.9617 | 34.6312 | 6.9881 | 27.1299 | 193.012 | 63.76 | 87.04 | 1.04 | 5 |
| HE406/17-1 | 2013-07-20T11:32 | 55.3055 | 4.0908 | -40 | 3.0 | 3 | 16.5167 | 43.9269 | 34.5667 | 16.5162 | 25.2953 | 223.917 | 90.61 | 84.60 | 0.55 | 7 |
| HE406/17-1 | 2013-07-20T11:32 | 55.3055 | 4.0908 | -40 | 4.0 | 4 | 16.5171 | 43.9279 | 34.5668 | 16.5165 | 25.2953 | 224.391 | 90.80 | 84.19 | 0.59 | 21 |
| HE406/17-1 | 2013-07-20T11:32 | 55.3055 | 4.0908 | -40 | 5.0 | 5 | 16.5151 | 43.9263 | 34.5668 | 16.5143 | 25.2958 | 224.417 | 90.81 | 84.42 | 0.64 | 23 |
| HE406/17-1 | 2013-07-20T11:32 | 55.3055 | 4.0908 | -40 | 5.9 | 6 | 16.5146 | 43.9264 | 34.5669 | 16.5136 | 25.2961 | 224.651 | 90.90 | 84.28 | 0.72 | 22 |
| HE406/17-1 | 2013-07-20T11:32 | 55.3055 | 4.0908 | -40 | 6.9 | 7 | 16.5153 | 43.9274 | 34.5668 | 16.5142 | 25.2958 | 224.629 | 90.89 | 84.41 | 0.82 | 23 |
| HE406/17-1 | 2013-07-20T11:32 | 55.3055 | 4.0908 | -40 | 7.9 | 8 | 16.5125 | 43.9252 | 34.5669 | 16.5112 | 25.2966 | 224.652 | 90.90 | 84.63 | 0.94 | 21 |
| HE406/17-1 | 2013-07-20T11:32 | 55.3055 | 4.0908 | -40 | 8.9 | 9 | 16.5095 | 43.9229 | 34.5670 | 16.5081 | 25.2975 | 224.614 | 90.88 | 84.57 | 1.02 | 25 |
| HE406/17-1 | 2013-07-20T11:32 | 55.3055 | 4.0908 | -40 | 9.9 | 10 | 16.5125 | 43.9263 | 34.5670 | 16.5109 | 25.2968 | 224.772 | 90.95 | 84.68 | 1.05 | 21 |
| HE406/17-1 | 2013-07-20T11:32 | 55.3055 | 4.0908 | -40 | 10.9 | 11 | 16.5123 | 43.9266 | 34.5671 | 16.5105 | 25.2970 | 224.743 | 90.93 | 84.57 | 1.08 | 17 |
| HE406/17-1 | 2013-07-20T11:32 | 55.3055 | 4.0908 | -40 | 11.9 | 12 | 16.5111 | 43.9257 | 34.5670 | 16.5092 | 25.2972 | 224.778 | 90.95 | 84.61 | 1.07 | 23 |
| HE406/17-1 | 2013-07-20T11:32 | 55.3055 | 4.0908 | -40 | 12.9 | 13 | 16.5038 | 43.9192 | 34.5672 | 16.5017 | 25.2991 | 224.950 | 91.00 | 84.55 | 1.09 | 20 |
| HE406/17-1 | 2013-07-20T11:32 | 55.3055 | 4.0908 | -40 | 13.9 | 14 | 16.4973 | 43.9132 | 34.5672 | 16.4951 | 25.3006 | 224.965 | 91.00 | 84.69 | 1.08 | 18 |
| HE406/17-1 | 2013-07-20T11:32 | 55.3055 | 4.0908 | -40 | 14.9 | 15 | 16.2422 | 43.6421 | 34.5485 | 16.2398 | 25.3454 | 226.100 | 90.99 | 84.83 | 1.08 | 21 |
| HE406/17-1 | 2013-07-20T11:32 | 55.3055 | 4.0908 | -40 | 15.9 | 16 | 15.1704 | 42.5923 | 34.5460 | 15.1680 | 25.5850 | 229.999 | 90.60 | 85.01 | 1.18 | 19 |
| HE406/17-1 | 2013-07-20T11:32 | 55.3055 | 4.0908 | -40 | 16.8 | 17 | 15.0594 | 42.4850 | 34.5462 | 15.0568 | 25.6096 | 226.728 | 89.12 | 86.96 | 1.12 | 19 |
| HE406/17-1 | 2013-07-20T11:32 | 55.3055 | 4.0908 | -40 | 17.8 | 18 | 15.0449 | 42.4871 | 34.5606 | 15.0422 | 25.6239 | 233.466 | 91.75 | 88.63 | 1.11 | 23 |
| HE406/17-1 | 2013-07-20T11:32 | 55.3055 | 4.0908 | -40 | 18.8 | 19 | 14.9614 | 42.4238 | 34.5765 | 14.9586 | 25.6545 | 237.756 | 93.28 | 89.23 | 1.15 | 18 |
| HE406/17-1 | 2013-07-20T11:32 | 55.3055 | 4.0908 | -40 | 19.8 | 20 | 14.8875 | 42.3670 | 34.5898 | 14.8845 | 25.6809 | 236.808 | 92.78 | 89.71 | 1.23 | 16 |
| HE406/17-1 | 2013-07-20T11:32 | 55.3055 | 4.0908 | -40 | 20.8 | 21 | 14.2074 | 41.6427 | 34.5298 | 14.2044 | 25.7807 | 238.019 | 91.94 | 89.97 | 1.21 | 13 |
| HE406/17-1 | 2013-07-20T11:32 | 55.3055 | 4.0908 | -40 | 21.8 | 22 | 12.9153 | 40.3783 | 34.5089 | 12.9123 | 26.0299 | 242.155 | 91.07 | 90.11 | 1.30 | 15 |
| HE406/17-1 | 2013-07-20T11:32 | 55.3055 | 4.0908 | -40 | 22.8 | 23 | 12.8472 | 40.3622 | 34.5554 | 12.8441 | 26.0795 | 238.908 | 89.74 | 90.58 | 1.29 | 18 |
| HE406/17-1 | 2013-07-20T11:32 | 55.3055 | 4.0908 | -40 | 23.8 | 24 | 12.7806 | 40.3231 | 34.5786 | 12.7774 | 26.1107 | 244.873 | 91.87 | 90.95 | 1.20 | 11 |
| HE406/17-1 | 2013-07-20T11:32 | 55.3055 | 4.0908 | -40 | 24.8 | 25 | 12.6561 | 40.1985 | 34.5729 | 12.6528 | 26.1309 | 245.576 | 91.89 | 90.84 | 1.27 | 12 |
| HE406/17-1 | 2013-07-20T11:32 | 55.3055 | 4.0908 | -40 | 25.8 | 26 | 11.9726 | 39.4785 | 34.5063 | 11.9693 | 26.2115 | 250.416 | 92.32 | 90.76 | 1.42 | 11 |
| HE406/17-1 | 2013-07-20T11:32 | 55.3055 | 4.0908 | -40 | 26.8 | 27 | 10.2845 | 37.8564 | 34.4764 | 10.2814 | 26.4948 | 257.447 | 91.50 | 90.15 | 2.24 | 17 |
| HE406/17-1 | 2013-07-20T11:32 | 55.3055 | 4.0908 | -40 | 27.7 | 28 | 8.5093 | 36.2230 | 34.4943 | 8.5064 | 26.7998 | 243.687 | 83.27 | 88.73 | 3.21 | 16 |
| HE406/17-1 | 2013-07-20T11:32 | 55.3055 | 4.0908 | -40 | 28.7 | 29 | 7.3491 | 35.2252 | 34.5683 | 7.3464 | 27.0301 | 247.856 | 82.52 | 87.49 | 2.67 | 16 |
| HE406/17-1 | 2013-07-20T11:32 | 55.3055 | 4.0908 | -40 | 29.7 | 30 | 7.1770 | 35.0836 | 34.5851 | 7.1742 | 27.0677 | 237.426 | 78.74 | 87.47 | 1.79 | 13 |
| HE406/17-1 | 2013-07-20T11:32 | 55.3055 | 4.0908 | -40 | 30.7 | 31 | 7.1272 | 35.0441 | 34.5913 | 7.1243 | 27.0795 | 224.994 | 74.53 | 87.66 | 1.32 | 13 |
| HE406/17-1 | 2013-07-20T11:32 | 55.3055 | 4.0908 | -40 | 31.7 | 32 | 7.0627 | 34.9936 | 34.6001 | 7.0597 | 27.0955 | 201.756 | 66.74 | 87.61 | 1.32 | 19 |
| HE406/17-1 | 2013-07-20T11:32 | 55.3055 | 4.0908 | -40 | 32.7 | 33 | 7.0379 | 34.9817 | 34.6115 | 7.0349 | 27.1079 | 191.339 | 63.26 | 87.37 | 1.28 | 18 |
| HE406/17-1 | 2013-07-20T11:32 | 55.3055 | 4.0908 | -40 | 33.7 | 34 | 7.0365 | 34.9866 | 34.6177 | 7.0334 | 27.1130 | 192.324 | 63.59 | 87.09 | 1.18 | 18 |
| HE406/17-1 | 2013-07-20T11:32 | 55.3055 | 4.0908 | -40 | 34.7 | 35 | 7.0285 | 34.9843 | 34.6227 | 7.0253 | 27.1181 | 193.908 | 64.10 | 87.09 | 1.32 | 15 |
| HE406/17-1 | 2013-07-20T11:32 | 55.3055 | 4.0908 | -40 | 35.7 | 36 | 7.0154 | 34.9770 | 34.6274 | 7.0121 | 27.1236 | 194.744 | 64.36 | 87.13 | 1.44 | 16 |
| HE406/17-1 | 2013-07-20T11:32 | 55.3055 | 4.0908 | -40 | 36.7 | 37 | 7.0121 | 34.9765 | 34.6297 | 7.0087 | 27.1259 | 194.744 | 64.36 | 86.78 | 1.36 | 17 |
| HE406/17-1 | 2013-07-20T11:32 | 55.3055 | 4.0908 | -40 | 37.7 | 38 | 7.0099 | 34.9765 | 34.6314 | 7.0064 | 27.1275 | 194.853 | 64.39 | 86.88 | 1.11 | 22 |
| HE406/17-1 | 2013-07-20T11:32 | 55.3055 | 4.0908 | -40 | 38.6 | 39 | 7.0061 | 34.9763 | 34.6345 | 7.0025 | 27.1305 | 195.009 | 64.44 | 87.12 | 1.05 | 17 |
| HE406/17-1 | 2013-07-20T11:32 | 55.3055 | 4.0908 | -40 | 39.6 | 40 | 7.0065 | 34.9784 | 34.6360 | 7.0028 | 27.1316 | 195.063 | 64.46 | 87.10 | 1.03 | 15 |
| HE406/17-1 | 2013-07-20T11:32 | 55.3055 | 4.0908 | -40 | 40.6 | 41 | 7.0046 | 34.9776 | 34.6365 | 7.0008 | 27.1323 | 194.908 | 64.40 | 87.01 | 1.23 | 17 |
| HE406/17-1 | 2013-07-20T11:32 | 55.3055 | 4.0908 | -40 | 41.6 | 42 | 7.0048 | 34.9786 | 34.6368 | 7.0009 | 27.1326 | 194.567 | 64.29 | 86.82 | 1.09 | 14 |
| HE406/17-1 | 2013-07-20T11:32 | 55.3055 | 4.0908 | -40 | 42.6 | 43 | 6.9992 | 34.9742 | 34.6371 | 6.9952 | 27.1336 | 194.261 | 64.18 | 86.91 | 1.54 | 16 |
| HE406/20-1 | 2013-07-20T17:11 | 55.3060 | 4.0910 | -40 | 3.0 | 3 | 16.4418 | 43.8359 | 34.5513 | 16.4413 | 25.3009 | 225.937 | 91.28 | 85.37 | 1.12 | 19 |
| HE406/20-1 | 2013-07-20T17:11 | 55.3060 | 4.0910 | -40 | 4.0 | 4 | 16.4370 | 43.8318 | 34.5515 | 16.4364 | 25.3022 | 226.318 | 91.43 | 85.96 | 1.15 | 20 |
| HE406/20-1 | 2013-07-20T17:11 | 55.3060 | 4.0910 | -40 | 5.0 | 5 | 16.4358 | 43.8313 | 34.5517 | 16.4350 | 25.3027 | 226.031 | 91.31 | 86.06 | 1.07 | 27 |
| HE406/20-1 | 2013-07-20T17:11 | 55.3060 | 4.0910 | -40 | 5.9 | 6 | 16.4391 | 43.8349 | 34.5516 | 16.4381 | 25.3019 | 226.573 | 91.53 | 86.07 | 1.11 | 26 |
| HE406/20-1 | 2013-07-20T17:11 | 55.3060 | 4.0910 | -40 | 6.9 | 7 | 16.4388 | 43.8352 | 34.5517 | 16.4377 | 25.3021 | 226.410 | 91.47 | 86.03 | 1.07 | 19 |
| HE406/20-1 | 2013-07-20T17:11 | 55.3060 | 4.0910 | -40 | 7.9 | 8 | 16.4394 | 43.8362 | 34.5517 | 16.4381 | 25.3019 | 226.445 | 91.48 | 85.89 | 1.06 | 22 |
| HE406/20-1 | 2013-07-20T17:11 | 55.3060 | 4.0910 | -40 | 8.9 | 9 | 16.4397 | 43.8370 | 34.5518 | 16.4383 | 25.3020 | 226.605 | 91.55 | 86.03 | 1.09 | 23 |
| HE406/20-1 | 2013-07-20T17:11 | 55.3060 | 4.0910 | -40 | 9.9 | 10 | 16.4401 | 43.8380 | 34.5519 | 16.4385 | 25.3020 | 226.271 | 91.41 | 85.93 | 1.09 | 28 |
| HE406/20-1 | 2013-07-20T17:11 | 55.3060 | 4.0910 | -40 | 10.9 | 11 | 16.4357 | 43.8340 | 34.5519 | 16.4339 | 25.3030 | 226.913 | 91.66 | 85.96 | 1.09 | 20 |
| HE406/20-1 | 2013-07-20T17:11 | 55.3060 | 4.0910 | -40 | 11.9 | 12 | 16.3589 | 43.7643 | 34.5565 | 16.3570 | 25.3244 | 226.993 | 91.56 | 86.24 | 1.02 | 19 |
| HE406/20-1 | 2013-07-20T17:11 | 55.3060 | 4.0910 | -40 | 12.9 | 13 | 16.1930 | 43.6055 | 34.5596 | 16.1909 | 25.3651 | 227.200 | 91.35 | 86.32 | 1.02 | 23 |
| HE406/20-1 | 2013-07-20T17:11 | 55.3060 | 4.0910 | -40 | 13.9 | 14 | 15.3082 | 42.7132 | 34.5347 | 15.3061 | 25.5458 | 230.183 | 90.92 | 87.02 | 1.26 | 19 |
| HE406/20-1 | 2013-07-20T17:11 | 55.3060 | 4.0910 | -40 | 14.9 | 15 | 15.0201 | 42.4379 | 34.5389 | 15.0178 | 25.6125 | 231.760 | 91.02 | 88.70 | 1.17 | 18 |
| HE406/20-1 | 2013-07-20T17:11 | 55.3060 | 4.0910 | -40 | 15.9 | 16 | 14.9378 | 42.3558 | 34.5367 | 14.9354 | 25.6288 | 235.081 | 92.17 | 88.94 | 1.24 | 19 |
| HE406/20-1 | 2013-07-20T17:11 | 55.3060 | 4.0910 | -40 | 16.8 | 17 | 14.7725 | 42.1995 | 34.5401 | 14.7700 | 25.6675 | 235.668 | 92.09 | 88.76 | 1.42 | 21 |
| HE406/20-1 | 2013-07-20T17:11 | 55.3060 | 4.0910 | -40 | 17.8 | 18 | 13.6916 | 41.1148 | 34.5027 | 13.6891 | 25.8674 | 239.542 | 91.54 | 88.66 | 1.42 | 18 |
| HE406/20-1 | 2013-07-20T17:11 | 55.3060 | 4.0910 | -40 | 18.8 | 19 | 13.3159 | 40.7570 | 34.5053 | 13.3133 | 25.9465 | 237.887 | 90.21 | 89.05 | 1.39 | 17 |
| HE406/20-1 | 2013-07-20T17:11 | 55.3060 | 4.0910 | -40 | 19.8 | 20 | 12.8986 | 40.3629 | 34.5103 | 12.8959 | 26.0343 | 239.228 | 89.94 | 89.81 | 1.34 | 20 |
| HE406/20-1 | 2013-07-20T17:11 | 55.3060 | 4.0910 | -40 | 20.8 | 21 | 12.7794 | 40.2687 | 34.5289 | 12.7766 | 26.0723 | 245.770 | 92.18 | 91.08 | 1.09 | 14 |
| HE406/20-1 | 2013-07-20T17:11 | 55.3060 | 4.0910 | -40 | 21.8 | 22 | 12.7785 | 40.2990 | 34.5582 | 12.7755 | 26.0953 | 245.141 | 91.96 | 91.46 | 1.11 | 13 |
| HE406/20-1 | 2013-07-20T17:11 | 55.3060 | 4.0910 | -40 | 22.8 | 23 | 12.7698 | 40.3176 | 34.5836 | 12.7667 | 26.1167 | 244.208 | 91.60 | 91.56 | 1.26 | 19 |
| HE406/20-1 | 2013-07-20T17:11 | 55.3060 | 4.0910 | -40 | 23.8 | 24 | 12.7141 | 40.2746 | 34.5931 | 12.7109 | 26.1351 | 245.455 | 91.97 | 91.33 | 1.66 | 16 |
| HE406/20-1 | 2013-07-20T17:11 | 55.3060 | 4.0910 | -40 | 24.8 | 25 | 12.2246 | 39.7651 | 34.5522 | 12.2213 | 26.1989 | 249.700 | 92.58 | 91.12 | 1.59 | 15 |
| HE406/20-1 | 2013-07-20T17:11 | 55.3060 | 4.0910 | -40 | 25.8 | 26 | 10.5224 | 38.0776 | 34.4750 | 10.5193 | 26.4522 | 253.187 | 90.46 | 90.52 | 1.94 | 14 |
| HE406/20-1 | 2013-07-20T17:11 | 55.3060 | 4.0910 | -40 | 26.8 | 27 | 9.2424 | 36.8941 | 34.4866 | 9.2395 | 26.6775 | 243.289 | 84.51 | 88.71 | 2.35 | 14 |
| HE406/20-1 | 2013-07-20T17:11 | 55.3060 | 4.0910 | -40 | 27.7 | 28 | 8.1875 | 35.9638 | 34.5344 | 8.1847 | 26.8804 | 234.757 | 79.66 | 88.03 | 2.28 | 18 |
| HE406/20-1 | 2013-07-20T17:11 | 55.3060 | 4.0910 | -40 | 28.7 | 29 | 7.3108 | 35.2138 | 34.5941 | 7.3081 | 27.0558 | 221.736 | 73.77 | 87.93 | 1.86 | 17 |
| HE406/20-1 | 2013-07-20T17:11 | 55.3060 | 4.0910 | -40 | 29.7 | 30 | 7.1918 | 35.1155 | 34.6053 | 7.1890 | 27.0815 | 212.341 | 70.45 | 88.91 | 1.15 | 20 |
| HE406/20-1 | 2013-07-20T17:11 | 55.3060 | 4.0910 | -40 | 30.7 | 31 | 7.1593 | 35.0941 | 34.6140 | 7.1564 | 27.0929 | 202.752 | 67.23 | 89.19 | 1.01 | 18 |
| HE406/20-1 | 2013-07-20T17:11 | 55.3060 | 4.0910 | -40 | 31.7 | 32 | 7.1552 | 35.0968 | 34.6204 | 7.1522 | 27.0986 | 195.212 | 64.72 | 88.61 | 1.15 | 21 |
| HE406/20-1 | 2013-07-20T17:11 | 55.3060 | 4.0910 | -40 | 32.7 | 33 | 7.1485 | 35.0964 | 34.6263 | 7.1454 | 27.1041 | 193.774 | 64.24 | 88.61 | 1.19 | 21 |
| HE406/20-1 | 2013-07-20T17:11 | 55.3060 | 4.0910 | -40 | 33.7 | 34 | 7.1420 | 35.0942 | 34.6299 | 7.1388 | 27.1079 | 193.648 | 64.19 | 88.32 | 1.53 | 17 |
| HE406/20-1 | 2013-07-20T17:11 | 55.3060 | 4.0910 | -40 | 34.7 | 35 | 7.1357 | 35.0907 | 34.6320 | 7.1324 | 27.1104 | 193.628 | 64.17 | 88.06 | 1.31 | 17 |
| HE406/20-1 | 2013-07-20T17:11 | 55.3060 | 4.0910 | -40 | 35.7 | 36 | 7.1292 | 35.0871 | 34.6340 | 7.1259 | 27.1129 | 193.704 | 64.19 | 87.93 | 1.40 | 18 |
| HE406/20-1 | 2013-07-20T17:11 | 55.3060 | 4.0910 | -40 | 36.7 | 37 | 7.1268 | 35.0865 | 34.6353 | 7.1234 | 27.1143 | 193.514 | 64.12 | 87.84 | 1.64 | 15 |
| HE406/20-1 | 2013-07-20T17:11 | 55.3060 | 4.0910 | -40 | 37.7 | 38 | 7.1251 | 35.0864 | 34.6364 | 7.1216 | 27.1154 | 192.917 | 63.92 | 87.65 | 1.46 | 17 |
| HE406/20-1 | 2013-07-20T17:11 | 55.3060 | 4.0910 | -40 | 38.6 | 39 | 7.1255 | 35.0877 | 34.6368 | 7.1219 | 27.1157 | 192.932 | 63.93 | 87.35 | 1.15 | 13 |
| HE406/20-1 | 2013-07-20T17:11 | 55.3060 | 4.0910 | -40 | 39.6 | 40 | 7.1237 | 35.0864 | 34.6368 | 7.1200 | 27.1160 | 192.573 | 63.81 | 87.27 | 1.21 | 14 |
| HE406/20-1 | 2013-07-20T17:11 | 55.3060 | 4.0910 | -40 | 40.6 | 41 | 7.1150 | 35.0790 | 34.6369 | 7.1112 | 27.1173 | 192.230 | 63.68 | 87.18 | 1.61 | 17 |
| HE406/20-1 | 2013-07-20T17:11 | 55.3060 | 4.0910 | -40 | 41.6 | 42 | 7.1126 | 35.0771 | 34.6367 | 7.1087 | 27.1175 | 192.272 | 63.69 | 87.08 | 1.23 | 17 |
| HE406/20-1 | 2013-07-20T17:11 | 55.3060 | 4.0910 | -40 | 42.6 | 43 | 7.1094 | 35.0719 | 34.6337 | 7.1054 | 27.1156 | 189.171 | 62.66 | 86.69 | 2.00 | 11 |
| HE406/25-1 | 2013-07-21T10:19 | 55.3062 | 4.0908 | -40 | 3.0 | 3 | 16.4740 | 43.8742 | 34.5572 | 16.4735 | 25.2979 | 222.845 | 90.09 | 84.24 | 0.31 | 21 |
| HE406/25-1 | 2013-07-21T10:19 | 55.3062 | 4.0908 | -40 | 4.0 | 4 | 16.4503 | 43.8507 | 34.5566 | 16.4497 | 25.3031 | 223.651 | 90.38 | 84.79 | 0.35 | 23 |
| HE406/25-1 | 2013-07-21T10:19 | 55.3062 | 4.0908 | -40 | 5.0 | 5 | 16.4199 | 43.8201 | 34.5556 | 16.4191 | 25.3093 | 223.636 | 90.32 | 84.91 | 0.39 | 23 |
| HE406/25-1 | 2013-07-21T10:19 | 55.3062 | 4.0908 | -40 | 5.9 | 6 | 16.4190 | 43.8195 | 34.5555 | 16.4180 | 25.3095 | 223.252 | 90.16 | 84.60 | 0.43 | 23 |
| HE406/25-1 | 2013-07-21T10:19 | 55.3062 | 4.0908 | -40 | 6.9 | 7 | 16.4087 | 43.8093 | 34.5550 | 16.4076 | 25.3115 | 224.120 | 90.49 | 84.95 | 0.46 | 19 |
| HE406/25-1 | 2013-07-21T10:19 | 55.3062 | 4.0908 | -40 | 7.9 | 8 | 16.3947 | 43.7952 | 34.5543 | 16.3934 | 25.3143 | 224.053 | 90.44 | 84.88 | 0.52 | 26 |
| HE406/25-1 | 2013-07-21T10:19 | 55.3062 | 4.0908 | -40 | 8.9 | 9 | 16.3873 | 43.7879 | 34.5539 | 16.3859 | 25.3158 | 224.299 | 90.52 | 85.04 | 0.65 | 22 |
| HE406/25-1 | 2013-07-21T10:19 | 55.3062 | 4.0908 | -40 | 9.9 | 10 | 16.3836 | 43.7845 | 34.5537 | 16.3820 | 25.3165 | 224.135 | 90.45 | 84.99 | 0.76 | 18 |
| HE406/25-1 | 2013-07-21T10:19 | 55.3062 | 4.0908 | -40 | 10.9 | 11 | 16.3839 | 43.7853 | 34.5538 | 16.3821 | 25.3165 | 224.447 | 90.58 | 85.18 | 0.84 | 22 |
| HE406/25-1 | 2013-07-21T10:19 | 55.3062 | 4.0908 | -40 | 11.9 | 12 | 16.3631 | 43.7639 | 34.5525 | 16.3612 | 25.3204 | 224.661 | 90.63 | 85.38 | 0.88 | 21 |
| HE406/25-1 | 2013-07-21T10:19 | 55.3062 | 4.0908 | -40 | 12.9 | 13 | 16.2495 | 43.6461 | 34.5466 | 16.2474 | 25.3421 | 224.739 | 90.45 | 85.47 | 0.99 | 22 |
| HE406/25-1 | 2013-07-21T10:19 | 55.3062 | 4.0908 | -40 | 13.9 | 14 | 15.9412 | 43.3237 | 34.5280 | 15.9390 | 25.3984 | 225.413 | 90.16 | 85.67 | 1.09 | 22 |
| HE406/25-1 | 2013-07-21T10:19 | 55.3062 | 4.0908 | -40 | 14.9 | 15 | 15.0689 | 42.4408 | 34.4985 | 15.0666 | 25.5706 | 227.615 | 89.46 | 85.90 | 1.14 | 19 |
| HE406/25-1 | 2013-07-21T10:19 | 55.3062 | 4.0908 | -40 | 15.9 | 16 | 14.8710 | 42.2536 | 34.5026 | 14.8686 | 25.6171 | 227.355 | 89.00 | 86.97 | 1.21 | 22 |
| HE406/25-1 | 2013-07-21T10:19 | 55.3062 | 4.0908 | -40 | 16.8 | 17 | 14.8042 | 42.1985 | 34.5110 | 14.8017 | 25.6382 | 231.566 | 90.53 | 87.77 | 1.30 | 15 |
| HE406/25-1 | 2013-07-21T10:19 | 55.3062 | 4.0908 | -40 | 17.8 | 18 | 14.4719 | 41.8693 | 34.5041 | 14.4693 | 25.7044 | 233.399 | 90.63 | 88.25 | 1.50 | 20 |
| HE406/25-1 | 2013-07-21T10:19 | 55.3062 | 4.0908 | -40 | 18.8 | 19 | 13.3742 | 40.8091 | 34.5016 | 13.3716 | 25.9318 | 235.751 | 89.51 | 88.67 | 1.67 | 20 |
| HE406/25-1 | 2013-07-21T10:19 | 55.3062 | 4.0908 | -40 | 19.8 | 20 | 12.8867 | 40.3475 | 34.5065 | 12.8840 | 26.0337 | 234.883 | 88.28 | 89.23 | 1.63 | 21 |
| HE406/25-1 | 2013-07-21T10:19 | 55.3062 | 4.0908 | -40 | 20.8 | 21 | 12.8401 | 40.3189 | 34.5214 | 12.8373 | 26.0545 | 241.182 | 90.57 | 89.59 | 1.50 | 16 |
| HE406/25-1 | 2013-07-21T10:19 | 55.3062 | 4.0908 | -40 | 21.8 | 22 | 12.8132 | 40.3035 | 34.5308 | 12.8102 | 26.0671 | 245.858 | 92.28 | 89.87 | 1.51 | 16 |
| HE406/25-1 | 2013-07-21T10:19 | 55.3062 | 4.0908 | -40 | 22.8 | 23 | 12.7986 | 40.3045 | 34.5447 | 12.7955 | 26.0809 | 244.579 | 91.78 | 90.07 | 1.48 | 19 |
| HE406/25-1 | 2013-07-21T10:19 | 55.3062 | 4.0908 | -40 | 23.8 | 24 | 12.7317 | 40.2435 | 34.5472 | 12.7285 | 26.0961 | 243.102 | 91.10 | 90.87 | 1.51 | 16 |
| HE406/25-1 | 2013-07-21T10:19 | 55.3062 | 4.0908 | -40 | 24.8 | 25 | 12.7166 | 40.2565 | 34.5730 | 12.7132 | 26.1191 | 243.211 | 91.12 | 91.04 | 1.54 | 15 |
| HE406/25-1 | 2013-07-21T10:19 | 55.3062 | 4.0908 | -40 | 25.8 | 26 | 12.5027 | 40.0326 | 34.5539 | 12.4993 | 26.1463 | 242.958 | 90.61 | 91.08 | 1.63 | 15 |
| HE406/25-1 | 2013-07-21T10:19 | 55.3062 | 4.0908 | -40 | 26.8 | 27 | 11.8881 | 39.4076 | 34.5149 | 11.8846 | 26.2342 | 243.720 | 89.70 | 90.94 | 1.70 | 15 |
| HE406/25-1 | 2013-07-21T10:19 | 55.3062 | 4.0908 | -40 | 27.7 | 28 | 10.4784 | 38.0303 | 34.4680 | 10.4751 | 26.4545 | 243.271 | 86.83 | 90.56 | 2.09 | 16 |
| HE406/25-1 | 2013-07-21T10:19 | 55.3062 | 4.0908 | -40 | 28.7 | 29 | 8.7063 | 36.4146 | 34.5039 | 8.7033 | 26.7766 | 242.209 | 83.14 | 90.21 | 2.16 | 15 |
| HE406/25-1 | 2013-07-21T10:19 | 55.3062 | 4.0908 | -40 | 29.7 | 30 | 7.6466 | 35.4867 | 34.5555 | 7.6437 | 26.9772 | 236.222 | 79.18 | 89.80 | 1.97 | 16 |
| HE406/25-1 | 2013-07-21T10:19 | 55.3062 | 4.0908 | -40 | 30.7 | 31 | 7.2193 | 35.1291 | 34.5921 | 7.2164 | 27.0673 | 224.891 | 74.66 | 89.67 | 1.75 | 17 |
| HE406/25-1 | 2013-07-21T10:19 | 55.3062 | 4.0908 | -40 | 31.7 | 32 | 7.1492 | 35.0742 | 34.6018 | 7.1462 | 27.0847 | 209.737 | 69.52 | 89.42 | 1.26 | 17 |
| HE406/25-1 | 2013-07-21T10:19 | 55.3062 | 4.0908 | -40 | 32.7 | 33 | 7.1415 | 35.0740 | 34.6087 | 7.1384 | 27.0913 | 198.049 | 65.64 | 89.27 | 1.41 | 19 |
| HE406/25-1 | 2013-07-21T10:19 | 55.3062 | 4.0908 | -40 | 33.7 | 34 | 7.1380 | 35.0783 | 34.6165 | 7.1348 | 27.0979 | 192.971 | 63.95 | 88.87 | 1.33 | 18 |
| HE406/25-1 | 2013-07-21T10:19 | 55.3062 | 4.0908 | -40 | 34.7 | 35 | 7.1363 | 35.0823 | 34.6221 | 7.1330 | 27.1025 | 192.474 | 63.79 | 88.81 | 1.36 | 13 |
| HE406/25-1 | 2013-07-21T10:19 | 55.3062 | 4.0908 | -40 | 35.7 | 36 | 7.1360 | 35.0852 | 34.6251 | 7.1327 | 27.1050 | 192.684 | 63.86 | 88.67 | 1.43 | 19 |
| HE406/25-1 | 2013-07-21T10:19 | 55.3062 | 4.0908 | -40 | 36.7 | 37 | 7.1370 | 35.0889 | 34.6276 | 7.1336 | 27.1068 | 192.819 | 63.90 | 88.30 | 1.16 | 20 |
| HE406/25-1 | 2013-07-21T10:19 | 55.3062 | 4.0908 | -40 | 37.7 | 38 | 7.1323 | 35.0879 | 34.6308 | 7.1288 | 27.1100 | 192.531 | 63.80 | 88.19 | 1.52 | 19 |
| HE406/25-1 | 2013-07-21T10:19 | 55.3062 | 4.0908 | -40 | 38.6 | 39 | 7.1315 | 35.0892 | 34.6324 | 7.1279 | 27.1114 | 192.632 | 63.84 | 88.20 | 1.98 | 13 |
| HE406/25-1 | 2013-07-21T10:19 | 55.3062 | 4.0908 | -40 | 39.6 | 40 | 7.1293 | 35.0886 | 34.6336 | 7.1256 | 27.1126 | 192.372 | 63.75 | 88.05 | 1.73 | 17 |
| HE406/25-1 | 2013-07-21T10:19 | 55.3062 | 4.0908 | -40 | 40.6 | 41 | 7.1284 | 35.0892 | 34.6346 | 7.1246 | 27.1136 | 191.722 | 63.53 | 87.63 | 1.25 | 17 |
| HE406/25-1 | 2013-07-21T10:19 | 55.3062 | 4.0908 | -40 | 41.6 | 42 | 7.1258 | 35.0878 | 34.6352 | 7.1219 | 27.1144 | 191.446 | 63.44 | 87.48 | 1.79 | 18 |
| HE406/25-1 | 2013-07-21T10:19 | 55.3062 | 4.0908 | -40 | 42.6 | 43 | 7.1252 | 35.0876 | 34.6350 | 7.1212 | 27.1144 | 191.105 | 63.32 | 87.55 | 1.21 | 17 |
| HE406/25-3 | 2013-07-21T11:21 | 55.3057 | 4.0915 | -40 | 3.0 | 3 | 16.4793 | 43.8723 | 34.5509 | 16.4788 | 25.2919 | 224.225 | 90.66 | 85.90 | 0.17 | 10 |
| HE406/25-3 | 2013-07-21T11:21 | 55.3057 | 4.0915 | -40 | 4.0 | 4 | 16.4358 | 43.8269 | 34.5482 | 16.4352 | 25.2999 | 223.813 | 90.41 | 86.10 | 0.23 | 27 |
| HE406/25-3 | 2013-07-21T11:21 | 55.3057 | 4.0915 | -40 | 5.0 | 5 | 16.4081 | 43.7994 | 34.5475 | 16.4073 | 25.3059 | 223.783 | 90.35 | 86.18 | 0.26 | 24 |
| HE406/25-3 | 2013-07-21T11:21 | 55.3057 | 4.0915 | -40 | 5.9 | 6 | 16.3927 | 43.7845 | 34.5474 | 16.3917 | 25.3094 | 223.792 | 90.33 | 86.20 | 0.31 | 29 |
| HE406/25-3 | 2013-07-21T11:21 | 55.3057 | 4.0915 | -40 | 6.9 | 7 | 16.3863 | 43.7787 | 34.5474 | 16.3852 | 25.3109 | 224.841 | 90.74 | 86.15 | 0.40 | 21 |
| HE406/25-3 | 2013-07-21T11:21 | 55.3057 | 4.0915 | -40 | 7.9 | 8 | 16.3795 | 43.7726 | 34.5475 | 16.3782 | 25.3126 | 224.976 | 90.78 | 86.26 | 0.41 | 19 |
| HE406/25-3 | 2013-07-21T11:21 | 55.3057 | 4.0915 | -40 | 8.9 | 9 | 16.3740 | 43.7678 | 34.5476 | 16.3726 | 25.3140 | 224.392 | 90.53 | 86.14 | 0.47 | 20 |
| HE406/25-3 | 2013-07-21T11:21 | 55.3057 | 4.0915 | -40 | 9.9 | 10 | 16.3723 | 43.7672 | 34.5482 | 16.3707 | 25.3149 | 225.120 | 90.83 | 85.94 | 0.61 | 21 |
| HE406/25-3 | 2013-07-21T11:21 | 55.3057 | 4.0915 | -40 | 10.9 | 11 | 16.3661 | 43.7622 | 34.5488 | 16.3643 | 25.3168 | 225.165 | 90.83 | 85.81 | 0.68 | 19 |
| HE406/25-3 | 2013-07-21T11:21 | 55.3057 | 4.0915 | -40 | 11.9 | 12 | 16.3566 | 43.7523 | 34.5479 | 16.3547 | 25.3183 | 224.860 | 90.69 | 85.99 | 0.76 | 20 |
| HE406/25-3 | 2013-07-21T11:21 | 55.3057 | 4.0915 | -40 | 12.9 | 13 | 16.3482 | 43.7434 | 34.5469 | 16.3461 | 25.3196 | 224.611 | 90.58 | 86.06 | 0.91 | 26 |
| HE406/25-3 | 2013-07-21T11:21 | 55.3057 | 4.0915 | -40 | 13.9 | 14 | 16.2641 | 43.6457 | 34.5331 | 16.2619 | 25.3284 | 224.638 | 90.43 | 86.29 | 1.03 | 22 |
| HE406/25-3 | 2013-07-21T11:21 | 55.3057 | 4.0915 | -40 | 14.9 | 15 | 15.1190 | 42.4553 | 34.4674 | 15.1167 | 25.5357 | 229.187 | 90.15 | 86.38 | 1.06 | 18 |
| HE406/25-3 | 2013-07-21T11:21 | 55.3057 | 4.0915 | -40 | 15.9 | 16 | 14.8825 | 42.2541 | 34.4929 | 14.8801 | 25.6071 | 225.501 | 88.29 | 87.99 | 1.25 | 20 |
| HE406/25-3 | 2013-07-21T11:21 | 55.3057 | 4.0915 | -40 | 16.8 | 17 | 14.7574 | 42.1219 | 34.4825 | 14.7549 | 25.6263 | 232.797 | 90.91 | 89.85 | 1.26 | 22 |
| HE406/25-3 | 2013-07-21T11:21 | 55.3057 | 4.0915 | -40 | 17.8 | 18 | 14.1202 | 41.4830 | 34.4609 | 14.1176 | 25.7458 | 235.656 | 90.83 | 89.95 | 1.40 | 21 |
| HE406/25-3 | 2013-07-21T11:21 | 55.3057 | 4.0915 | -40 | 18.8 | 19 | 13.2518 | 40.6644 | 34.4758 | 13.2492 | 25.9366 | 233.691 | 88.48 | 89.86 | 1.44 | 22 |
| HE406/25-3 | 2013-07-21T11:21 | 55.3057 | 4.0915 | -40 | 19.8 | 20 | 12.8759 | 40.3383 | 34.5076 | 12.8732 | 26.0367 | 238.514 | 89.62 | 90.66 | 1.44 | 20 |
| HE406/25-3 | 2013-07-21T11:21 | 55.3057 | 4.0915 | -40 | 20.8 | 21 | 12.8089 | 40.2956 | 34.5276 | 12.8061 | 26.0655 | 243.699 | 91.46 | 90.90 | 1.11 | 16 |
| HE406/25-3 | 2013-07-21T11:21 | 55.3057 | 4.0915 | -40 | 21.8 | 22 | 12.7812 | 40.2885 | 34.5458 | 12.7782 | 26.0851 | 242.349 | 90.91 | 91.15 | 1.02 | 21 |
| HE406/25-3 | 2013-07-21T11:21 | 55.3057 | 4.0915 | -40 | 22.8 | 23 | 12.6458 | 40.1665 | 34.5525 | 12.6427 | 26.1170 | 242.218 | 90.60 | 90.96 | 0.91 | 20 |
| HE406/25-3 | 2013-07-21T11:21 | 55.3057 | 4.0915 | -40 | 23.8 | 24 | 12.4050 | 39.9316 | 34.5473 | 12.4018 | 26.1602 | 241.636 | 89.93 | 90.31 | 1.24 | 19 |
| HE406/25-3 | 2013-07-21T11:21 | 55.3057 | 4.0915 | -40 | 24.8 | 25 | 11.8033 | 39.3220 | 34.5108 | 11.8001 | 26.2470 | 242.487 | 89.08 | 90.00 | 1.42 | 15 |
| HE406/25-3 | 2013-07-21T11:21 | 55.3057 | 4.0915 | -40 | 25.8 | 26 | 10.8333 | 38.3844 | 34.4897 | 10.8302 | 26.4086 | 243.059 | 87.44 | 89.56 | 1.78 | 15 |
| HE406/25-3 | 2013-07-21T11:21 | 55.3057 | 4.0915 | -40 | 26.8 | 27 | 10.1448 | 37.7508 | 34.5020 | 10.1417 | 26.5389 | 236.511 | 83.82 | 89.16 | 2.08 | 18 |
| HE406/25-3 | 2013-07-21T11:21 | 55.3057 | 4.0915 | -40 | 27.7 | 28 | 9.2187 | 36.8909 | 34.5056 | 9.2157 | 26.6963 | 240.176 | 83.39 | 88.94 | 2.00 | 16 |
| HE406/25-3 | 2013-07-21T11:21 | 55.3057 | 4.0915 | -40 | 28.7 | 29 | 8.7532 | 36.4711 | 34.5178 | 8.7502 | 26.7801 | 237.746 | 81.70 | 88.85 | 1.97 | 18 |
| HE406/25-3 | 2013-07-21T11:21 | 55.3057 | 4.0915 | -40 | 29.7 | 30 | 8.2912 | 36.0626 | 34.5369 | 8.2882 | 26.8666 | 219.725 | 74.73 | 88.38 | 2.10 | 20 |
| HE406/25-3 | 2013-07-21T11:21 | 55.3057 | 4.0915 | -40 | 30.7 | 31 | 7.5263 | 35.3899 | 34.5697 | 7.5233 | 27.0059 | 209.257 | 69.95 | 87.02 | 3.27 | 16 |
| HE406/25-3 | 2013-07-21T11:21 | 55.3057 | 4.0915 | -40 | 31.7 | 32 | 7.2830 | 35.1895 | 34.5939 | 7.2800 | 27.0596 | 204.282 | 67.92 | 87.15 | 2.97 | 17 |
| HE406/25-3 | 2013-07-21T11:21 | 55.3057 | 4.0915 | -40 | 32.7 | 33 | 7.2566 | 35.1707 | 34.5992 | 7.2535 | 27.0676 | 193.117 | 64.17 | 87.69 | 1.52 | 20 |
| HE406/25-3 | 2013-07-21T11:21 | 55.3057 | 4.0915 | -40 | 33.7 | 34 | 7.1840 | 35.1169 | 34.6127 | 7.1808 | 27.0884 | 186.920 | 62.01 | 88.22 | 1.86 | 15 |
| HE406/25-3 | 2013-07-21T11:21 | 55.3057 | 4.0915 | -40 | 34.7 | 35 | 7.1620 | 35.1018 | 34.6177 | 7.1587 | 27.0955 | 187.578 | 62.20 | 88.04 | 1.12 | 17 |
| HE406/25-3 | 2013-07-21T11:21 | 55.3057 | 4.0915 | -40 | 35.7 | 36 | 7.1405 | 35.0868 | 34.6224 | 7.1371 | 27.1022 | 188.332 | 62.42 | 87.90 | 1.16 | 16 |
| HE406/25-3 | 2013-07-21T11:21 | 55.3057 | 4.0915 | -40 | 36.7 | 37 | 7.1390 | 35.0880 | 34.6246 | 7.1356 | 27.1042 | 190.353 | 63.09 | 88.08 | 1.30 | 16 |
| HE406/25-3 | 2013-07-21T11:21 | 55.3057 | 4.0915 | -40 | 37.7 | 38 | 7.1145 | 35.0705 | 34.6295 | 7.1110 | 27.1115 | 190.927 | 63.25 | 87.91 | 1.10 | 17 |
| HE406/25-3 | 2013-07-21T11:21 | 55.3057 | 4.0915 | -40 | 38.6 | 39 | 7.1078 | 35.0667 | 34.6317 | 7.1042 | 27.1141 | 191.022 | 63.27 | 87.98 | 1.42 | 18 |
| HE406/25-3 | 2013-07-21T11:21 | 55.3057 | 4.0915 | -40 | 39.6 | 40 | 7.1065 | 35.0666 | 34.6323 | 7.1028 | 27.1148 | 191.072 | 63.28 | 87.71 | 1.09 | 15 |
| HE406/25-3 | 2013-07-21T11:21 | 55.3057 | 4.0915 | -40 | 40.6 | 41 | 7.1057 | 35.0660 | 34.6320 | 7.1019 | 27.1147 | 190.978 | 63.25 | 88.00 | 1.37 | 16 |
| HE406/25-3 | 2013-07-21T11:21 | 55.3057 | 4.0915 | -40 | 41.6 | 42 | 7.1061 | 35.0660 | 34.6311 | 7.1022 | 27.1139 | 190.842 | 63.21 | 87.72 | 1.61 | 6 |
| HE406/25-4 | 2013-07-21T11:47 | 55.3057 | 4.0908 | -40 | 3.0 | 3 | 16.5174 | 43.9034 | 34.5453 | 16.5169 | 25.2788 | 223.543 | 90.44 | 86.76 | 0.12 | 18 |
| HE406/25-4 | 2013-07-21T11:47 | 55.3057 | 4.0908 | -40 | 4.0 | 4 | 16.4513 | 43.8389 | 34.5453 | 16.4507 | 25.2941 | 224.379 | 90.67 | 87.11 | 0.16 | 19 |
| HE406/25-4 | 2013-07-21T11:47 | 55.3057 | 4.0908 | -40 | 5.0 | 5 | 16.4256 | 43.8139 | 34.5452 | 16.4248 | 25.3000 | 224.278 | 90.58 | 87.06 | 0.18 | 25 |
| HE406/25-4 | 2013-07-21T11:47 | 55.3057 | 4.0908 | -40 | 5.9 | 6 | 16.3953 | 43.7837 | 34.5444 | 16.3943 | 25.3065 | 225.478 | 91.01 | 86.71 | 0.24 | 24 |
| HE406/25-4 | 2013-07-21T11:47 | 55.3057 | 4.0908 | -40 | 6.9 | 7 | 16.3799 | 43.7694 | 34.5448 | 16.3788 | 25.3104 | 225.813 | 91.12 | 86.88 | 0.30 | 22 |
| HE406/25-4 | 2013-07-21T11:47 | 55.3057 | 4.0908 | -40 | 7.9 | 8 | 16.3746 | 43.7652 | 34.5452 | 16.3733 | 25.3120 | 225.767 | 91.09 | 86.66 | 0.35 | 17 |
| HE406/25-4 | 2013-07-21T11:47 | 55.3057 | 4.0908 | -40 | 8.9 | 9 | 16.3653 | 43.7561 | 34.5448 | 16.3639 | 25.3139 | 225.878 | 91.12 | 86.77 | 0.40 | 22 |
| HE406/25-4 | 2013-07-21T11:47 | 55.3057 | 4.0908 | -40 | 9.9 | 10 | 16.3581 | 43.7498 | 34.5451 | 16.3565 | 25.3158 | 225.770 | 91.06 | 86.63 | 0.46 | 19 |
| HE406/25-4 | 2013-07-21T11:47 | 55.3057 | 4.0908 | -40 | 10.9 | 11 | 16.3440 | 43.7361 | 34.5448 | 16.3422 | 25.3189 | 225.824 | 91.06 | 86.56 | 0.55 | 21 |
| HE406/25-4 | 2013-07-21T11:47 | 55.3057 | 4.0908 | -40 | 11.9 | 12 | 16.3335 | 43.7264 | 34.5450 | 16.3316 | 25.3215 | 225.466 | 90.89 | 86.70 | 0.63 | 22 |
| HE406/25-4 | 2013-07-21T11:47 | 55.3057 | 4.0908 | -40 | 12.9 | 13 | 16.3240 | 43.7166 | 34.5442 | 16.3219 | 25.3231 | 225.576 | 90.92 | 86.43 | 0.79 | 18 |
| HE406/25-4 | 2013-07-21T11:47 | 55.3057 | 4.0908 | -40 | 13.9 | 14 | 16.2967 | 43.6884 | 34.5426 | 16.2945 | 25.3282 | 225.746 | 90.94 | 86.76 | 0.88 | 19 |
| HE406/25-4 | 2013-07-21T11:47 | 55.3057 | 4.0908 | -40 | 14.9 | 15 | 15.9225 | 43.2929 | 34.5165 | 15.9202 | 25.3938 | 226.656 | 90.62 | 86.35 | 0.98 | 22 |
| HE406/25-4 | 2013-07-21T11:47 | 55.3057 | 4.0908 | -40 | 15.9 | 16 | 14.9701 | 42.3074 | 34.4639 | 14.9677 | 25.5657 | 227.744 | 89.31 | 86.28 | 1.13 | 20 |
| HE406/25-4 | 2013-07-21T11:47 | 55.3057 | 4.0908 | -40 | 16.8 | 17 | 14.8463 | 42.2008 | 34.4758 | 14.8438 | 25.6019 | 229.501 | 89.78 | 87.24 | 1.12 | 19 |
| HE406/25-4 | 2013-07-21T11:47 | 55.3057 | 4.0908 | -40 | 17.8 | 18 | 14.5972 | 41.9532 | 34.4697 | 14.5946 | 25.6510 | 231.165 | 89.97 | 88.86 | 1.13 | 22 |
| HE406/25-4 | 2013-07-21T11:47 | 55.3057 | 4.0908 | -40 | 18.8 | 19 | 13.5275 | 40.9124 | 34.4603 | 13.5248 | 25.8684 | 233.916 | 89.07 | 89.99 | 1.27 | 20 |
| HE406/25-4 | 2013-07-21T11:47 | 55.3057 | 4.0908 | -40 | 19.8 | 20 | 12.8556 | 40.3163 | 34.5051 | 12.8529 | 26.0388 | 232.194 | 87.21 | 90.18 | 1.24 | 22 |
| HE406/25-4 | 2013-07-21T11:47 | 55.3057 | 4.0908 | -40 | 20.8 | 21 | 12.7965 | 40.2888 | 34.5324 | 12.7937 | 26.0717 | 235.212 | 88.25 | 90.54 | 1.12 | 16 |
| HE406/25-4 | 2013-07-21T11:47 | 55.3057 | 4.0908 | -40 | 21.8 | 22 | 12.7571 | 40.2792 | 34.5589 | 12.7541 | 26.1000 | 242.212 | 90.82 | 90.63 | 0.98 | 18 |
| HE406/25-4 | 2013-07-21T11:47 | 55.3057 | 4.0908 | -40 | 22.8 | 23 | 12.7046 | 40.2420 | 34.5710 | 12.7015 | 26.1199 | 243.640 | 91.26 | 90.66 | 1.16 | 17 |
| HE406/25-4 | 2013-07-21T11:47 | 55.3057 | 4.0908 | -40 | 23.8 | 24 | 12.3439 | 39.8617 | 34.5361 | 12.3407 | 26.1633 | 245.074 | 91.08 | 90.74 | 1.13 | 17 |
| HE406/25-4 | 2013-07-21T11:47 | 55.3057 | 4.0908 | -40 | 24.8 | 25 | 11.3018 | 38.8327 | 34.4966 | 11.2987 | 26.3292 | 248.710 | 90.38 | 90.66 | 1.26 | 15 |
| HE406/25-4 | 2013-07-21T11:47 | 55.3057 | 4.0908 | -40 | 25.8 | 26 | 10.7816 | 38.3434 | 34.4974 | 10.7785 | 26.4238 | 238.847 | 85.83 | 89.18 | 2.05 | 17 |
| HE406/25-4 | 2013-07-21T11:47 | 55.3057 | 4.0908 | -40 | 26.8 | 27 | 9.8849 | 37.4919 | 34.4859 | 9.8818 | 26.5705 | 240.281 | 84.66 | 88.50 | 2.49 | 17 |
| HE406/25-4 | 2013-07-21T11:47 | 55.3057 | 4.0908 | -40 | 27.7 | 28 | 9.0754 | 36.7638 | 34.5119 | 9.0724 | 26.7243 | 238.786 | 82.65 | 88.59 | 2.25 | 18 |
| HE406/25-4 | 2013-07-21T11:47 | 55.3057 | 4.0908 | -40 | 28.7 | 29 | 8.4547 | 36.1938 | 34.5164 | 8.4517 | 26.8255 | 224.863 | 76.75 | 88.39 | 2.55 | 19 |
| HE406/25-4 | 2013-07-21T11:47 | 55.3057 | 4.0908 | -40 | 29.7 | 30 | 7.6355 | 35.4802 | 34.5595 | 7.6326 | 26.9820 | 213.126 | 71.42 | 87.89 | 3.27 | 17 |
| HE406/25-4 | 2013-07-21T11:47 | 55.3057 | 4.0908 | -40 | 30.7 | 31 | 7.3574 | 35.2494 | 34.5853 | 7.3545 | 27.0423 | 196.090 | 65.30 | 87.73 | 2.27 | 19 |
| HE406/25-4 | 2013-07-21T11:47 | 55.3057 | 4.0908 | -40 | 31.7 | 32 | 7.3418 | 35.2407 | 34.5910 | 7.3388 | 27.0491 | 187.770 | 62.51 | 87.85 | 1.30 | 14 |
| HE406/25-4 | 2013-07-21T11:47 | 55.3057 | 4.0908 | -40 | 32.7 | 33 | 7.3308 | 35.2365 | 34.5968 | 7.3277 | 27.0552 | 184.919 | 61.55 | 87.97 | 1.42 | 16 |
| HE406/25-4 | 2013-07-21T11:47 | 55.3057 | 4.0908 | -40 | 33.7 | 34 | 7.2765 | 35.1933 | 34.6036 | 7.2733 | 27.0682 | 184.888 | 61.46 | 88.38 | 1.25 | 17 |
| HE406/25-4 | 2013-07-21T11:47 | 55.3057 | 4.0908 | -40 | 34.7 | 35 | 7.1696 | 35.1088 | 34.6177 | 7.1663 | 27.0944 | 185.270 | 61.45 | 88.34 | 1.02 | 17 |
| HE406/25-4 | 2013-07-21T11:47 | 55.3057 | 4.0908 | -40 | 35.7 | 36 | 7.1368 | 35.0842 | 34.6232 | 7.1335 | 27.1033 | 186.273 | 61.73 | 88.09 | 1.00 | 18 |
| HE406/25-4 | 2013-07-21T11:47 | 55.3057 | 4.0908 | -40 | 36.7 | 37 | 7.1072 | 35.0620 | 34.6281 | 7.1038 | 27.1114 | 189.391 | 62.73 | 87.83 | 1.69 | 19 |
| HE406/25-4 | 2013-07-21T11:47 | 55.3057 | 4.0908 | -40 | 37.7 | 38 | 7.1003 | 35.0585 | 34.6307 | 7.0968 | 27.1144 | 190.666 | 63.14 | 88.00 | 1.51 | 19 |
| HE406/25-4 | 2013-07-21T11:47 | 55.3057 | 4.0908 | -40 | 38.6 | 39 | 7.1000 | 35.0594 | 34.6314 | 7.0964 | 27.1150 | 191.394 | 63.38 | 87.77 | 1.43 | 18 |
| HE406/25-4 | 2013-07-21T11:47 | 55.3057 | 4.0908 | -40 | 39.6 | 40 | 7.0996 | 35.0600 | 34.6319 | 7.0959 | 27.1155 | 191.165 | 63.30 | 87.75 | 1.72 | 16 |
| HE406/25-4 | 2013-07-21T11:47 | 55.3057 | 4.0908 | -40 | 40.6 | 41 | 7.0982 | 35.0588 | 34.6316 | 7.0944 | 27.1154 | 190.736 | 63.16 | 87.63 | 1.62 | 18 |
| HE406/25-4 | 2013-07-21T11:47 | 55.3057 | 4.0908 | -40 | 41.6 | 42 | 7.0976 | 35.0567 | 34.6294 | 7.0937 | 27.1138 | 190.270 | 63.00 | 87.75 | 1.59 | 17 |
| HE406/25-4 | 2013-07-21T11:47 | 55.3057 | 4.0908 | -40 | 42.6 | 43 | 7.0978 | 35.0571 | 34.6291 | 7.0938 | 27.1135 | 190.141 | 62.96 | 87.97 | 0.81 | 9 |
| HE406/25-5 | 2013-07-21T12:20 | 55.3058 | 4.0905 | -40 | 3.0 | 3 | 16.6662 | 44.0533 | 34.5485 | 16.6657 | 25.2465 | 223.419 | 90.66 | 87.45 | 0.12 | 23 |
| HE406/25-5 | 2013-07-21T12:20 | 55.3058 | 4.0905 | -40 | 4.0 | 4 | 16.4573 | 43.8417 | 34.5426 | 16.4567 | 25.2907 | 223.689 | 90.40 | 87.76 | 0.14 | 29 |
| HE406/25-5 | 2013-07-21T12:20 | 55.3058 | 4.0905 | -40 | 5.0 | 5 | 16.4095 | 43.7940 | 34.5416 | 16.4087 | 25.3010 | 223.623 | 90.28 | 87.64 | 0.17 | 23 |
| HE406/25-5 | 2013-07-21T12:20 | 55.3058 | 4.0905 | -40 | 5.9 | 6 | 16.3916 | 43.7757 | 34.5405 | 16.3906 | 25.3044 | 224.743 | 90.70 | 87.57 | 0.22 | 19 |
| HE406/25-5 | 2013-07-21T12:20 | 55.3058 | 4.0905 | -40 | 6.9 | 7 | 16.3756 | 43.7598 | 34.5400 | 16.3745 | 25.3077 | 225.421 | 90.95 | 87.58 | 0.26 | 22 |
| HE406/25-5 | 2013-07-21T12:20 | 55.3058 | 4.0905 | -40 | 7.9 | 8 | 16.3632 | 43.7485 | 34.5403 | 16.3619 | 25.3109 | 225.569 | 90.99 | 87.70 | 0.33 | 20 |
| HE406/25-5 | 2013-07-21T12:20 | 55.3058 | 4.0905 | -40 | 8.9 | 9 | 16.3476 | 43.7334 | 34.5401 | 16.3462 | 25.3143 | 225.701 | 91.01 | 87.47 | 0.39 | 18 |
| HE406/25-5 | 2013-07-21T12:20 | 55.3058 | 4.0905 | -40 | 9.9 | 10 | 16.3346 | 43.7212 | 34.5403 | 16.3330 | 25.3175 | 225.781 | 91.02 | 87.61 | 0.48 | 23 |
| HE406/25-5 | 2013-07-21T12:20 | 55.3058 | 4.0905 | -40 | 10.9 | 11 | 16.3265 | 43.7138 | 34.5403 | 16.3247 | 25.3195 | 225.640 | 90.95 | 87.64 | 0.52 | 23 |
| HE406/25-5 | 2013-07-21T12:20 | 55.3058 | 4.0905 | -40 | 11.9 | 12 | 16.3181 | 43.7053 | 34.5397 | 16.3162 | 25.3210 | 225.591 | 90.91 | 87.21 | 0.60 | 23 |
| HE406/25-5 | 2013-07-21T12:20 | 55.3058 | 4.0905 | -40 | 12.9 | 13 | 16.3072 | 43.6946 | 34.5393 | 16.3051 | 25.3232 | 225.381 | 90.81 | 87.66 | 0.72 | 15 |
| HE406/25-5 | 2013-07-21T12:20 | 55.3058 | 4.0905 | -40 | 13.9 | 14 | 15.9661 | 43.3280 | 34.5101 | 15.9639 | 25.3790 | 226.980 | 90.82 | 87.33 | 0.82 | 25 |
| HE406/25-5 | 2013-07-21T12:20 | 55.3058 | 4.0905 | -40 | 14.9 | 15 | 15.0046 | 42.3383 | 34.4620 | 15.0024 | 25.5566 | 227.957 | 89.45 | 87.44 | 0.95 | 23 |
| HE406/25-5 | 2013-07-21T12:20 | 55.3058 | 4.0905 | -40 | 15.9 | 16 | 14.8598 | 42.2033 | 34.4666 | 14.8574 | 25.5918 | 227.297 | 88.94 | 87.62 | 0.97 | 18 |
| HE406/25-5 | 2013-07-21T12:20 | 55.3058 | 4.0905 | -40 | 16.8 | 17 | 14.7195 | 42.0646 | 34.4637 | 14.7170 | 25.6200 | 231.044 | 90.15 | 88.69 | 1.02 | 18 |
| HE406/25-5 | 2013-07-21T12:20 | 55.3058 | 4.0905 | -40 | 17.8 | 18 | 13.6972 | 41.0860 | 34.4706 | 13.6947 | 25.8415 | 233.991 | 89.41 | 89.73 | 1.12 | 22 |
| HE406/25-5 | 2013-07-21T12:20 | 55.3058 | 4.0905 | -40 | 18.8 | 19 | 12.9210 | 40.3780 | 34.5047 | 12.9184 | 26.0255 | 231.400 | 87.03 | 89.89 | 1.26 | 21 |
| HE406/25-5 | 2013-07-21T12:20 | 55.3058 | 4.0905 | -40 | 19.8 | 20 | 12.8253 | 40.2966 | 34.5140 | 12.8226 | 26.0517 | 240.226 | 90.18 | 89.98 | 1.32 | 18 |
| HE406/25-5 | 2013-07-21T12:20 | 55.3058 | 4.0905 | -40 | 20.8 | 21 | 12.7883 | 40.2730 | 34.5248 | 12.7855 | 26.0674 | 242.612 | 91.01 | 90.83 | 1.14 | 19 |
| HE406/25-5 | 2013-07-21T12:20 | 55.3058 | 4.0905 | -40 | 21.8 | 22 | 12.7515 | 40.2510 | 34.5371 | 12.7485 | 26.0842 | 240.882 | 90.30 | 90.87 | 1.10 | 16 |
| HE406/25-5 | 2013-07-21T12:20 | 55.3058 | 4.0905 | -40 | 22.8 | 23 | 12.7198 | 40.2350 | 34.5503 | 12.7167 | 26.1008 | 239.777 | 89.83 | 90.96 | 1.03 | 16 |
| HE406/25-5 | 2013-07-21T12:20 | 55.3058 | 4.0905 | -40 | 23.8 | 24 | 12.2989 | 39.8127 | 34.5302 | 12.2958 | 26.1674 | 241.597 | 89.70 | 91.13 | 1.02 | 18 |
| HE406/25-5 | 2013-07-21T12:20 | 55.3058 | 4.0905 | -40 | 24.8 | 25 | 11.3062 | 38.8486 | 34.5082 | 11.3031 | 26.3374 | 243.269 | 88.42 | 91.44 | 1.19 | 13 |
| HE406/25-5 | 2013-07-21T12:20 | 55.3058 | 4.0905 | -40 | 25.8 | 26 | 10.7361 | 38.3124 | 34.5093 | 10.7330 | 26.4412 | 236.829 | 85.03 | 90.75 | 1.87 | 17 |
| HE406/25-5 | 2013-07-21T12:20 | 55.3058 | 4.0905 | -40 | 26.8 | 27 | 10.4326 | 38.0278 | 34.5094 | 10.4294 | 26.4948 | 236.262 | 84.26 | 89.85 | 2.27 | 15 |
| HE406/25-5 | 2013-07-21T12:20 | 55.3058 | 4.0905 | -40 | 27.7 | 28 | 9.3521 | 37.0145 | 34.5052 | 9.3490 | 26.6742 | 238.045 | 82.90 | 88.80 | 2.46 | 19 |
| HE406/25-5 | 2013-07-21T12:20 | 55.3058 | 4.0905 | -40 | 28.7 | 29 | 8.2170 | 36.0403 | 34.5866 | 8.2141 | 26.9169 | 233.936 | 79.46 | 89.23 | 2.20 | 21 |
| HE406/25-5 | 2013-07-21T12:20 | 55.3058 | 4.0905 | -40 | 29.7 | 30 | 7.4877 | 35.3651 | 34.5817 | 7.4848 | 27.0209 | 209.898 | 70.11 | 88.99 | 2.25 | 19 |
| HE406/25-5 | 2013-07-21T12:20 | 55.3058 | 4.0905 | -40 | 30.7 | 31 | 7.4676 | 35.3477 | 34.5824 | 7.4646 | 27.0243 | 190.565 | 63.62 | 88.41 | 1.63 | 16 |
| HE406/25-5 | 2013-07-21T12:20 | 55.3058 | 4.0905 | -40 | 31.7 | 32 | 7.4445 | 35.3316 | 34.5874 | 7.4414 | 27.0315 | 184.711 | 61.64 | 87.97 | 1.42 | 19 |
| HE406/25-5 | 2013-07-21T12:20 | 55.3058 | 4.0905 | -40 | 32.7 | 33 | 7.4074 | 35.3032 | 34.5931 | 7.4043 | 27.0413 | 183.518 | 61.19 | 88.34 | 1.12 | 18 |
| HE406/25-5 | 2013-07-21T12:20 | 55.3058 | 4.0905 | -40 | 33.7 | 34 | 7.3429 | 35.2518 | 34.6009 | 7.3397 | 27.0567 | 183.270 | 61.02 | 88.10 | 3.29 | 18 |
| HE406/25-5 | 2013-07-21T12:20 | 55.3058 | 4.0905 | -40 | 34.7 | 35 | 7.2792 | 35.2004 | 34.6082 | 7.2759 | 27.0715 | 183.530 | 61.02 | 88.00 | 1.20 | 20 |
| HE406/25-5 | 2013-07-21T12:20 | 55.3058 | 4.0905 | -40 | 35.7 | 36 | 7.1966 | 35.1346 | 34.6184 | 7.1932 | 27.0912 | 184.987 | 61.39 | 88.03 | 1.25 | 20 |
| HE406/25-5 | 2013-07-21T12:20 | 55.3058 | 4.0905 | -40 | 36.7 | 37 | 7.1422 | 35.0906 | 34.6243 | 7.1388 | 27.1035 | 186.888 | 61.95 | 87.81 | 1.58 | 16 |
| HE406/25-5 | 2013-07-21T12:20 | 55.3058 | 4.0905 | -40 | 37.7 | 38 | 7.1283 | 35.0809 | 34.6271 | 7.1248 | 27.1077 | 188.985 | 62.62 | 87.81 | 1.30 | 18 |
| HE406/25-5 | 2013-07-21T12:20 | 55.3058 | 4.0905 | -40 | 38.6 | 39 | 7.1094 | 35.0661 | 34.6293 | 7.1058 | 27.1121 | 189.729 | 62.84 | 87.80 | 1.29 | 16 |
| HE406/25-5 | 2013-07-21T12:20 | 55.3058 | 4.0905 | -40 | 39.6 | 40 | 7.1075 | 35.0653 | 34.6298 | 7.1038 | 27.1128 | 189.836 | 62.87 | 87.62 | 1.26 | 18 |
| HE406/25-5 | 2013-07-21T12:20 | 55.3058 | 4.0905 | -40 | 40.6 | 41 | 7.0966 | 35.0559 | 34.6300 | 7.0928 | 27.1144 | 189.890 | 62.88 | 87.70 | 1.52 | 18 |
| HE406/25-5 | 2013-07-21T12:20 | 55.3058 | 4.0905 | -40 | 41.6 | 42 | 7.0934 | 35.0523 | 34.6287 | 7.0895 | 27.1139 | 189.792 | 62.84 | 87.58 | 1.17 | 17 |
| HE406/25-5 | 2013-07-21T12:20 | 55.3058 | 4.0905 | -40 | 42.6 | 43 | 7.0932 | 35.0522 | 34.6284 | 7.0892 | 27.1136 | 189.826 | 62.85 | 87.65 | 1.15 | 8 |
| HE406/25-9 | 2013-07-21T13:56 | 55.3060 | 4.0902 | -40 | 2.0 | 2 | 17.0217 | 44.3867 | 34.5343 | 17.0214 | 25.1518 | 223.167 | 91.18 | 89.30 | 0.19 | 12 |
| HE406/25-9 | 2013-07-21T13:56 | 55.3060 | 4.0902 | -40 | 3.0 | 3 | 16.9094 | 44.2738 | 34.5320 | 16.9089 | 25.1766 | 223.442 | 91.09 | 89.34 | 0.11 | 22 |
| HE406/25-9 | 2013-07-21T13:56 | 55.3060 | 4.0902 | -40 | 4.0 | 4 | 16.8038 | 44.1578 | 34.5211 | 16.8032 | 25.1932 | 223.051 | 90.74 | 89.31 | 0.11 | 29 |
| HE406/25-9 | 2013-07-21T13:56 | 55.3060 | 4.0902 | -40 | 5.0 | 5 | 16.4183 | 43.7766 | 34.5186 | 16.4175 | 25.2813 | 223.580 | 90.27 | 89.23 | 0.11 | 26 |
| HE406/25-9 | 2013-07-21T13:56 | 55.3060 | 4.0902 | -40 | 5.9 | 6 | 16.3717 | 43.7307 | 34.5180 | 16.3707 | 25.2917 | 223.087 | 89.99 | 89.26 | 0.14 | 24 |
| HE406/25-9 | 2013-07-21T13:56 | 55.3060 | 4.0902 | -40 | 6.9 | 7 | 16.3598 | 43.7212 | 34.5196 | 16.3587 | 25.2956 | 224.628 | 90.59 | 89.25 | 0.18 | 19 |
| HE406/25-9 | 2013-07-21T13:56 | 55.3060 | 4.0902 | -40 | 7.9 | 8 | 16.3364 | 43.6989 | 34.5197 | 16.3351 | 25.3012 | 224.774 | 90.61 | 89.15 | 0.23 | 22 |
| HE406/25-9 | 2013-07-21T13:56 | 55.3060 | 4.0902 | -40 | 8.9 | 9 | 16.3191 | 43.6821 | 34.5195 | 16.3177 | 25.3051 | 225.029 | 90.68 | 88.96 | 0.33 | 20 |
| HE406/25-9 | 2013-07-21T13:56 | 55.3060 | 4.0902 | -40 | 9.9 | 10 | 16.3092 | 43.6727 | 34.5194 | 16.3076 | 25.3073 | 225.207 | 90.73 | 88.75 | 0.42 | 29 |
| HE406/25-9 | 2013-07-21T13:56 | 55.3060 | 4.0902 | -40 | 10.9 | 11 | 16.2734 | 43.6369 | 34.5184 | 16.2717 | 25.3149 | 224.674 | 90.45 | 89.05 | 0.43 | 18 |
| HE406/25-9 | 2013-07-21T13:56 | 55.3060 | 4.0902 | -40 | 11.9 | 12 | 16.1950 | 43.5599 | 34.5179 | 16.1931 | 25.3325 | 224.752 | 90.34 | 88.74 | 0.49 | 18 |
| HE406/25-9 | 2013-07-21T13:56 | 55.3060 | 4.0902 | -40 | 12.9 | 13 | 15.6559 | 43.0008 | 34.4889 | 15.6539 | 25.4328 | 226.340 | 90.00 | 88.55 | 0.58 | 20 |
| HE406/25-9 | 2013-07-21T13:56 | 55.3060 | 4.0902 | -40 | 13.9 | 14 | 14.9862 | 42.3206 | 34.4626 | 14.9841 | 25.5610 | 227.114 | 89.09 | 88.49 | 0.70 | 20 |
| HE406/25-9 | 2013-07-21T13:56 | 55.3060 | 4.0902 | -40 | 14.9 | 15 | 14.7677 | 42.1107 | 34.4639 | 14.7655 | 25.6097 | 227.186 | 88.73 | 88.83 | 0.72 | 19 |
| HE406/25-9 | 2013-07-21T13:56 | 55.3060 | 4.0902 | -40 | 15.9 | 16 | 14.6928 | 42.0404 | 34.4655 | 14.6904 | 25.6272 | 228.736 | 89.20 | 88.89 | 0.80 | 20 |
| HE406/25-9 | 2013-07-21T13:56 | 55.3060 | 4.0902 | -40 | 16.8 | 17 | 14.5336 | 41.8830 | 34.4621 | 14.5311 | 25.6588 | 229.639 | 89.26 | 89.01 | 0.91 | 20 |
| HE406/25-9 | 2013-07-21T13:56 | 55.3060 | 4.0902 | -40 | 17.8 | 18 | 14.2782 | 41.6415 | 34.4665 | 14.2756 | 25.7167 | 229.906 | 88.90 | 89.23 | 0.97 | 16 |
| HE406/25-9 | 2013-07-21T13:56 | 55.3060 | 4.0902 | -40 | 18.8 | 19 | 13.7229 | 41.1137 | 34.4730 | 13.7202 | 25.8381 | 231.610 | 88.55 | 89.25 | 1.08 | 21 |
| HE406/25-9 | 2013-07-21T13:56 | 55.3060 | 4.0902 | -40 | 19.8 | 20 | 13.0181 | 40.4601 | 34.4939 | 13.0154 | 25.9977 | 234.402 | 88.33 | 89.26 | 1.14 | 18 |
| HE406/25-9 | 2013-07-21T13:56 | 55.3060 | 4.0902 | -40 | 20.8 | 21 | 12.8002 | 40.2766 | 34.5174 | 12.7974 | 26.0593 | 234.273 | 87.90 | 89.48 | 1.24 | 14 |
| HE406/25-9 | 2013-07-21T13:56 | 55.3060 | 4.0902 | -40 | 21.8 | 22 | 12.7221 | 40.2097 | 34.5244 | 12.7192 | 26.0802 | 238.151 | 89.21 | 90.20 | 1.08 | 16 |
| HE406/25-9 | 2013-07-21T13:56 | 55.3060 | 4.0902 | -40 | 22.8 | 23 | 12.5502 | 40.0496 | 34.5280 | 12.5471 | 26.1168 | 240.663 | 89.83 | 91.24 | 0.93 | 17 |
| HE406/25-9 | 2013-07-21T13:56 | 55.3060 | 4.0902 | -40 | 23.8 | 24 | 11.9702 | 39.4654 | 34.4966 | 11.9671 | 26.2043 | 241.279 | 88.94 | 91.52 | 0.87 | 13 |
| HE406/25-9 | 2013-07-21T13:56 | 55.3060 | 4.0902 | -40 | 24.8 | 25 | 10.8209 | 38.3767 | 34.4941 | 10.8179 | 26.4143 | 242.489 | 87.21 | 91.30 | 1.17 | 16 |
| HE406/25-9 | 2013-07-21T13:56 | 55.3060 | 4.0902 | -40 | 25.8 | 26 | 10.2112 | 37.8205 | 34.5102 | 10.2082 | 26.5338 | 236.043 | 83.78 | 89.95 | 2.27 | 17 |
| HE406/25-9 | 2013-07-21T13:56 | 55.3060 | 4.0902 | -40 | 26.8 | 27 | 9.6141 | 37.2657 | 34.5131 | 9.6111 | 26.6372 | 234.031 | 81.98 | 89.71 | 2.27 | 16 |
| HE406/25-9 | 2013-07-21T13:56 | 55.3060 | 4.0902 | -40 | 27.7 | 28 | 9.0399 | 36.7368 | 34.5181 | 9.0369 | 26.7349 | 232.053 | 80.26 | 89.59 | 2.12 | 15 |
| HE406/25-9 | 2013-07-21T13:56 | 55.3060 | 4.0902 | -40 | 28.7 | 29 | 8.7391 | 36.4674 | 34.5276 | 8.7361 | 26.7900 | 222.144 | 76.32 | 89.70 | 1.86 | 17 |
| HE406/25-9 | 2013-07-21T13:56 | 55.3060 | 4.0902 | -40 | 29.7 | 30 | 8.3683 | 36.1394 | 34.5428 | 8.3652 | 26.8595 | 206.244 | 70.27 | 89.81 | 1.78 | 21 |
| HE406/25-9 | 2013-07-21T13:56 | 55.3060 | 4.0902 | -40 | 30.7 | 31 | 7.6975 | 35.5337 | 34.5553 | 7.6945 | 26.9697 | 193.814 | 65.04 | 90.00 | 1.58 | 17 |
| HE406/25-9 | 2013-07-21T13:56 | 55.3060 | 4.0902 | -40 | 31.7 | 32 | 7.4181 | 35.3053 | 34.5851 | 7.4151 | 27.0335 | 189.646 | 63.25 | 89.64 | 1.47 | 16 |
| HE406/25-9 | 2013-07-21T13:56 | 55.3060 | 4.0902 | -40 | 32.7 | 33 | 7.3752 | 35.2709 | 34.5900 | 7.3721 | 27.0435 | 185.295 | 61.74 | 89.48 | 1.46 | 20 |
| HE406/25-9 | 2013-07-21T13:56 | 55.3060 | 4.0902 | -40 | 33.7 | 34 | 7.3664 | 35.2683 | 34.5955 | 7.3632 | 27.0491 | 183.399 | 61.09 | 88.30 | 2.28 | 19 |
| HE406/25-9 | 2013-07-21T13:56 | 55.3060 | 4.0902 | -40 | 34.7 | 35 | 7.3546 | 35.2615 | 34.5994 | 7.3513 | 27.0538 | 183.393 | 61.08 | 87.96 | 1.63 | 18 |
| HE406/25-9 | 2013-07-21T13:56 | 55.3060 | 4.0902 | -40 | 35.7 | 36 | 7.3390 | 35.2509 | 34.6029 | 7.3356 | 27.0589 | 183.196 | 60.99 | 87.98 | 1.62 | 18 |
| HE406/25-9 | 2013-07-21T13:56 | 55.3060 | 4.0902 | -40 | 36.7 | 37 | 7.3174 | 35.2343 | 34.6059 | 7.3139 | 27.0643 | 182.997 | 60.89 | 87.79 | 1.07 | 18 |
| HE406/25-9 | 2013-07-21T13:56 | 55.3060 | 4.0902 | -40 | 37.7 | 38 | 7.2508 | 35.1794 | 34.6121 | 7.2472 | 27.0786 | 183.470 | 60.96 | 87.56 | 1.19 | 16 |
| HE406/25-9 | 2013-07-21T13:56 | 55.3060 | 4.0902 | -40 | 38.6 | 39 | 7.2062 | 35.1438 | 34.6174 | 7.2026 | 27.0891 | 183.580 | 60.94 | 87.62 | 1.33 | 14 |
| HE406/25-9 | 2013-07-21T13:56 | 55.3060 | 4.0902 | -40 | 39.6 | 40 | 7.1652 | 35.1108 | 34.6219 | 7.1615 | 27.0984 | 185.144 | 61.40 | 87.69 | 1.28 | 18 |
| HE406/25-9 | 2013-07-21T13:56 | 55.3060 | 4.0902 | -40 | 40.6 | 41 | 7.1436 | 35.0938 | 34.6243 | 7.1398 | 27.1034 | 186.460 | 61.81 | 87.47 | 1.09 | 15 |
| HE406/25-9 | 2013-07-21T13:56 | 55.3060 | 4.0902 | -40 | 41.6 | 42 | 7.1320 | 35.0855 | 34.6264 | 7.1281 | 27.1066 | 187.500 | 62.13 | 87.31 | 1.51 | 18 |
| HE406/25-9 | 2013-07-21T13:56 | 55.3060 | 4.0902 | -40 | 42.6 | 43 | 7.1110 | 35.0667 | 34.6264 | 7.1070 | 27.1096 | 188.096 | 62.30 | 87.25 | 2.38 | 5 |
| HE406/30-1 | 2013-07-22T11:03 | 55.3058 | 4.0907 | -40 | 2.0 | 2 | 16.9564 | 44.3566 | 34.5642 | 16.9561 | 25.1902 | 222.576 | 90.84 | 86.61 | 0.26 | 7 |
| HE406/30-1 | 2013-07-22T11:03 | 55.3058 | 4.0907 | -40 | 3.0 | 3 | 16.9374 | 44.3370 | 34.5631 | 16.9369 | 25.1938 | 222.644 | 90.83 | 86.61 | 0.27 | 21 |
| HE406/30-1 | 2013-07-22T11:03 | 55.3058 | 4.0907 | -40 | 4.0 | 4 | 16.9105 | 44.3098 | 34.5621 | 16.9098 | 25.1995 | 223.116 | 90.98 | 86.53 | 0.29 | 25 |
| HE406/30-1 | 2013-07-22T11:03 | 55.3058 | 4.0907 | -40 | 5.0 | 5 | 16.8703 | 44.2692 | 34.5609 | 16.8695 | 25.2081 | 223.293 | 90.98 | 86.36 | 0.35 | 28 |
| HE406/30-1 | 2013-07-22T11:03 | 55.3058 | 4.0907 | -40 | 5.9 | 6 | 16.7760 | 44.1728 | 34.5575 | 16.7750 | 25.2277 | 223.848 | 91.03 | 86.66 | 0.40 | 17 |
| HE406/30-1 | 2013-07-22T11:03 | 55.3058 | 4.0907 | -40 | 6.9 | 7 | 16.7009 | 44.0973 | 34.5557 | 16.6998 | 25.2440 | 224.129 | 91.01 | 86.75 | 0.42 | 16 |
| HE406/30-1 | 2013-07-22T11:03 | 55.3058 | 4.0907 | -40 | 7.9 | 8 | 16.5608 | 43.9547 | 34.5510 | 16.5595 | 25.2732 | 224.838 | 91.05 | 86.92 | 0.48 | 24 |
| HE406/30-1 | 2013-07-22T11:03 | 55.3058 | 4.0907 | -40 | 8.9 | 9 | 16.5080 | 43.9021 | 34.5501 | 16.5066 | 25.2848 | 225.292 | 91.14 | 86.97 | 0.53 | 26 |
| HE406/30-1 | 2013-07-22T11:03 | 55.3058 | 4.0907 | -40 | 9.9 | 10 | 16.4798 | 43.8735 | 34.5489 | 16.4782 | 25.2905 | 226.836 | 91.71 | 87.06 | 0.59 | 22 |
| HE406/30-1 | 2013-07-22T11:03 | 55.3058 | 4.0907 | -40 | 10.9 | 11 | 16.4621 | 43.8574 | 34.5496 | 16.4603 | 25.2952 | 227.524 | 91.96 | 87.05 | 0.65 | 19 |
| HE406/30-1 | 2013-07-22T11:03 | 55.3058 | 4.0907 | -40 | 11.9 | 12 | 16.4398 | 43.8352 | 34.5490 | 16.4379 | 25.2999 | 227.469 | 91.90 | 86.95 | 0.72 | 20 |
| HE406/30-1 | 2013-07-22T11:03 | 55.3058 | 4.0907 | -40 | 12.9 | 13 | 16.4191 | 43.8141 | 34.5479 | 16.4170 | 25.3039 | 226.986 | 91.66 | 86.92 | 0.81 | 19 |
| HE406/30-1 | 2013-07-22T11:03 | 55.3058 | 4.0907 | -40 | 13.9 | 14 | 16.3946 | 43.7897 | 34.5472 | 16.3924 | 25.3091 | 226.883 | 91.58 | 87.05 | 0.82 | 18 |
| HE406/30-1 | 2013-07-22T11:03 | 55.3058 | 4.0907 | -40 | 14.9 | 15 | 16.3251 | 43.7172 | 34.5430 | 16.3227 | 25.3220 | 226.625 | 91.34 | 86.78 | 0.90 | 22 |
| HE406/30-1 | 2013-07-22T11:03 | 55.3058 | 4.0907 | -40 | 15.9 | 16 | 15.4028 | 42.7593 | 34.4923 | 15.4004 | 25.4921 | 229.295 | 90.72 | 85.81 | 1.20 | 21 |
| HE406/30-1 | 2013-07-22T11:03 | 55.3058 | 4.0907 | -40 | 16.8 | 17 | 14.9753 | 42.3530 | 34.5005 | 14.9728 | 25.5928 | 226.811 | 88.97 | 86.59 | 1.19 | 18 |
| HE406/30-1 | 2013-07-22T11:03 | 55.3058 | 4.0907 | -40 | 17.8 | 18 | 14.8744 | 42.2469 | 34.4926 | 14.8717 | 25.6087 | 229.073 | 89.67 | 87.12 | 1.06 | 18 |
| HE406/30-1 | 2013-07-22T11:03 | 55.3058 | 4.0907 | -40 | 18.8 | 19 | 14.6383 | 42.0155 | 34.4899 | 14.6355 | 25.6578 | 234.059 | 91.19 | 87.91 | 1.27 | 22 |
| HE406/30-1 | 2013-07-22T11:03 | 55.3058 | 4.0907 | -40 | 19.8 | 20 | 13.8564 | 41.2733 | 34.5016 | 13.8536 | 25.8325 | 235.413 | 90.27 | 88.02 | 1.63 | 17 |
| HE406/30-1 | 2013-07-22T11:03 | 55.3058 | 4.0907 | -40 | 20.8 | 21 | 13.1926 | 40.6531 | 34.5181 | 13.1897 | 25.9814 | 235.251 | 88.99 | 88.28 | 1.78 | 13 |
| HE406/30-1 | 2013-07-22T11:03 | 55.3058 | 4.0907 | -40 | 21.8 | 22 | 12.9487 | 40.4440 | 34.5411 | 12.9457 | 26.0482 | 238.041 | 89.60 | 88.60 | 1.70 | 15 |
| HE406/30-1 | 2013-07-22T11:03 | 55.3058 | 4.0907 | -40 | 22.8 | 23 | 12.8750 | 40.3825 | 34.5493 | 12.8719 | 26.0693 | 245.823 | 92.39 | 88.90 | 1.77 | 18 |
| HE406/30-1 | 2013-07-22T11:03 | 55.3058 | 4.0907 | -40 | 23.8 | 24 | 12.7974 | 40.3280 | 34.5678 | 12.7942 | 26.0990 | 248.790 | 93.37 | 89.19 | 1.86 | 14 |
| HE406/30-1 | 2013-07-22T11:03 | 55.3058 | 4.0907 | -40 | 24.8 | 25 | 12.7795 | 40.3246 | 34.5806 | 12.7761 | 26.1125 | 248.121 | 93.09 | 89.67 | 1.81 | 15 |
| HE406/30-1 | 2013-07-22T11:03 | 55.3058 | 4.0907 | -40 | 25.8 | 26 | 12.6950 | 40.2431 | 34.5796 | 12.6915 | 26.1285 | 248.110 | 92.92 | 89.89 | 2.03 | 16 |
| HE406/30-1 | 2013-07-22T11:03 | 55.3058 | 4.0907 | -40 | 26.8 | 27 | 12.4053 | 39.9571 | 34.5704 | 12.4017 | 26.1781 | 247.980 | 92.30 | 89.49 | 2.88 | 17 |
| HE406/30-1 | 2013-07-22T11:03 | 55.3058 | 4.0907 | -40 | 27.7 | 28 | 11.2235 | 38.7908 | 34.5271 | 11.2200 | 26.3673 | 246.479 | 89.44 | 88.38 | 4.18 | 15 |
| HE406/30-1 | 2013-07-22T11:03 | 55.3058 | 4.0907 | -40 | 28.7 | 29 | 9.0987 | 36.7875 | 34.5136 | 9.0956 | 26.7219 | 249.828 | 86.52 | 88.42 | 4.33 | 17 |
| HE406/30-1 | 2013-07-22T11:03 | 55.3058 | 4.0907 | -40 | 29.7 | 30 | 7.5711 | 35.4232 | 34.5618 | 7.5682 | 26.9931 | 240.290 | 80.41 | 88.62 | 3.22 | 16 |
| HE406/30-1 | 2013-07-22T11:03 | 55.3058 | 4.0907 | -40 | 30.7 | 31 | 7.2506 | 35.1563 | 34.5905 | 7.2477 | 27.0616 | 219.785 | 73.02 | 89.57 | 2.11 | 20 |
| HE406/30-1 | 2013-07-22T11:03 | 55.3058 | 4.0907 | -40 | 31.7 | 32 | 7.2339 | 35.1493 | 34.5991 | 7.2309 | 27.0707 | 200.539 | 66.60 | 89.48 | 1.04 | 17 |
| HE406/30-1 | 2013-07-22T11:03 | 55.3058 | 4.0907 | -40 | 32.7 | 33 | 7.2244 | 35.1484 | 34.6072 | 7.2213 | 27.0784 | 191.571 | 63.61 | 89.04 | 1.13 | 15 |
| HE406/30-1 | 2013-07-22T11:03 | 55.3058 | 4.0907 | -40 | 33.7 | 34 | 7.2149 | 35.1482 | 34.6160 | 7.2117 | 27.0867 | 189.261 | 62.83 | 89.15 | 1.35 | 15 |
| HE406/30-1 | 2013-07-22T11:03 | 55.3058 | 4.0907 | -40 | 34.7 | 35 | 7.2052 | 35.1468 | 34.6237 | 7.2019 | 27.0941 | 190.014 | 63.07 | 89.05 | 1.44 | 13 |
| HE406/30-1 | 2013-07-22T11:03 | 55.3058 | 4.0907 | -40 | 35.7 | 36 | 7.1952 | 35.1433 | 34.6293 | 7.1918 | 27.1000 | 190.547 | 63.24 | 88.94 | 1.53 | 16 |
| HE406/30-1 | 2013-07-22T11:03 | 55.3058 | 4.0907 | -40 | 36.7 | 37 | 7.1867 | 35.1397 | 34.6334 | 7.1832 | 27.1044 | 190.840 | 63.32 | 88.59 | 1.53 | 17 |
| HE406/30-1 | 2013-07-22T11:03 | 55.3058 | 4.0907 | -40 | 37.7 | 38 | 7.1816 | 35.1389 | 34.6372 | 7.1780 | 27.1081 | 190.768 | 63.29 | 88.50 | 1.36 | 19 |
| HE406/30-1 | 2013-07-22T11:03 | 55.3058 | 4.0907 | -40 | 38.6 | 39 | 7.1756 | 35.1360 | 34.6395 | 7.1720 | 27.1108 | 190.742 | 63.28 | 88.18 | 1.05 | 14 |
| HE406/30-1 | 2013-07-22T11:03 | 55.3058 | 4.0907 | -40 | 39.6 | 40 | 7.1744 | 35.1362 | 34.6405 | 7.1707 | 27.1118 | 190.399 | 63.16 | 87.98 | 1.21 | 16 |
| HE406/30-1 | 2013-07-22T11:03 | 55.3058 | 4.0907 | -40 | 40.6 | 41 | 7.1733 | 35.1334 | 34.6379 | 7.1695 | 27.1099 | 188.749 | 62.61 | 87.95 | 1.45 | 10 |
| HE406/31-1 | 2013-07-22T11:38 | 55.3058 | 4.1025 | -40 | 2.0 | 2 | 16.8509 | 44.2212 | 34.5368 | 16.8506 | 25.1940 | 224.360 | 91.36 | 89.12 | 0.19 | 15 |
| HE406/31-1 | 2013-07-22T11:38 | 55.3058 | 4.1025 | -40 | 3.0 | 3 | 16.8111 | 44.1835 | 34.5377 | 16.8106 | 25.2042 | 224.129 | 91.20 | 89.37 | 0.20 | 26 |
| HE406/31-1 | 2013-07-22T11:38 | 55.3058 | 4.1025 | -40 | 4.0 | 4 | 16.7899 | 44.1642 | 34.5387 | 16.7893 | 25.2099 | 224.260 | 91.22 | 89.43 | 0.23 | 23 |
| HE406/31-1 | 2013-07-22T11:38 | 55.3058 | 4.1025 | -40 | 5.0 | 5 | 16.7638 | 44.1402 | 34.5398 | 16.7630 | 25.2169 | 224.861 | 91.41 | 89.31 | 0.27 | 25 |
| HE406/31-1 | 2013-07-22T11:38 | 55.3058 | 4.1025 | -40 | 5.9 | 6 | 16.7378 | 44.1185 | 34.5428 | 16.7368 | 25.2254 | 225.253 | 91.53 | 89.05 | 0.31 | 25 |
| HE406/31-1 | 2013-07-22T11:38 | 55.3058 | 4.1025 | -40 | 6.9 | 7 | 16.7098 | 44.0915 | 34.5429 | 16.7087 | 25.2321 | 225.369 | 91.53 | 88.84 | 0.34 | 30 |
| HE406/31-1 | 2013-07-22T11:38 | 55.3058 | 4.1025 | -40 | 7.9 | 8 | 16.6357 | 44.0180 | 34.5420 | 16.6344 | 25.2487 | 225.801 | 91.57 | 88.62 | 0.40 | 29 |
| HE406/31-1 | 2013-07-22T11:38 | 55.3058 | 4.1025 | -40 | 8.9 | 9 | 16.5558 | 43.9409 | 34.5428 | 16.5544 | 25.2681 | 226.507 | 91.71 | 88.80 | 0.47 | 27 |
| HE406/31-1 | 2013-07-22T11:38 | 55.3058 | 4.1025 | -40 | 9.9 | 10 | 16.4531 | 43.8392 | 34.5417 | 16.4515 | 25.2912 | 227.487 | 91.92 | 88.64 | 0.56 | 22 |
| HE406/31-1 | 2013-07-22T11:38 | 55.3058 | 4.1025 | -40 | 10.9 | 11 | 16.3983 | 43.7809 | 34.5374 | 16.3965 | 25.3006 | 227.413 | 91.79 | 88.23 | 0.57 | 18 |
| HE406/31-1 | 2013-07-22T11:38 | 55.3058 | 4.1025 | -40 | 11.9 | 12 | 16.3720 | 43.7564 | 34.5382 | 16.3701 | 25.3073 | 227.770 | 91.89 | 88.59 | 0.61 | 22 |
| HE406/31-1 | 2013-07-22T11:38 | 55.3058 | 4.1025 | -40 | 12.9 | 13 | 16.3588 | 43.7439 | 34.5382 | 16.3567 | 25.3104 | 227.591 | 91.79 | 88.34 | 0.62 | 21 |
| HE406/31-1 | 2013-07-22T11:38 | 55.3058 | 4.1025 | -40 | 13.9 | 14 | 16.3313 | 43.7138 | 34.5350 | 16.3291 | 25.3144 | 227.703 | 91.79 | 88.50 | 0.72 | 19 |
| HE406/31-1 | 2013-07-22T11:38 | 55.3058 | 4.1025 | -40 | 14.9 | 15 | 16.2541 | 43.6263 | 34.5242 | 16.2517 | 25.3239 | 228.003 | 91.76 | 88.39 | 0.75 | 17 |
| HE406/31-1 | 2013-07-22T11:38 | 55.3058 | 4.1025 | -40 | 15.9 | 16 | 15.6344 | 42.9832 | 34.4907 | 15.6319 | 25.4392 | 229.992 | 91.41 | 88.39 | 0.89 | 16 |
| HE406/31-1 | 2013-07-22T11:38 | 55.3058 | 4.1025 | -40 | 16.8 | 17 | 15.0491 | 42.4167 | 34.4933 | 15.0465 | 25.5710 | 228.753 | 89.86 | 87.39 | 1.09 | 19 |
| HE406/31-1 | 2013-07-22T11:38 | 55.3058 | 4.1025 | -40 | 17.8 | 18 | 14.8906 | 42.2555 | 34.4861 | 14.8879 | 25.6002 | 230.417 | 90.23 | 88.02 | 1.02 | 19 |
| HE406/31-1 | 2013-07-22T11:38 | 55.3058 | 4.1025 | -40 | 18.8 | 19 | 14.3016 | 41.6459 | 34.4494 | 14.2988 | 25.6985 | 236.527 | 91.50 | 88.41 | 1.04 | 16 |
| HE406/31-1 | 2013-07-22T11:38 | 55.3058 | 4.1025 | -40 | 19.8 | 20 | 13.1027 | 40.5312 | 34.4845 | 13.1000 | 25.9735 | 237.627 | 89.70 | 89.00 | 1.22 | 15 |
| HE406/31-1 | 2013-07-22T11:38 | 55.3058 | 4.1025 | -40 | 20.8 | 21 | 12.8756 | 40.3524 | 34.5209 | 12.8728 | 26.0471 | 234.891 | 88.27 | 89.51 | 1.30 | 18 |
| HE406/31-1 | 2013-07-22T11:38 | 55.3058 | 4.1025 | -40 | 21.8 | 22 | 12.7968 | 40.3008 | 34.5432 | 12.7938 | 26.0800 | 243.598 | 91.40 | 89.79 | 1.03 | 16 |
| HE406/31-1 | 2013-07-22T11:38 | 55.3058 | 4.1025 | -40 | 22.8 | 23 | 12.7269 | 40.2596 | 34.5674 | 12.7238 | 26.1126 | 243.902 | 91.40 | 90.08 | 1.23 | 21 |
| HE406/31-1 | 2013-07-22T11:38 | 55.3058 | 4.1025 | -40 | 23.8 | 24 | 12.3847 | 39.9067 | 34.5420 | 12.3815 | 26.1600 | 244.222 | 90.85 | 90.25 | 1.46 | 16 |
| HE406/31-1 | 2013-07-22T11:38 | 55.3058 | 4.1025 | -40 | 24.8 | 25 | 11.6444 | 39.1751 | 34.5146 | 11.6412 | 26.2797 | 245.010 | 89.70 | 90.08 | 2.09 | 17 |
| HE406/31-1 | 2013-07-22T11:38 | 55.3058 | 4.1025 | -40 | 25.8 | 26 | 11.1379 | 38.6876 | 34.5058 | 11.1347 | 26.3662 | 239.920 | 86.89 | 90.17 | 2.75 | 18 |
| HE406/31-1 | 2013-07-22T11:38 | 55.3058 | 4.1025 | -40 | 26.8 | 27 | 10.5291 | 38.1025 | 34.4934 | 10.5259 | 26.4654 | 237.351 | 84.82 | 89.59 | 2.65 | 15 |
| HE406/31-1 | 2013-07-22T11:38 | 55.3058 | 4.1025 | -40 | 27.7 | 28 | 9.4412 | 37.0915 | 34.4992 | 9.4381 | 26.6549 | 240.535 | 83.93 | 89.00 | 2.99 | 17 |
| HE406/31-1 | 2013-07-22T11:38 | 55.3058 | 4.1025 | -40 | 28.7 | 29 | 8.4261 | 36.1687 | 34.5177 | 8.4231 | 26.8310 | 239.679 | 81.76 | 88.79 | 3.44 | 17 |
| HE406/31-1 | 2013-07-22T11:38 | 55.3058 | 4.1025 | -40 | 29.7 | 30 | 7.7095 | 35.5612 | 34.5736 | 7.7066 | 26.9823 | 225.541 | 75.72 | 88.75 | 3.81 | 18 |
| HE406/31-1 | 2013-07-22T11:38 | 55.3058 | 4.1025 | -40 | 30.7 | 31 | 7.3348 | 35.2465 | 34.6048 | 7.3319 | 27.0609 | 209.075 | 69.60 | 88.89 | 2.51 | 19 |
| HE406/31-1 | 2013-07-22T11:38 | 55.3058 | 4.1025 | -40 | 31.7 | 32 | 7.2407 | 35.1702 | 34.6151 | 7.2377 | 27.0823 | 203.002 | 67.44 | 88.73 | 1.37 | 19 |
| HE406/31-1 | 2013-07-22T11:38 | 55.3058 | 4.1025 | -40 | 32.7 | 33 | 7.2191 | 35.1565 | 34.6213 | 7.2160 | 27.0903 | 196.864 | 65.37 | 89.58 | 1.31 | 20 |
| HE406/31-1 | 2013-07-22T11:38 | 55.3058 | 4.1025 | -40 | 33.7 | 34 | 7.2023 | 35.1471 | 34.6274 | 7.1991 | 27.0974 | 192.803 | 64.00 | 89.45 | 1.39 | 18 |
| HE406/31-1 | 2013-07-22T11:38 | 55.3058 | 4.1025 | -40 | 34.7 | 35 | 7.2021 | 35.1507 | 34.6310 | 7.1988 | 27.1003 | 191.836 | 63.68 | 89.38 | 1.09 | 15 |
| HE406/31-1 | 2013-07-22T11:38 | 55.3058 | 4.1025 | -40 | 35.7 | 36 | 7.1995 | 35.1511 | 34.6335 | 7.1961 | 27.1027 | 191.519 | 63.57 | 89.48 | 0.96 | 17 |
| HE406/31-1 | 2013-07-22T11:38 | 55.3058 | 4.1025 | -40 | 36.7 | 37 | 7.1974 | 35.1509 | 34.6349 | 7.1939 | 27.1041 | 191.463 | 63.55 | 89.19 | 1.56 | 18 |
| HE406/31-1 | 2013-07-22T11:38 | 55.3058 | 4.1025 | -40 | 37.7 | 38 | 7.1970 | 35.1530 | 34.6371 | 7.1934 | 27.1059 | 191.053 | 63.41 | 88.90 | 1.19 | 15 |
| HE406/31-1 | 2013-07-22T11:38 | 55.3058 | 4.1025 | -40 | 38.6 | 39 | 7.1952 | 35.1532 | 34.6387 | 7.1916 | 27.1074 | 190.675 | 63.28 | 88.82 | 1.05 | 14 |
| HE406/31-1 | 2013-07-22T11:38 | 55.3058 | 4.1025 | -40 | 39.6 | 40 | 7.1947 | 35.1538 | 34.6393 | 7.1910 | 27.1080 | 190.097 | 63.09 | 88.56 | 1.75 | 17 |
| HE406/31-1 | 2013-07-22T11:38 | 55.3058 | 4.1025 | -40 | 40.6 | 41 | 7.1944 | 35.1538 | 34.6391 | 7.1906 | 27.1079 | 189.878 | 63.02 | 88.52 | 1.84 | 17 |
| HE406/31-1 | 2013-07-22T11:38 | 55.3058 | 4.1025 | -40 | 41.6 | 42 | 7.1944 | 35.1510 | 34.6355 | 7.1905 | 27.1051 | 188.893 | 62.69 | 88.22 | 1.58 | 20 |
| HE406/31-1 | 2013-07-22T11:38 | 55.3058 | 4.1025 | -40 | 42.6 | 43 | 7.1940 | 35.1499 | 34.6343 | 7.1900 | 27.1042 | 185.898 | 61.70 | 88.26 | 1.57 | 19 |
| HE406/32-1 | 2013-07-22T12:04 | 55.3058 | 4.1148 | -40 | 4.0 | 4 | 16.7869 | 44.1442 | 34.5237 | 16.7863 | 25.1991 | 222.813 | 90.61 | 90.27 | 0.14 | 19 |
| HE406/32-1 | 2013-07-22T12:04 | 55.3058 | 4.1148 | -40 | 5.0 | 5 | 16.7520 | 44.1124 | 34.5256 | 16.7512 | 25.2088 | 223.123 | 90.68 | 90.14 | 0.14 | 22 |
| HE406/32-1 | 2013-07-22T12:04 | 55.3058 | 4.1148 | -40 | 5.9 | 6 | 16.7071 | 44.0641 | 34.5216 | 16.7061 | 25.2163 | 223.962 | 90.94 | 89.90 | 0.19 | 21 |
| HE406/32-1 | 2013-07-22T12:04 | 55.3058 | 4.1148 | -40 | 6.9 | 7 | 16.6002 | 43.9568 | 34.5192 | 16.5991 | 25.2395 | 224.208 | 90.85 | 89.83 | 0.21 | 24 |
| HE406/32-1 | 2013-07-22T12:04 | 55.3058 | 4.1148 | -40 | 7.9 | 8 | 16.4739 | 43.8324 | 34.5185 | 16.4726 | 25.2685 | 224.179 | 90.61 | 89.98 | 0.26 | 25 |
| HE406/32-1 | 2013-07-22T12:04 | 55.3058 | 4.1148 | -40 | 8.9 | 9 | 16.4163 | 43.7760 | 34.5182 | 16.4149 | 25.2816 | 225.872 | 91.19 | 90.00 | 0.29 | 19 |
| HE406/32-1 | 2013-07-22T12:04 | 55.3058 | 4.1148 | -40 | 9.9 | 10 | 16.3876 | 43.7498 | 34.5196 | 16.3860 | 25.2894 | 225.989 | 91.19 | 89.90 | 0.29 | 25 |
| HE406/32-1 | 2013-07-22T12:04 | 55.3058 | 4.1148 | -40 | 10.9 | 11 | 16.3671 | 43.7299 | 34.5194 | 16.3653 | 25.2940 | 226.242 | 91.25 | 89.78 | 0.35 | 22 |
| HE406/32-1 | 2013-07-22T12:04 | 55.3058 | 4.1148 | -40 | 11.9 | 12 | 16.3561 | 43.7206 | 34.5203 | 16.3542 | 25.2972 | 226.158 | 91.20 | 89.82 | 0.37 | 24 |
| HE406/32-1 | 2013-07-22T12:04 | 55.3058 | 4.1148 | -40 | 12.9 | 13 | 16.3324 | 43.6966 | 34.5193 | 16.3303 | 25.3020 | 226.028 | 91.10 | 89.55 | 0.42 | 18 |
| HE406/32-1 | 2013-07-22T12:04 | 55.3058 | 4.1148 | -40 | 13.9 | 14 | 16.2978 | 43.6622 | 34.5185 | 16.2956 | 25.3094 | 225.918 | 91.00 | 89.72 | 0.45 | 15 |
| HE406/32-1 | 2013-07-22T12:04 | 55.3058 | 4.1148 | -40 | 14.9 | 15 | 16.1380 | 43.4962 | 34.5097 | 16.1356 | 25.3394 | 226.294 | 90.86 | 89.15 | 0.69 | 19 |
| HE406/32-1 | 2013-07-22T12:04 | 55.3058 | 4.1148 | -40 | 15.9 | 16 | 15.3067 | 42.6341 | 34.4638 | 15.3043 | 25.4915 | 229.214 | 90.50 | 88.52 | 0.78 | 19 |
| HE406/32-1 | 2013-07-22T12:04 | 55.3058 | 4.1148 | -40 | 16.8 | 17 | 14.9414 | 42.2927 | 34.4755 | 14.9389 | 25.5809 | 228.024 | 89.37 | 88.88 | 0.91 | 19 |
| HE406/32-1 | 2013-07-22T12:04 | 55.3058 | 4.1148 | -40 | 17.8 | 18 | 14.8762 | 42.2336 | 34.4789 | 14.8735 | 25.5978 | 232.697 | 91.09 | 89.18 | 0.79 | 22 |
| HE406/32-1 | 2013-07-22T12:04 | 55.3058 | 4.1148 | -40 | 18.8 | 19 | 14.5461 | 41.8943 | 34.4606 | 14.5433 | 25.6550 | 232.971 | 90.58 | 89.42 | 0.88 | 19 |
| HE406/32-1 | 2013-07-22T12:04 | 55.3058 | 4.1148 | -40 | 19.8 | 20 | 13.4288 | 40.8225 | 34.4644 | 13.4260 | 25.8918 | 235.725 | 89.58 | 89.31 | 1.09 | 16 |
| HE406/32-1 | 2013-07-22T12:04 | 55.3058 | 4.1148 | -40 | 20.8 | 21 | 12.8712 | 40.3291 | 34.5026 | 12.8684 | 26.0338 | 234.046 | 87.93 | 89.72 | 1.19 | 19 |
| HE406/32-1 | 2013-07-22T12:04 | 55.3058 | 4.1148 | -40 | 21.8 | 22 | 12.7761 | 40.2592 | 34.5224 | 12.7731 | 26.0680 | 241.961 | 90.74 | 90.51 | 1.21 | 18 |
| HE406/32-1 | 2013-07-22T12:04 | 55.3058 | 4.1148 | -40 | 22.8 | 23 | 12.6782 | 40.1762 | 34.5321 | 12.6751 | 26.0949 | 241.810 | 90.50 | 90.68 | 1.12 | 18 |
| HE406/32-1 | 2013-07-22T12:04 | 55.3058 | 4.1148 | -40 | 23.8 | 24 | 12.4812 | 39.9825 | 34.5263 | 12.4780 | 26.1290 | 240.277 | 89.55 | 90.89 | 1.13 | 17 |
| HE406/32-1 | 2013-07-22T12:04 | 55.3058 | 4.1148 | -40 | 24.8 | 25 | 11.9696 | 39.4842 | 34.5150 | 11.9664 | 26.2188 | 238.519 | 87.93 | 91.24 | 1.31 | 16 |
| HE406/32-1 | 2013-07-22T12:04 | 55.3058 | 4.1148 | -40 | 25.8 | 26 | 11.1422 | 38.6831 | 34.4973 | 11.1390 | 26.3589 | 241.556 | 87.48 | 91.19 | 1.27 | 16 |
| HE406/32-1 | 2013-07-22T12:04 | 55.3058 | 4.1148 | -40 | 26.8 | 27 | 10.3505 | 37.9543 | 34.5130 | 10.3473 | 26.5119 | 240.990 | 85.80 | 90.82 | 1.49 | 16 |
| HE406/32-1 | 2013-07-22T12:04 | 55.3058 | 4.1148 | -40 | 27.7 | 28 | 9.5256 | 37.1902 | 34.5198 | 9.5225 | 26.6571 | 231.704 | 81.01 | 87.78 | 2.63 | 18 |
| HE406/32-1 | 2013-07-22T12:04 | 55.3058 | 4.1148 | -40 | 28.7 | 29 | 9.0171 | 36.7164 | 34.5184 | 9.0140 | 26.7388 | 224.843 | 77.73 | 87.37 | 3.97 | 17 |
| HE406/32-1 | 2013-07-22T12:04 | 55.3058 | 4.1148 | -40 | 29.7 | 30 | 8.4612 | 36.2164 | 34.5335 | 8.4581 | 26.8379 | 220.116 | 75.15 | 88.15 | 3.29 | 18 |
| HE406/32-1 | 2013-07-22T12:04 | 55.3058 | 4.1148 | -40 | 30.7 | 31 | 7.6451 | 35.4920 | 34.5623 | 7.6421 | 26.9828 | 204.689 | 68.61 | 88.83 | 2.53 | 19 |
| HE406/32-1 | 2013-07-22T12:04 | 55.3058 | 4.1148 | -40 | 31.7 | 32 | 7.4122 | 35.3000 | 34.5853 | 7.4092 | 27.0345 | 187.501 | 62.52 | 88.41 | 1.88 | 14 |
| HE406/32-1 | 2013-07-22T12:04 | 55.3058 | 4.1148 | -40 | 32.7 | 33 | 7.2532 | 35.1687 | 34.6004 | 7.2501 | 27.0690 | 184.481 | 61.30 | 88.41 | 1.85 | 17 |
| HE406/32-1 | 2013-07-22T12:04 | 55.3058 | 4.1148 | -40 | 33.7 | 34 | 7.2273 | 35.1519 | 34.6075 | 7.2241 | 27.0783 | 183.855 | 61.05 | 88.06 | 1.48 | 19 |
| HE406/32-1 | 2013-07-22T12:04 | 55.3058 | 4.1148 | -40 | 34.7 | 35 | 7.2009 | 35.1348 | 34.6148 | 7.1976 | 27.0877 | 186.189 | 61.79 | 88.10 | 1.49 | 17 |
| HE406/32-1 | 2013-07-22T12:04 | 55.3058 | 4.1148 | -40 | 35.7 | 36 | 7.1925 | 35.1303 | 34.6178 | 7.1891 | 27.0913 | 186.713 | 61.96 | 87.96 | 1.24 | 18 |
| HE406/32-1 | 2013-07-22T12:04 | 55.3058 | 4.1148 | -40 | 36.7 | 37 | 7.1835 | 35.1253 | 34.6209 | 7.1800 | 27.0950 | 186.982 | 62.03 | 88.04 | 1.15 | 19 |
| HE406/32-1 | 2013-07-22T12:04 | 55.3058 | 4.1148 | -40 | 37.7 | 38 | 7.1821 | 35.1259 | 34.6224 | 7.1786 | 27.0964 | 186.860 | 61.99 | 87.89 | 1.23 | 16 |
| HE406/32-1 | 2013-07-22T12:04 | 55.3058 | 4.1148 | -40 | 38.6 | 39 | 7.1798 | 35.1252 | 34.6234 | 7.1762 | 27.0976 | 186.831 | 61.98 | 87.76 | 1.18 | 19 |
| HE406/32-1 | 2013-07-22T12:04 | 55.3058 | 4.1148 | -40 | 39.6 | 40 | 7.1771 | 35.1240 | 34.6243 | 7.1734 | 27.0987 | 186.597 | 61.90 | 87.60 | 1.87 | 18 |
| HE406/32-1 | 2013-07-22T12:04 | 55.3058 | 4.1148 | -40 | 40.6 | 41 | 7.1764 | 35.1232 | 34.6237 | 7.1726 | 27.0983 | 186.153 | 61.75 | 87.75 | 1.42 | 16 |
| HE406/32-1 | 2013-07-22T12:04 | 55.3058 | 4.1148 | -40 | 41.6 | 42 | 7.1752 | 35.1203 | 34.6212 | 7.1713 | 27.0965 | 185.541 | 61.54 | 87.56 | 1.25 | 19 |
| HE406/32-1 | 2013-07-22T12:04 | 55.3058 | 4.1148 | -40 | 42.6 | 43 | 7.1741 | 35.1190 | 34.6204 | 7.1701 | 27.0960 | 185.390 | 61.49 | 87.51 | 1.23 | 17 |
| HE406/32-1 | 2013-07-22T12:04 | 55.3058 | 4.1148 | -40 | 43.6 | 44 | 7.1741 | 35.1192 | 34.6201 | 7.1700 | 27.0958 | 185.498 | 61.53 | 87.27 | 1.65 | 1 |
| HE406/33-1 | 2013-07-22T12:41 | 55.3057 | 4.1265 | -40 | 2.0 | 2 | 17.1314 | 44.5041 | 34.5424 | 17.1311 | 25.1319 | 223.441 | 91.49 | 89.31 | 0.21 | 9 |
| HE406/33-1 | 2013-07-22T12:41 | 55.3057 | 4.1265 | -40 | 3.0 | 3 | 17.0044 | 44.3710 | 34.5352 | 17.0039 | 25.1566 | 223.314 | 91.21 | 89.24 | 0.20 | 21 |
| HE406/33-1 | 2013-07-22T12:41 | 55.3057 | 4.1265 | -40 | 4.0 | 4 | 16.9270 | 44.2917 | 34.5322 | 16.9263 | 25.1726 | 223.363 | 91.09 | 89.33 | 0.22 | 23 |
| HE406/33-1 | 2013-07-22T12:41 | 55.3057 | 4.1265 | -40 | 5.0 | 5 | 16.8820 | 44.2439 | 34.5287 | 16.8812 | 25.1806 | 223.297 | 90.98 | 89.36 | 0.25 | 24 |
| HE406/33-1 | 2013-07-22T12:41 | 55.3057 | 4.1265 | -40 | 5.9 | 6 | 16.7498 | 44.1037 | 34.5195 | 16.7488 | 25.2047 | 224.247 | 91.13 | 89.58 | 0.28 | 21 |
| HE406/33-1 | 2013-07-22T12:41 | 55.3057 | 4.1265 | -40 | 6.9 | 7 | 16.5663 | 43.9163 | 34.5129 | 16.5652 | 25.2426 | 223.986 | 90.69 | 90.02 | 0.26 | 28 |
| HE406/33-1 | 2013-07-22T12:41 | 55.3057 | 4.1265 | -40 | 7.9 | 8 | 16.4893 | 43.8411 | 34.5129 | 16.4880 | 25.2605 | 225.048 | 90.99 | 90.38 | 0.27 | 20 |
| HE406/33-1 | 2013-07-22T12:41 | 55.3057 | 4.1265 | -40 | 8.9 | 9 | 16.4636 | 43.8182 | 34.5145 | 16.4622 | 25.2678 | 225.570 | 91.15 | 90.21 | 0.29 | 19 |
| HE406/33-1 | 2013-07-22T12:41 | 55.3057 | 4.1265 | -40 | 9.9 | 10 | 16.4448 | 43.8017 | 34.5158 | 16.4432 | 25.2732 | 225.148 | 90.95 | 90.22 | 0.34 | 20 |
| HE406/33-1 | 2013-07-22T12:41 | 55.3057 | 4.1265 | -40 | 10.9 | 11 | 16.4287 | 43.7878 | 34.5171 | 16.4269 | 25.2780 | 224.541 | 90.67 | 90.20 | 0.37 | 20 |
| HE406/33-1 | 2013-07-22T12:41 | 55.3057 | 4.1265 | -40 | 11.9 | 12 | 16.4164 | 43.7775 | 34.5183 | 16.4145 | 25.2817 | 224.923 | 90.81 | 90.14 | 0.40 | 21 |
| HE406/33-1 | 2013-07-22T12:41 | 55.3057 | 4.1265 | -40 | 12.9 | 13 | 16.3857 | 43.7455 | 34.5162 | 16.3836 | 25.2873 | 225.020 | 90.79 | 89.93 | 0.51 | 24 |
| HE406/33-1 | 2013-07-22T12:41 | 55.3057 | 4.1265 | -40 | 13.9 | 14 | 16.1132 | 43.4624 | 34.5016 | 16.1110 | 25.3389 | 225.460 | 90.47 | 89.48 | 0.63 | 18 |
| HE406/33-1 | 2013-07-22T12:41 | 55.3057 | 4.1265 | -40 | 14.9 | 15 | 15.4246 | 42.7579 | 34.4723 | 15.4223 | 25.4719 | 227.044 | 89.86 | 88.45 | 0.83 | 21 |
| HE406/33-1 | 2013-07-22T12:41 | 55.3057 | 4.1265 | -40 | 15.9 | 16 | 15.0071 | 42.3570 | 34.4765 | 15.0047 | 25.5672 | 230.881 | 90.61 | 88.29 | 0.91 | 20 |
| HE406/33-1 | 2013-07-22T12:41 | 55.3057 | 4.1265 | -40 | 16.8 | 17 | 14.8863 | 42.2379 | 34.4743 | 14.8838 | 25.5920 | 234.541 | 91.83 | 88.65 | 0.84 | 15 |
| HE406/33-1 | 2013-07-22T12:41 | 55.3057 | 4.1265 | -40 | 17.8 | 18 | 14.5430 | 41.8935 | 34.4630 | 14.5404 | 25.6575 | 234.428 | 91.14 | 89.22 | 0.91 | 19 |
| HE406/33-1 | 2013-07-22T12:41 | 55.3057 | 4.1265 | -40 | 18.8 | 19 | 13.5851 | 40.9815 | 34.4732 | 13.5824 | 25.8666 | 233.678 | 89.09 | 89.03 | 1.23 | 18 |
| HE406/33-1 | 2013-07-22T12:41 | 55.3057 | 4.1265 | -40 | 19.8 | 20 | 12.9254 | 40.3775 | 34.4997 | 12.9227 | 26.0207 | 236.856 | 89.09 | 89.53 | 1.42 | 21 |
| HE406/33-1 | 2013-07-22T12:41 | 55.3057 | 4.1265 | -40 | 20.8 | 21 | 12.8358 | 40.3140 | 34.5206 | 12.8330 | 26.0547 | 242.679 | 91.12 | 89.37 | 1.61 | 19 |
| HE406/33-1 | 2013-07-22T12:41 | 55.3057 | 4.1265 | -40 | 21.8 | 22 | 12.7686 | 40.2595 | 34.5296 | 12.7656 | 26.0750 | 241.170 | 90.43 | 90.22 | 1.54 | 14 |
| HE406/33-1 | 2013-07-22T12:41 | 55.3057 | 4.1265 | -40 | 22.8 | 23 | 12.7111 | 40.2345 | 34.5578 | 12.7080 | 26.1083 | 240.192 | 89.97 | 90.18 | 1.28 | 19 |
| HE406/33-1 | 2013-07-22T12:41 | 55.3057 | 4.1265 | -40 | 23.8 | 24 | 12.4631 | 40.0063 | 34.5659 | 12.4599 | 26.1632 | 240.591 | 89.66 | 90.63 | 1.27 | 17 |
| HE406/33-1 | 2013-07-22T12:41 | 55.3057 | 4.1265 | -40 | 24.8 | 25 | 11.4614 | 38.9915 | 34.5044 | 11.4583 | 26.3058 | 244.194 | 89.05 | 90.50 | 1.45 | 16 |
| HE406/33-1 | 2013-07-22T12:41 | 55.3057 | 4.1265 | -40 | 25.8 | 26 | 10.2234 | 37.8241 | 34.5022 | 10.2204 | 26.5255 | 240.429 | 85.36 | 90.01 | 1.96 | 17 |
| HE406/33-1 | 2013-07-22T12:41 | 55.3057 | 4.1265 | -40 | 26.8 | 27 | 9.3277 | 36.9955 | 34.5096 | 9.3247 | 26.6816 | 233.746 | 81.36 | 89.71 | 2.67 | 16 |
| HE406/33-1 | 2013-07-22T12:41 | 55.3057 | 4.1265 | -40 | 27.7 | 28 | 8.9569 | 36.6580 | 34.5163 | 8.9539 | 26.7467 | 223.507 | 77.16 | 89.63 | 2.08 | 15 |
| HE406/33-1 | 2013-07-22T12:41 | 55.3057 | 4.1265 | -40 | 28.7 | 29 | 8.3848 | 36.1404 | 34.5282 | 8.3818 | 26.8455 | 214.585 | 73.13 | 89.55 | 1.75 | 17 |
| HE406/33-1 | 2013-07-22T12:41 | 55.3057 | 4.1265 | -40 | 29.7 | 30 | 7.9592 | 35.7766 | 34.5583 | 7.9562 | 26.9334 | 202.894 | 68.50 | 89.92 | 1.77 | 17 |
| HE406/33-1 | 2013-07-22T12:41 | 55.3057 | 4.1265 | -40 | 30.7 | 31 | 7.5254 | 35.3979 | 34.5793 | 7.5224 | 27.0135 | 185.443 | 61.99 | 89.39 | 1.67 | 17 |
| HE406/33-1 | 2013-07-22T12:41 | 55.3057 | 4.1265 | -40 | 31.7 | 32 | 7.4670 | 35.3524 | 34.5876 | 7.4639 | 27.0284 | 183.836 | 61.38 | 88.88 | 1.36 | 20 |
| HE406/33-1 | 2013-07-22T12:41 | 55.3057 | 4.1265 | -40 | 32.7 | 33 | 7.4386 | 35.3324 | 34.5937 | 7.4355 | 27.0374 | 182.225 | 60.80 | 88.62 | 2.37 | 18 |
| HE406/33-1 | 2013-07-22T12:41 | 55.3057 | 4.1265 | -40 | 33.7 | 34 | 7.4193 | 35.3187 | 34.5976 | 7.4161 | 27.0432 | 181.465 | 60.52 | 88.70 | 1.24 | 17 |
| HE406/33-1 | 2013-07-22T12:41 | 55.3057 | 4.1265 | -40 | 34.7 | 35 | 7.3950 | 35.3004 | 34.6013 | 7.3917 | 27.0496 | 181.261 | 60.42 | 88.45 | 0.89 | 18 |
| HE406/33-1 | 2013-07-22T12:41 | 55.3057 | 4.1265 | -40 | 35.7 | 36 | 7.3758 | 35.2849 | 34.6032 | 7.3724 | 27.0539 | 181.194 | 60.38 | 88.27 | 1.24 | 19 |
| HE406/33-1 | 2013-07-22T12:41 | 55.3057 | 4.1265 | -40 | 36.7 | 37 | 7.3321 | 35.2495 | 34.6078 | 7.3286 | 27.0637 | 181.312 | 60.36 | 88.01 | 1.06 | 16 |
| HE406/33-1 | 2013-07-22T12:41 | 55.3057 | 4.1265 | -40 | 37.7 | 38 | 7.3130 | 35.2337 | 34.6092 | 7.3094 | 27.0675 | 180.921 | 60.20 | 87.69 | 1.33 | 18 |
| HE406/33-1 | 2013-07-22T12:41 | 55.3057 | 4.1265 | -40 | 38.6 | 39 | 7.3093 | 35.2314 | 34.6098 | 7.3056 | 27.0686 | 181.288 | 60.32 | 87.38 | 1.12 | 18 |
| HE406/33-1 | 2013-07-22T12:41 | 55.3057 | 4.1265 | -40 | 39.6 | 40 | 7.2805 | 35.2071 | 34.6117 | 7.2767 | 27.0741 | 181.339 | 60.29 | 87.29 | 1.24 | 19 |
| HE406/33-1 | 2013-07-22T12:41 | 55.3057 | 4.1265 | -40 | 40.6 | 41 | 7.2667 | 35.1942 | 34.6109 | 7.2628 | 27.0755 | 180.926 | 60.14 | 87.15 | 1.23 | 16 |
| HE406/33-1 | 2013-07-22T12:41 | 55.3057 | 4.1265 | -40 | 41.6 | 42 | 7.2644 | 35.1926 | 34.6110 | 7.2605 | 27.0759 | 181.044 | 60.17 | 86.96 | 1.50 | 19 |
| HE406/33-1 | 2013-07-22T12:41 | 55.3057 | 4.1265 | -40 | 42.6 | 43 | 7.2614 | 35.1902 | 34.6108 | 7.2574 | 27.0761 | 180.887 | 60.12 | 86.94 | 1.46 | 19 |
| HE406/33-1 | 2013-07-22T12:41 | 55.3057 | 4.1265 | -40 | 43.6 | 44 | 7.2590 | 35.1864 | 34.6085 | 7.2549 | 27.0747 | 181.045 | 60.16 | 86.07 | 1.41 | 6 |
| HE406/34-1 | 2013-07-22T13:08 | 55.3060 | 4.1387 | -40 | 2.0 | 2 | 17.2769 | 44.6521 | 34.5462 | 17.2766 | 25.1000 | 223.240 | 91.67 | 89.08 | 0.17 | 17 |
| HE406/34-1 | 2013-07-22T13:08 | 55.3060 | 4.1387 | -40 | 3.0 | 3 | 17.0559 | 44.4398 | 34.5508 | 17.0554 | 25.1564 | 223.680 | 91.46 | 89.21 | 0.20 | 25 |
| HE406/34-1 | 2013-07-22T13:08 | 55.3060 | 4.1387 | -40 | 4.0 | 4 | 16.9855 | 44.3706 | 34.5507 | 16.9848 | 25.1730 | 223.020 | 91.06 | 89.11 | 0.20 | 22 |
| HE406/34-1 | 2013-07-22T13:08 | 55.3060 | 4.1387 | -40 | 5.0 | 5 | 16.9414 | 44.3278 | 34.5509 | 16.9406 | 25.1836 | 223.322 | 91.11 | 89.23 | 0.23 | 25 |
| HE406/34-1 | 2013-07-22T13:08 | 55.3060 | 4.1387 | -40 | 5.9 | 6 | 16.9052 | 44.2902 | 34.5488 | 16.9042 | 25.1906 | 223.605 | 91.16 | 89.13 | 0.23 | 19 |
| HE406/34-1 | 2013-07-22T13:08 | 55.3060 | 4.1387 | -40 | 6.9 | 7 | 16.8654 | 44.2471 | 34.5450 | 16.8643 | 25.1971 | 223.990 | 91.24 | 88.93 | 0.27 | 19 |
| HE406/34-1 | 2013-07-22T13:08 | 55.3060 | 4.1387 | -40 | 7.9 | 8 | 16.7087 | 44.0782 | 34.5317 | 16.7074 | 25.2238 | 224.459 | 91.15 | 89.29 | 0.30 | 25 |
| HE406/34-1 | 2013-07-22T13:08 | 55.3060 | 4.1387 | -40 | 8.9 | 9 | 16.5560 | 43.9220 | 34.5260 | 16.5546 | 25.2551 | 224.737 | 90.99 | 89.37 | 0.32 | 22 |
| HE406/34-1 | 2013-07-22T13:08 | 55.3060 | 4.1387 | -40 | 9.9 | 10 | 16.5098 | 43.8770 | 34.5260 | 16.5082 | 25.2659 | 225.556 | 91.23 | 89.67 | 0.34 | 14 |
| HE406/34-1 | 2013-07-22T13:08 | 55.3060 | 4.1387 | -40 | 10.9 | 11 | 16.4804 | 43.8487 | 34.5261 | 16.4786 | 25.2728 | 225.620 | 91.21 | 89.59 | 0.36 | 22 |
| HE406/34-1 | 2013-07-22T13:08 | 55.3060 | 4.1387 | -40 | 11.9 | 12 | 16.4568 | 43.8254 | 34.5256 | 16.4549 | 25.2780 | 225.652 | 91.18 | 89.51 | 0.40 | 21 |
| HE406/34-1 | 2013-07-22T13:08 | 55.3060 | 4.1387 | -40 | 12.9 | 13 | 16.4320 | 43.8001 | 34.5244 | 16.4299 | 25.2828 | 225.543 | 91.09 | 89.62 | 0.43 | 16 |
| HE406/34-1 | 2013-07-22T13:08 | 55.3060 | 4.1387 | -40 | 13.9 | 14 | 16.4123 | 43.7838 | 34.5266 | 16.4101 | 25.2892 | 225.387 | 90.99 | 90.14 | 0.46 | 19 |
| HE406/34-1 | 2013-07-22T13:08 | 55.3060 | 4.1387 | -40 | 14.9 | 15 | 15.9026 | 43.2393 | 34.4860 | 15.9003 | 25.3749 | 226.362 | 90.45 | 89.45 | 0.53 | 22 |
| HE406/34-1 | 2013-07-22T13:08 | 55.3060 | 4.1387 | -40 | 15.9 | 16 | 15.2087 | 42.5391 | 34.4640 | 15.2063 | 25.5133 | 227.791 | 89.76 | 88.68 | 0.83 | 17 |
| HE406/34-1 | 2013-07-22T13:08 | 55.3060 | 4.1387 | -40 | 16.8 | 17 | 14.9537 | 42.2970 | 34.4685 | 14.9512 | 25.5728 | 230.143 | 90.22 | 88.65 | 0.89 | 14 |
| HE406/34-1 | 2013-07-22T13:08 | 55.3060 | 4.1387 | -40 | 17.8 | 18 | 14.8635 | 42.2166 | 34.4746 | 14.8608 | 25.5972 | 231.498 | 90.59 | 88.68 | 0.82 | 19 |
| HE406/34-1 | 2013-07-22T13:08 | 55.3060 | 4.1387 | -40 | 18.8 | 19 | 14.7384 | 42.0950 | 34.4739 | 14.7356 | 25.6239 | 233.942 | 91.32 | 89.00 | 0.90 | 17 |
| HE406/34-1 | 2013-07-22T13:08 | 55.3060 | 4.1387 | -40 | 19.8 | 20 | 13.8610 | 41.2458 | 34.4718 | 13.8582 | 25.8085 | 236.445 | 90.66 | 89.29 | 1.04 | 16 |
| HE406/34-1 | 2013-07-22T13:08 | 55.3060 | 4.1387 | -40 | 20.8 | 21 | 13.0625 | 40.5211 | 34.5112 | 13.0596 | 26.0022 | 235.477 | 88.83 | 89.44 | 1.22 | 16 |
| HE406/34-1 | 2013-07-22T13:08 | 55.3060 | 4.1387 | -40 | 21.8 | 22 | 12.8405 | 40.3084 | 34.5105 | 12.8375 | 26.0460 | 236.222 | 88.70 | 89.11 | 1.25 | 17 |
| HE406/34-1 | 2013-07-22T13:08 | 55.3060 | 4.1387 | -40 | 22.8 | 23 | 12.7787 | 40.2634 | 34.5236 | 12.7756 | 26.0685 | 244.695 | 91.77 | 89.38 | 1.30 | 17 |
| HE406/34-1 | 2013-07-22T13:08 | 55.3060 | 4.1387 | -40 | 23.8 | 24 | 12.6566 | 40.1506 | 34.5269 | 12.6534 | 26.0951 | 243.255 | 91.00 | 89.78 | 1.45 | 14 |
| HE406/34-1 | 2013-07-22T13:08 | 55.3060 | 4.1387 | -40 | 24.8 | 25 | 12.1442 | 39.6467 | 34.5117 | 12.1410 | 26.1829 | 244.246 | 90.38 | 89.62 | 1.77 | 14 |
| HE406/34-1 | 2013-07-22T13:08 | 55.3060 | 4.1387 | -40 | 25.8 | 26 | 11.2171 | 38.7640 | 34.5074 | 11.2139 | 26.3530 | 245.778 | 89.16 | 89.84 | 2.36 | 14 |
| HE406/34-1 | 2013-07-22T13:08 | 55.3060 | 4.1387 | -40 | 26.8 | 27 | 10.2216 | 37.8235 | 34.5029 | 10.2185 | 26.5263 | 238.910 | 84.81 | 89.26 | 3.37 | 13 |
| HE406/34-1 | 2013-07-22T13:08 | 55.3060 | 4.1387 | -40 | 27.7 | 28 | 9.2301 | 36.9009 | 34.5050 | 9.2271 | 26.6940 | 231.684 | 80.47 | 89.04 | 2.56 | 18 |
| HE406/34-1 | 2013-07-22T13:08 | 55.3060 | 4.1387 | -40 | 28.7 | 29 | 8.5416 | 36.2731 | 34.5153 | 8.5386 | 26.8112 | 225.178 | 77.01 | 88.92 | 2.28 | 15 |
| HE406/34-1 | 2013-07-22T13:08 | 55.3060 | 4.1387 | -40 | 29.7 | 30 | 7.5533 | 35.4010 | 34.5554 | 7.5504 | 26.9907 | 214.625 | 71.79 | 89.17 | 2.07 | 15 |
| HE406/34-1 | 2013-07-22T13:08 | 55.3060 | 4.1387 | -40 | 30.7 | 31 | 7.2889 | 35.1871 | 34.5859 | 7.2860 | 27.0525 | 197.217 | 65.57 | 89.22 | 1.78 | 16 |
| HE406/34-1 | 2013-07-22T13:08 | 55.3060 | 4.1387 | -40 | 31.7 | 32 | 7.1841 | 35.1036 | 34.5990 | 7.1811 | 27.0776 | 188.315 | 62.47 | 88.57 | 1.64 | 21 |
| HE406/34-1 | 2013-07-22T13:08 | 55.3060 | 4.1387 | -40 | 32.7 | 33 | 7.1135 | 35.0499 | 34.6105 | 7.1104 | 27.0965 | 187.822 | 62.21 | 88.11 | 1.26 | 17 |
| HE406/34-1 | 2013-07-22T13:08 | 55.3060 | 4.1387 | -40 | 33.7 | 34 | 7.0922 | 35.0359 | 34.6160 | 7.0890 | 27.1039 | 188.774 | 62.49 | 88.07 | 1.06 | 13 |
| HE406/34-1 | 2013-07-22T13:08 | 55.3060 | 4.1387 | -40 | 34.7 | 35 | 7.0832 | 35.0323 | 34.6206 | 7.0800 | 27.1088 | 189.398 | 62.69 | 87.89 | 1.14 | 21 |
| HE406/34-1 | 2013-07-22T13:08 | 55.3060 | 4.1387 | -40 | 35.7 | 36 | 7.0781 | 35.0321 | 34.6249 | 7.0748 | 27.1129 | 190.414 | 63.02 | 87.47 | 1.42 | 15 |
| HE406/34-1 | 2013-07-22T13:08 | 55.3060 | 4.1387 | -40 | 36.7 | 37 | 7.0877 | 35.0423 | 34.6260 | 7.0843 | 27.1125 | 190.452 | 63.05 | 87.46 | 1.31 | 17 |
| HE406/34-1 | 2013-07-22T13:08 | 55.3060 | 4.1387 | -40 | 37.7 | 38 | 7.0861 | 35.0419 | 34.6266 | 7.0826 | 27.1132 | 190.089 | 62.93 | 87.44 | 1.34 | 16 |
| HE406/34-1 | 2013-07-22T13:08 | 55.3060 | 4.1387 | -40 | 38.6 | 39 | 7.0745 | 35.0341 | 34.6292 | 7.0709 | 27.1169 | 189.843 | 62.83 | 87.63 | 1.45 | 14 |
| HE406/34-1 | 2013-07-22T13:08 | 55.3060 | 4.1387 | -40 | 39.6 | 40 | 7.0662 | 35.0282 | 34.6306 | 7.0625 | 27.1191 | 189.885 | 62.83 | 87.62 | 1.13 | 16 |
| HE406/34-1 | 2013-07-22T13:08 | 55.3060 | 4.1387 | -40 | 40.6 | 41 | 7.0645 | 35.0277 | 34.6313 | 7.0607 | 27.1199 | 189.583 | 62.73 | 87.35 | 1.45 | 14 |
| HE406/34-1 | 2013-07-22T13:08 | 55.3060 | 4.1387 | -40 | 41.6 | 42 | 7.0603 | 35.0232 | 34.6301 | 7.0564 | 27.1195 | 189.037 | 62.54 | 85.45 | 1.07 | 17 |
| HE406/34-1 | 2013-07-22T13:08 | 55.3060 | 4.1387 | -40 | 42.6 | 43 | 7.0586 | 35.0208 | 34.6286 | 7.0546 | 27.1187 | 188.669 | 62.42 | 87.00 | 1.40 | 19 |
| HE406/34-1 | 2013-07-22T13:08 | 55.3060 | 4.1387 | -40 | 43.6 | 44 | 7.0587 | 35.0204 | 34.6276 | 7.0546 | 27.1179 | 188.641 | 62.41 | 86.98 | 1.21 | 10 |
| HE406/39-1 | 2013-07-23T12:58 | 55.3063 | 4.1387 | -40 | 3.0 | 3 | 17.4154 | 44.7861 | 34.5434 | 17.4149 | 25.0647 | 220.873 | 90.94 | 90.84 | 0.01 | 17 |
| HE406/39-1 | 2013-07-23T12:58 | 55.3063 | 4.1387 | -40 | 4.0 | 4 | 17.3624 | 44.7355 | 34.5445 | 17.3617 | 25.0783 | 221.404 | 91.06 | 90.87 | 0.04 | 29 |
| HE406/39-1 | 2013-07-23T12:58 | 55.3063 | 4.1387 | -40 | 5.0 | 5 | 17.2695 | 44.6435 | 34.5439 | 17.2687 | 25.1002 | 221.857 | 91.09 | 90.80 | 0.06 | 25 |
| HE406/39-1 | 2013-07-23T12:58 | 55.3063 | 4.1387 | -40 | 5.9 | 6 | 17.0919 | 44.4723 | 34.5471 | 17.0909 | 25.1451 | 222.002 | 90.83 | 90.86 | 0.09 | 26 |
| HE406/39-1 | 2013-07-23T12:58 | 55.3063 | 4.1387 | -40 | 6.9 | 7 | 16.8853 | 44.2578 | 34.5373 | 16.8842 | 25.1865 | 223.229 | 90.97 | 90.58 | 0.13 | 26 |
| HE406/39-1 | 2013-07-23T12:58 | 55.3063 | 4.1387 | -40 | 7.9 | 8 | 16.6842 | 44.0600 | 34.5369 | 16.6829 | 25.2335 | 224.541 | 91.14 | 90.37 | 0.11 | 18 |
| HE406/39-1 | 2013-07-23T12:58 | 55.3063 | 4.1387 | -40 | 8.9 | 9 | 16.6298 | 44.0112 | 34.5406 | 16.6283 | 25.2492 | 225.347 | 91.37 | 90.33 | 0.12 | 24 |
| HE406/39-1 | 2013-07-23T12:58 | 55.3063 | 4.1387 | -40 | 9.9 | 10 | 16.6085 | 43.9918 | 34.5416 | 16.6069 | 25.2549 | 226.646 | 91.86 | 90.29 | 0.14 | 17 |
| HE406/39-1 | 2013-07-23T12:58 | 55.3063 | 4.1387 | -40 | 10.9 | 11 | 16.5582 | 43.9399 | 34.5391 | 16.5564 | 25.2647 | 227.303 | 92.04 | 90.25 | 0.18 | 20 |
| HE406/39-1 | 2013-07-23T12:58 | 55.3063 | 4.1387 | -40 | 11.9 | 12 | 16.4690 | 43.8471 | 34.5342 | 16.4671 | 25.2818 | 227.857 | 92.10 | 90.23 | 0.20 | 20 |
| HE406/39-1 | 2013-07-23T12:58 | 55.3063 | 4.1387 | -40 | 12.9 | 13 | 16.2050 | 43.5526 | 34.5023 | 16.2029 | 25.3183 | 228.043 | 91.68 | 90.10 | 0.23 | 17 |
| HE406/39-1 | 2013-07-23T12:58 | 55.3063 | 4.1387 | -40 | 13.9 | 14 | 15.4803 | 42.8045 | 34.4659 | 15.4782 | 25.4544 | 230.207 | 91.20 | 90.00 | 0.29 | 19 |
| HE406/39-1 | 2013-07-23T12:58 | 55.3063 | 4.1387 | -40 | 14.9 | 15 | 15.1801 | 42.5015 | 34.4555 | 15.1778 | 25.5131 | 228.756 | 90.08 | 89.54 | 0.37 | 23 |
| HE406/39-1 | 2013-07-23T12:58 | 55.3063 | 4.1387 | -40 | 15.9 | 16 | 15.0557 | 42.3911 | 34.4645 | 15.0533 | 25.5474 | 233.884 | 91.88 | 88.68 | 0.55 | 16 |
| HE406/39-1 | 2013-07-23T12:58 | 55.3063 | 4.1387 | -40 | 16.8 | 17 | 14.9531 | 42.2978 | 34.4698 | 14.9506 | 25.5740 | 235.908 | 92.48 | 88.67 | 0.60 | 19 |
| HE406/39-1 | 2013-07-23T12:58 | 55.3063 | 4.1387 | -40 | 17.8 | 18 | 14.7282 | 42.0852 | 34.4744 | 14.7255 | 25.6264 | 236.443 | 92.28 | 88.99 | 0.65 | 17 |
| HE406/39-1 | 2013-07-23T12:58 | 55.3063 | 4.1387 | -40 | 18.8 | 19 | 14.3761 | 41.7439 | 34.4734 | 14.3733 | 25.7012 | 236.138 | 91.50 | 88.55 | 0.77 | 19 |
| HE406/39-1 | 2013-07-23T12:58 | 55.3063 | 4.1387 | -40 | 19.8 | 20 | 13.8111 | 41.2064 | 34.4799 | 13.8083 | 25.8251 | 236.987 | 90.78 | 88.70 | 0.91 | 19 |
| HE406/39-1 | 2013-07-23T12:58 | 55.3063 | 4.1387 | -40 | 20.8 | 21 | 13.1283 | 40.5513 | 34.4799 | 13.1254 | 25.9648 | 238.210 | 89.97 | 88.78 | 1.03 | 14 |
| HE406/39-1 | 2013-07-23T12:58 | 55.3063 | 4.1387 | -40 | 21.8 | 22 | 12.8894 | 40.3529 | 34.5083 | 12.8864 | 26.0346 | 240.750 | 90.49 | 88.90 | 1.00 | 16 |
| HE406/39-1 | 2013-07-23T12:58 | 55.3063 | 4.1387 | -40 | 22.8 | 23 | 12.6979 | 40.1796 | 34.5173 | 12.6948 | 26.0795 | 244.639 | 91.59 | 89.07 | 0.91 | 16 |
| HE406/39-1 | 2013-07-23T12:58 | 55.3063 | 4.1387 | -40 | 23.8 | 24 | 12.2624 | 39.7657 | 34.5183 | 12.2593 | 26.1653 | 245.247 | 90.98 | 89.16 | 1.25 | 16 |
| HE406/39-1 | 2013-07-23T12:58 | 55.3063 | 4.1387 | -40 | 24.8 | 25 | 11.9672 | 39.4960 | 34.5288 | 11.9640 | 26.2300 | 243.164 | 89.65 | 88.91 | 1.80 | 16 |
| HE406/39-1 | 2013-07-23T12:58 | 55.3063 | 4.1387 | -40 | 25.8 | 26 | 11.3620 | 38.9083 | 34.5147 | 11.3588 | 26.3322 | 245.014 | 89.17 | 89.03 | 2.01 | 15 |
| HE406/39-1 | 2013-07-23T12:58 | 55.3063 | 4.1387 | -40 | 26.8 | 27 | 10.1615 | 37.7560 | 34.4915 | 10.1584 | 26.5277 | 246.644 | 87.44 | 88.62 | 3.37 | 17 |
| HE406/39-1 | 2013-07-23T12:58 | 55.3063 | 4.1387 | -40 | 27.7 | 28 | 9.3844 | 37.0466 | 34.5073 | 9.3813 | 26.6706 | 240.720 | 83.89 | 87.61 | 4.23 | 17 |
| HE406/39-1 | 2013-07-23T12:58 | 55.3063 | 4.1387 | -40 | 28.7 | 29 | 8.6893 | 36.4097 | 34.5154 | 8.6863 | 26.7883 | 234.075 | 80.32 | 87.25 | 3.51 | 15 |
| HE406/39-1 | 2013-07-23T12:58 | 55.3063 | 4.1387 | -40 | 29.7 | 30 | 8.0213 | 35.8123 | 34.5352 | 8.0183 | 26.9061 | 215.604 | 72.88 | 87.41 | 3.08 | 18 |
| HE406/39-1 | 2013-07-23T12:58 | 55.3063 | 4.1387 | -40 | 30.7 | 31 | 7.5464 | 35.4055 | 34.5666 | 7.5434 | 27.0005 | 200.268 | 66.98 | 87.82 | 2.86 | 17 |
| HE406/39-1 | 2013-07-23T12:58 | 55.3063 | 4.1387 | -40 | 31.7 | 32 | 7.3787 | 35.2687 | 34.5846 | 7.3757 | 27.0387 | 191.143 | 63.69 | 87.98 | 2.14 | 17 |
| HE406/39-1 | 2013-07-23T12:58 | 55.3063 | 4.1387 | -40 | 32.7 | 33 | 7.3516 | 35.2480 | 34.5886 | 7.3485 | 27.0458 | 183.913 | 61.24 | 87.58 | 1.87 | 17 |
| HE406/39-1 | 2013-07-23T12:58 | 55.3063 | 4.1387 | -40 | 33.7 | 34 | 7.3399 | 35.2432 | 34.5947 | 7.3367 | 27.0522 | 181.908 | 60.56 | 86.76 | 1.84 | 19 |
| HE406/39-1 | 2013-07-23T12:58 | 55.3063 | 4.1387 | -40 | 34.7 | 35 | 7.3298 | 35.2394 | 34.6001 | 7.3265 | 27.0579 | 182.183 | 60.64 | 86.20 | 1.56 | 16 |
| HE406/39-1 | 2013-07-23T12:58 | 55.3063 | 4.1387 | -40 | 35.7 | 36 | 7.3298 | 35.2423 | 34.6027 | 7.3264 | 27.0600 | 182.255 | 60.66 | 85.89 | 1.07 | 15 |
| HE406/39-1 | 2013-07-23T12:58 | 55.3063 | 4.1387 | -40 | 36.7 | 37 | 7.3276 | 35.2427 | 34.6048 | 7.3241 | 27.0620 | 182.139 | 60.62 | 86.04 | 0.92 | 17 |
| HE406/39-1 | 2013-07-23T12:58 | 55.3063 | 4.1387 | -40 | 37.7 | 38 | 7.3229 | 35.2411 | 34.6074 | 7.3193 | 27.0647 | 181.999 | 60.57 | 85.64 | 1.14 | 16 |
| HE406/39-1 | 2013-07-23T12:58 | 55.3063 | 4.1387 | -40 | 38.6 | 39 | 7.3192 | 35.2398 | 34.6091 | 7.3155 | 27.0666 | 181.902 | 60.53 | 85.47 | 0.98 | 16 |
| HE406/39-1 | 2013-07-23T12:58 | 55.3063 | 4.1387 | -40 | 39.6 | 40 | 7.3176 | 35.2398 | 34.6102 | 7.3138 | 27.0677 | 181.592 | 60.43 | 85.54 | 1.20 | 15 |
| HE406/39-1 | 2013-07-23T12:58 | 55.3063 | 4.1387 | -40 | 40.6 | 41 | 7.3186 | 35.2413 | 34.6103 | 7.3147 | 27.0677 | 181.119 | 60.27 | 85.26 | 1.31 | 15 |
| HE406/39-1 | 2013-07-23T12:58 | 55.3063 | 4.1387 | -40 | 41.6 | 42 | 7.3177 | 35.2416 | 34.6111 | 7.3137 | 27.0685 | 180.932 | 60.21 | 84.90 | 1.61 | 19 |
| HE406/39-1 | 2013-07-23T12:58 | 55.3063 | 4.1387 | -40 | 42.6 | 43 | 7.3162 | 35.2393 | 34.6096 | 7.3121 | 27.0675 | 180.117 | 59.94 | 85.03 | 3.04 | 21 |
| HE406/39-1 | 2013-07-23T12:58 | 55.3063 | 4.1387 | -40 | 43.6 | 44 | 7.3139 | 35.2368 | 34.6086 | 7.3097 | 27.0670 | 179.706 | 59.80 | 84.94 | 0.79 | 8 |
| HE406/39-2 | 2013-07-23T13:56 | 55.3058 | 4.0420 | -39 | 2.0 | 2 | 17.5549 | 44.9279 | 34.5471 | 17.5546 | 25.0338 | 220.348 | 90.97 | 90.44 | 0.04 | 8 |
| HE406/39-2 | 2013-07-23T13:56 | 55.3058 | 4.0420 | -39 | 3.0 | 3 | 17.5158 | 44.8908 | 34.5480 | 17.5153 | 25.0440 | 220.187 | 90.83 | 90.41 | 0.06 | 21 |
| HE406/39-2 | 2013-07-23T13:56 | 55.3058 | 4.0420 | -39 | 4.0 | 4 | 17.4523 | 44.8289 | 34.5485 | 17.4516 | 25.0598 | 220.834 | 90.99 | 90.40 | 0.06 | 24 |
| HE406/39-2 | 2013-07-23T13:56 | 55.3058 | 4.0420 | -39 | 5.0 | 5 | 17.3187 | 44.6951 | 34.5465 | 17.3179 | 25.0904 | 221.714 | 91.12 | 90.24 | 0.08 | 28 |
| HE406/39-2 | 2013-07-23T13:56 | 55.3058 | 4.0420 | -39 | 5.9 | 6 | 17.1788 | 44.5618 | 34.5504 | 17.1778 | 25.1268 | 222.397 | 91.15 | 90.20 | 0.08 | 18 |
| HE406/39-2 | 2013-07-23T13:56 | 55.3058 | 4.0420 | -39 | 6.9 | 7 | 17.0370 | 44.4233 | 34.5512 | 17.0359 | 25.1613 | 223.647 | 91.41 | 89.87 | 0.13 | 29 |
| HE406/39-2 | 2013-07-23T13:56 | 55.3058 | 4.0420 | -39 | 7.9 | 8 | 16.9926 | 44.3816 | 34.5526 | 16.9913 | 25.1729 | 224.517 | 91.69 | 89.82 | 0.17 | 23 |
| HE406/39-2 | 2013-07-23T13:56 | 55.3058 | 4.0420 | -39 | 8.9 | 9 | 16.8288 | 44.2188 | 34.5510 | 16.8273 | 25.2104 | 226.608 | 92.25 | 89.67 | 0.18 | 19 |
| HE406/39-2 | 2013-07-23T13:56 | 55.3058 | 4.0420 | -39 | 9.9 | 10 | 16.6293 | 44.0293 | 34.5566 | 16.6277 | 25.2616 | 228.363 | 92.60 | 89.34 | 0.21 | 26 |
| HE406/39-2 | 2013-07-23T13:56 | 55.3058 | 4.0420 | -39 | 10.9 | 11 | 16.5937 | 43.9908 | 34.5532 | 16.5919 | 25.2673 | 229.155 | 92.86 | 89.32 | 0.25 | 21 |
| HE406/39-2 | 2013-07-23T13:56 | 55.3058 | 4.0420 | -39 | 11.9 | 12 | 16.5546 | 43.9530 | 34.5534 | 16.5527 | 25.2766 | 230.994 | 93.53 | 88.76 | 0.36 | 22 |
| HE406/39-2 | 2013-07-23T13:56 | 55.3058 | 4.0420 | -39 | 12.9 | 13 | 16.5121 | 43.9077 | 34.5498 | 16.5100 | 25.2838 | 231.975 | 93.85 | 88.52 | 0.41 | 24 |
| HE406/39-2 | 2013-07-23T13:56 | 55.3058 | 4.0420 | -39 | 13.9 | 14 | 16.4503 | 43.8459 | 34.5485 | 16.4481 | 25.2972 | 232.248 | 93.85 | 87.83 | 0.51 | 24 |
| HE406/39-2 | 2013-07-23T13:56 | 55.3058 | 4.0420 | -39 | 14.9 | 15 | 15.6189 | 42.9985 | 34.5184 | 15.6166 | 25.4639 | 235.256 | 93.49 | 85.45 | 0.69 | 18 |
| HE406/39-2 | 2013-07-23T13:56 | 55.3058 | 4.0420 | -39 | 15.9 | 16 | 15.1406 | 42.5439 | 34.5283 | 15.1382 | 25.5779 | 233.528 | 91.93 | 87.10 | 0.86 | 20 |
| HE406/39-2 | 2013-07-23T13:56 | 55.3058 | 4.0420 | -39 | 16.8 | 17 | 15.0432 | 42.4599 | 34.5378 | 15.0406 | 25.6066 | 239.973 | 94.29 | 89.28 | 0.79 | 20 |
| HE406/39-2 | 2013-07-23T13:56 | 55.3058 | 4.0420 | -39 | 17.8 | 18 | 15.0048 | 42.4560 | 34.5678 | 15.0021 | 25.6382 | 239.337 | 93.98 | 89.24 | 0.83 | 18 |
| HE406/39-2 | 2013-07-23T13:56 | 55.3058 | 4.0420 | -39 | 18.8 | 19 | 14.6716 | 42.1111 | 34.5480 | 14.6688 | 25.6955 | 238.918 | 93.18 | 88.84 | 0.97 | 20 |
| HE406/39-2 | 2013-07-23T13:56 | 55.3058 | 4.0420 | -39 | 19.8 | 20 | 13.6196 | 41.0609 | 34.5163 | 13.6168 | 25.8929 | 241.556 | 92.18 | 88.22 | 1.14 | 19 |
| HE406/39-2 | 2013-07-23T13:56 | 55.3058 | 4.0420 | -39 | 20.8 | 21 | 12.9396 | 40.4160 | 34.5232 | 12.9368 | 26.0361 | 242.742 | 91.34 | 88.49 | 1.44 | 16 |
| HE406/39-2 | 2013-07-23T13:56 | 55.3058 | 4.0420 | -39 | 21.8 | 22 | 12.8553 | 40.3699 | 34.5557 | 12.8523 | 26.0781 | 248.884 | 93.51 | 88.99 | 1.49 | 17 |
| HE406/39-2 | 2013-07-23T13:56 | 55.3058 | 4.0420 | -39 | 22.8 | 23 | 12.8346 | 40.3741 | 34.5783 | 12.8315 | 26.0998 | 247.744 | 93.05 | 89.13 | 1.80 | 18 |
| HE406/39-2 | 2013-07-23T13:56 | 55.3058 | 4.0420 | -39 | 23.8 | 24 | 12.7711 | 40.3205 | 34.5848 | 12.7679 | 26.1174 | 252.114 | 94.57 | 89.13 | 2.04 | 16 |
| HE406/39-2 | 2013-07-23T13:56 | 55.3058 | 4.0420 | -39 | 24.8 | 25 | 12.7142 | 40.2680 | 34.5863 | 12.7108 | 26.1298 | 251.802 | 94.34 | 89.22 | 1.88 | 15 |
| HE406/39-2 | 2013-07-23T13:56 | 55.3058 | 4.0420 | -39 | 25.8 | 26 | 12.3802 | 39.9284 | 34.5662 | 12.3768 | 26.1797 | 249.807 | 92.93 | 88.98 | 2.15 | 17 |
| HE406/39-2 | 2013-07-23T13:56 | 55.3058 | 4.0420 | -39 | 26.8 | 27 | 10.6763 | 38.2140 | 34.4664 | 10.6731 | 26.4184 | 253.128 | 90.74 | 88.17 | 3.15 | 16 |
| HE406/39-2 | 2013-07-23T13:56 | 55.3058 | 4.0420 | -39 | 27.7 | 28 | 8.7931 | 36.5057 | 34.5158 | 8.7901 | 26.7723 | 244.936 | 84.25 | 87.32 | 5.13 | 18 |
| HE406/39-2 | 2013-07-23T13:56 | 55.3058 | 4.0420 | -39 | 28.7 | 29 | 7.3593 | 35.2442 | 34.5787 | 7.3566 | 27.0369 | 236.322 | 78.70 | 86.55 | 5.27 | 16 |
| HE406/39-2 | 2013-07-23T13:56 | 55.3058 | 4.0420 | -39 | 29.7 | 30 | 7.2758 | 35.1897 | 34.6023 | 7.2730 | 27.0673 | 213.609 | 71.01 | 87.46 | 2.31 | 17 |
| HE406/39-2 | 2013-07-23T13:56 | 55.3058 | 4.0420 | -39 | 30.7 | 31 | 7.2176 | 35.1478 | 34.6143 | 7.2147 | 27.0849 | 194.133 | 64.45 | 88.34 | 1.82 | 19 |
| HE406/39-2 | 2013-07-23T13:56 | 55.3058 | 4.0420 | -39 | 31.7 | 32 | 7.2027 | 35.1419 | 34.6223 | 7.1997 | 27.0933 | 190.060 | 63.08 | 88.82 | 1.40 | 20 |
| HE406/39-2 | 2013-07-23T13:56 | 55.3058 | 4.0420 | -39 | 32.7 | 33 | 7.2024 | 35.1480 | 34.6288 | 7.1993 | 27.0985 | 190.085 | 63.09 | 88.84 | 1.62 | 14 |
| HE406/39-2 | 2013-07-23T13:56 | 55.3058 | 4.0420 | -39 | 33.7 | 34 | 7.2020 | 35.1518 | 34.6328 | 7.1988 | 27.1018 | 190.078 | 63.09 | 88.87 | 1.42 | 20 |
| HE406/39-2 | 2013-07-23T13:56 | 55.3058 | 4.0420 | -39 | 34.7 | 35 | 7.2007 | 35.1537 | 34.6357 | 7.1974 | 27.1043 | 189.954 | 63.05 | 88.87 | 1.40 | 16 |
| HE406/39-2 | 2013-07-23T13:56 | 55.3058 | 4.0420 | -39 | 35.7 | 36 | 7.2025 | 35.1579 | 34.6380 | 7.1991 | 27.1058 | 189.917 | 63.04 | 88.95 | 1.34 | 20 |
| HE406/39-2 | 2013-07-23T13:56 | 55.3058 | 4.0420 | -39 | 36.7 | 37 | 7.2023 | 35.1594 | 34.6394 | 7.1988 | 27.1069 | 189.481 | 62.90 | 88.93 | 1.15 | 18 |
| HE406/39-2 | 2013-07-23T13:56 | 55.3058 | 4.0420 | -39 | 37.7 | 38 | 7.2010 | 35.1592 | 34.6399 | 7.1974 | 27.1075 | 189.178 | 62.80 | 88.95 | 1.06 | 18 |
| HE406/39-2 | 2013-07-23T13:56 | 55.3058 | 4.0420 | -39 | 38.6 | 39 | 7.1975 | 35.1571 | 34.6407 | 7.1939 | 27.1087 | 188.819 | 62.67 | 89.05 | 1.83 | 18 |
| HE406/39-2 | 2013-07-23T13:56 | 55.3058 | 4.0420 | -39 | 39.6 | 40 | 7.1980 | 35.1560 | 34.6384 | 7.1943 | 27.1068 | 188.269 | 62.49 | 88.85 | 1.35 | 17 |
| HE406/39-2 | 2013-07-23T13:56 | 55.3058 | 4.0420 | -39 | 40.6 | 41 | 7.1984 | 35.1552 | 34.6367 | 7.1946 | 27.1054 | 187.989 | 62.40 | 88.86 | 1.47 | 18 |
| HE406/39-2 | 2013-07-23T13:56 | 55.3058 | 4.0420 | -39 | 41.6 | 42 | 7.1971 | 35.1538 | 34.6360 | 7.1932 | 27.1051 | 187.963 | 62.39 | 88.81 | 1.33 | 20 |
| HE406/39-2 | 2013-07-23T13:56 | 55.3058 | 4.0420 | -39 | 42.6 | 43 | 7.1974 | 35.1539 | 34.6353 | 7.1934 | 27.1045 | 187.565 | 62.25 | 88.89 | 3.17 | 5 |
| HE406/39-3 | 2013-07-23T14:28 | 55.3058 | 4.0548 | -39 | 2.0 | 2 | 17.5695 | 44.9248 | 34.5320 | 17.5692 | 25.0187 | 219.768 | 90.75 | 91.03 | 0.04 | 6 |
| HE406/39-3 | 2013-07-23T14:28 | 55.3058 | 4.0548 | -39 | 3.0 | 3 | 17.5737 | 44.9286 | 34.5313 | 17.5732 | 25.0172 | 219.270 | 90.55 | 91.16 | 0.06 | 25 |
| HE406/39-3 | 2013-07-23T14:28 | 55.3058 | 4.0548 | -39 | 4.0 | 4 | 17.5739 | 44.9294 | 34.5315 | 17.5732 | 25.0173 | 219.534 | 90.66 | 91.41 | 0.06 | 23 |
| HE406/39-3 | 2013-07-23T14:28 | 55.3058 | 4.0548 | -39 | 5.0 | 5 | 17.5409 | 44.8964 | 34.5307 | 17.5401 | 25.0248 | 219.477 | 90.58 | 91.23 | 0.08 | 26 |
| HE406/39-3 | 2013-07-23T14:28 | 55.3058 | 4.0548 | -39 | 5.9 | 6 | 17.4685 | 44.8237 | 34.5294 | 17.4675 | 25.0413 | 219.551 | 90.48 | 91.22 | 0.11 | 22 |
| HE406/39-3 | 2013-07-23T14:28 | 55.3058 | 4.0548 | -39 | 6.9 | 7 | 17.3227 | 44.6815 | 34.5306 | 17.3215 | 25.0773 | 220.305 | 90.54 | 91.22 | 0.13 | 22 |
| HE406/39-3 | 2013-07-23T14:28 | 55.3058 | 4.0548 | -39 | 7.9 | 8 | 17.1850 | 44.5475 | 34.5319 | 17.1837 | 25.1113 | 220.980 | 90.57 | 90.99 | 0.15 | 23 |
| HE406/39-3 | 2013-07-23T14:28 | 55.3058 | 4.0548 | -39 | 8.9 | 9 | 16.9192 | 44.2885 | 34.5341 | 16.9177 | 25.1761 | 222.685 | 90.80 | 90.51 | 0.18 | 23 |
| HE406/39-3 | 2013-07-23T14:28 | 55.3058 | 4.0548 | -39 | 9.9 | 10 | 16.6438 | 44.0324 | 34.5468 | 16.6422 | 25.2507 | 223.954 | 90.84 | 90.53 | 0.21 | 24 |
| HE406/39-3 | 2013-07-23T14:28 | 55.3058 | 4.0548 | -39 | 10.9 | 11 | 16.5874 | 43.9774 | 34.5468 | 16.5856 | 25.2639 | 227.550 | 92.19 | 90.38 | 0.25 | 18 |
| HE406/39-3 | 2013-07-23T14:28 | 55.3058 | 4.0548 | -39 | 11.9 | 12 | 16.5414 | 43.9336 | 34.5477 | 16.5395 | 25.2753 | 231.169 | 93.58 | 89.93 | 0.34 | 20 |
| HE406/39-3 | 2013-07-23T14:28 | 55.3058 | 4.0548 | -39 | 12.9 | 13 | 16.4874 | 43.8771 | 34.5443 | 16.4853 | 25.2853 | 232.048 | 93.83 | 89.49 | 0.42 | 16 |
| HE406/39-3 | 2013-07-23T14:28 | 55.3058 | 4.0548 | -39 | 13.9 | 14 | 16.3567 | 43.7272 | 34.5248 | 16.3545 | 25.3007 | 232.124 | 93.61 | 89.19 | 0.46 | 16 |
| HE406/39-3 | 2013-07-23T14:28 | 55.3058 | 4.0548 | -39 | 14.9 | 15 | 15.3599 | 42.7285 | 34.5027 | 15.3576 | 25.5096 | 234.161 | 92.57 | 88.14 | 0.78 | 21 |
| HE406/39-3 | 2013-07-23T14:28 | 55.3058 | 4.0548 | -39 | 15.9 | 16 | 15.0091 | 42.3827 | 34.4980 | 15.0067 | 25.5835 | 233.689 | 91.73 | 86.59 | 0.82 | 17 |
| HE406/39-3 | 2013-07-23T14:28 | 55.3058 | 4.0548 | -39 | 16.8 | 17 | 14.9412 | 42.3233 | 34.5036 | 14.9387 | 25.6026 | 238.600 | 93.53 | 87.26 | 0.79 | 17 |
| HE406/39-3 | 2013-07-23T14:28 | 55.3058 | 4.0548 | -39 | 17.8 | 18 | 14.7649 | 42.1541 | 34.5049 | 14.7622 | 25.6420 | 238.562 | 93.19 | 88.14 | 0.83 | 21 |
| HE406/39-3 | 2013-07-23T14:28 | 55.3058 | 4.0548 | -39 | 18.8 | 19 | 14.1343 | 41.5564 | 34.5161 | 14.1316 | 25.7854 | 238.371 | 91.93 | 88.67 | 1.03 | 18 |
| HE406/39-3 | 2013-07-23T14:28 | 55.3058 | 4.0548 | -39 | 19.8 | 20 | 13.0695 | 40.5222 | 34.5063 | 13.0668 | 25.9970 | 240.328 | 90.67 | 88.66 | 1.22 | 14 |
| HE406/39-3 | 2013-07-23T14:28 | 55.3058 | 4.0548 | -39 | 20.8 | 21 | 12.8629 | 40.3417 | 34.5223 | 12.8601 | 26.0507 | 241.926 | 90.89 | 88.51 | 1.43 | 17 |
| HE406/39-3 | 2013-07-23T14:28 | 55.3058 | 4.0548 | -39 | 21.8 | 22 | 12.8913 | 40.4160 | 34.5669 | 12.8883 | 26.0796 | 248.076 | 93.28 | 88.66 | 1.43 | 18 |
| HE406/39-3 | 2013-07-23T14:28 | 55.3058 | 4.0548 | -39 | 22.8 | 23 | 12.8452 | 40.3900 | 34.5838 | 12.8421 | 26.1019 | 247.353 | 92.93 | 89.12 | 1.54 | 19 |
| HE406/39-3 | 2013-07-23T14:28 | 55.3058 | 4.0548 | -39 | 23.8 | 24 | 12.7726 | 40.3224 | 34.5853 | 12.7694 | 26.1175 | 250.459 | 93.95 | 89.41 | 1.64 | 13 |
| HE406/39-3 | 2013-07-23T14:28 | 55.3058 | 4.0548 | -39 | 24.8 | 25 | 12.4974 | 40.0393 | 34.5657 | 12.4941 | 26.1564 | 254.284 | 94.83 | 89.41 | 2.06 | 16 |
| HE406/39-3 | 2013-07-23T14:28 | 55.3058 | 4.0548 | -39 | 25.8 | 26 | 10.4139 | 37.9713 | 34.4705 | 10.4109 | 26.4676 | 258.653 | 92.19 | 88.83 | 3.02 | 13 |
| HE406/39-3 | 2013-07-23T14:28 | 55.3058 | 4.0548 | -39 | 26.8 | 27 | 8.0250 | 35.7984 | 34.5181 | 8.0223 | 26.8920 | 252.386 | 85.31 | 87.60 | 4.57 | 16 |
| HE406/39-3 | 2013-07-23T14:28 | 55.3058 | 4.0548 | -39 | 27.7 | 28 | 7.1435 | 35.0662 | 34.6007 | 7.1409 | 27.0846 | 236.599 | 78.41 | 86.66 | 3.98 | 17 |
| HE406/39-3 | 2013-07-23T14:28 | 55.3058 | 4.0548 | -39 | 28.7 | 29 | 7.1471 | 35.0729 | 34.6039 | 7.1444 | 27.0866 | 221.979 | 73.58 | 87.05 | 2.08 | 18 |
| HE406/39-3 | 2013-07-23T14:28 | 55.3058 | 4.0548 | -39 | 29.7 | 30 | 7.1492 | 35.0827 | 34.6121 | 7.1464 | 27.0928 | 198.676 | 65.86 | 88.23 | 1.43 | 13 |
| HE406/39-3 | 2013-07-23T14:28 | 55.3058 | 4.0548 | -39 | 30.7 | 31 | 7.1387 | 35.0820 | 34.6213 | 7.1358 | 27.1016 | 190.807 | 63.24 | 88.55 | 1.15 | 15 |
| HE406/39-3 | 2013-07-23T14:28 | 55.3058 | 4.0548 | -39 | 31.7 | 32 | 7.1345 | 35.0834 | 34.6266 | 7.1315 | 27.1063 | 191.336 | 63.41 | 88.63 | 1.48 | 15 |
| HE406/39-3 | 2013-07-23T14:28 | 55.3058 | 4.0548 | -39 | 32.7 | 33 | 7.1313 | 35.0851 | 34.6312 | 7.1282 | 27.1104 | 192.001 | 63.63 | 88.82 | 1.27 | 17 |
| HE406/39-3 | 2013-07-23T14:28 | 55.3058 | 4.0548 | -39 | 33.7 | 34 | 7.1317 | 35.0891 | 34.6347 | 7.1285 | 27.1131 | 192.131 | 63.67 | 88.65 | 1.42 | 19 |
| HE406/39-3 | 2013-07-23T14:28 | 55.3058 | 4.0548 | -39 | 34.7 | 35 | 7.1305 | 35.0916 | 34.6382 | 7.1272 | 27.1160 | 192.080 | 63.65 | 88.87 | 1.47 | 21 |
| HE406/39-3 | 2013-07-23T14:28 | 55.3058 | 4.0548 | -39 | 35.7 | 36 | 7.1291 | 35.0926 | 34.6401 | 7.1258 | 27.1177 | 191.712 | 63.53 | 88.65 | 1.05 | 18 |
| HE406/39-3 | 2013-07-23T14:28 | 55.3058 | 4.0548 | -39 | 36.7 | 37 | 7.1275 | 35.0926 | 34.6412 | 7.1241 | 27.1189 | 191.424 | 63.43 | 88.83 | 1.73 | 17 |
| HE406/39-3 | 2013-07-23T14:28 | 55.3058 | 4.0548 | -39 | 37.7 | 38 | 7.1256 | 35.0926 | 34.6426 | 7.1221 | 27.1202 | 191.003 | 63.29 | 89.03 | 1.19 | 20 |
| HE406/39-3 | 2013-07-23T14:28 | 55.3058 | 4.0548 | -39 | 38.6 | 39 | 7.1257 | 35.0931 | 34.6426 | 7.1221 | 27.1202 | 190.564 | 63.15 | 89.20 | 0.99 | 17 |
| HE406/39-3 | 2013-07-23T14:28 | 55.3058 | 4.0548 | -39 | 39.6 | 40 | 7.1267 | 35.0943 | 34.6424 | 7.1230 | 27.1199 | 190.451 | 63.11 | 88.93 | 1.38 | 18 |
| HE406/39-3 | 2013-07-23T14:28 | 55.3058 | 4.0548 | -39 | 40.6 | 41 | 7.1276 | 35.0948 | 34.6415 | 7.1238 | 27.1191 | 190.039 | 62.98 | 88.97 | 1.28 | 17 |
| HE406/39-3 | 2013-07-23T14:28 | 55.3058 | 4.0548 | -39 | 41.6 | 42 | 7.1294 | 35.0953 | 34.6398 | 7.1255 | 27.1176 | 189.483 | 62.79 | 88.94 | 1.59 | 19 |
| HE406/39-3 | 2013-07-23T14:28 | 55.3058 | 4.0548 | -39 | 42.6 | 43 | 7.1316 | 35.0966 | 34.6385 | 7.1276 | 27.1162 | 189.172 | 62.69 | 88.84 | 1.22 | 10 |
| HE406/41-1 | 2013-07-23T14:52 | 55.3060 | 4.0665 | -40 | 2.0 | 2 | 17.5241 | 44.8724 | 34.5255 | 17.5238 | 25.0247 | 219.973 | 90.75 | 91.65 | 0.07 | 12 |
| HE406/41-1 | 2013-07-23T14:52 | 55.3060 | 4.0665 | -40 | 3.0 | 3 | 17.5085 | 44.8582 | 34.5262 | 17.5080 | 25.0291 | 219.900 | 90.69 | 91.62 | 0.10 | 28 |
| HE406/41-1 | 2013-07-23T14:52 | 55.3060 | 4.0665 | -40 | 4.0 | 4 | 17.4922 | 44.8415 | 34.5253 | 17.4915 | 25.0324 | 219.689 | 90.58 | 91.66 | 0.09 | 21 |
| HE406/41-1 | 2013-07-23T14:52 | 55.3060 | 4.0665 | -40 | 5.0 | 5 | 17.4609 | 44.8115 | 34.5257 | 17.4601 | 25.0402 | 219.955 | 90.63 | 91.63 | 0.12 | 24 |
| HE406/41-1 | 2013-07-23T14:52 | 55.3060 | 4.0665 | -40 | 5.9 | 6 | 17.3796 | 44.7278 | 34.5224 | 17.3786 | 25.0573 | 220.151 | 90.57 | 91.60 | 0.14 | 24 |
| HE406/41-1 | 2013-07-23T14:52 | 55.3060 | 4.0665 | -40 | 6.9 | 7 | 17.2093 | 44.5608 | 34.5230 | 17.2081 | 25.0986 | 220.720 | 90.50 | 91.54 | 0.17 | 22 |
| HE406/41-1 | 2013-07-23T14:52 | 55.3060 | 4.0665 | -40 | 7.9 | 8 | 17.0121 | 44.3650 | 34.5215 | 17.0108 | 25.1444 | 221.556 | 90.50 | 91.25 | 0.18 | 20 |
| HE406/41-1 | 2013-07-23T14:52 | 55.3060 | 4.0665 | -40 | 8.9 | 9 | 16.7961 | 44.1537 | 34.5222 | 16.7946 | 25.1960 | 222.700 | 90.58 | 91.11 | 0.21 | 20 |
| HE406/41-1 | 2013-07-23T14:52 | 55.3060 | 4.0665 | -40 | 9.9 | 10 | 16.5941 | 43.9617 | 34.5277 | 16.5925 | 25.2476 | 224.275 | 90.87 | 91.41 | 0.22 | 24 |
| HE406/41-1 | 2013-07-23T14:52 | 55.3060 | 4.0665 | -40 | 10.9 | 11 | 16.5140 | 43.8857 | 34.5296 | 16.5122 | 25.2678 | 228.155 | 92.30 | 91.25 | 0.22 | 25 |
| HE406/41-1 | 2013-07-23T14:52 | 55.3060 | 4.0665 | -40 | 11.9 | 12 | 16.4234 | 43.7914 | 34.5245 | 16.4215 | 25.2849 | 231.490 | 93.48 | 90.94 | 0.31 | 19 |
| HE406/41-1 | 2013-07-23T14:52 | 55.3060 | 4.0665 | -40 | 12.9 | 13 | 15.9586 | 43.2813 | 34.4755 | 15.9566 | 25.3540 | 232.934 | 93.17 | 90.04 | 0.42 | 23 |
| HE406/41-1 | 2013-07-23T14:52 | 55.3060 | 4.0665 | -40 | 13.9 | 14 | 15.1306 | 42.4631 | 34.4647 | 15.1285 | 25.5310 | 233.325 | 91.79 | 89.47 | 0.62 | 20 |
| HE406/41-1 | 2013-07-23T14:52 | 55.3060 | 4.0665 | -40 | 14.9 | 15 | 14.9681 | 42.3164 | 34.4743 | 14.9659 | 25.5741 | 231.115 | 90.63 | 89.44 | 0.64 | 20 |
| HE406/41-1 | 2013-07-23T14:52 | 55.3060 | 4.0665 | -40 | 15.9 | 16 | 14.8202 | 42.1668 | 34.4683 | 14.8178 | 25.6017 | 235.235 | 91.97 | 89.06 | 0.67 | 19 |
| HE406/41-1 | 2013-07-23T14:52 | 55.3060 | 4.0665 | -40 | 16.8 | 17 | 14.3223 | 41.6657 | 34.4500 | 14.3198 | 25.6946 | 235.572 | 91.17 | 88.92 | 0.76 | 21 |
| HE406/41-1 | 2013-07-23T14:52 | 55.3060 | 4.0665 | -40 | 17.8 | 18 | 13.8155 | 41.1909 | 34.4622 | 13.8130 | 25.8105 | 234.603 | 89.86 | 88.94 | 1.00 | 20 |
| HE406/41-1 | 2013-07-23T14:52 | 55.3060 | 4.0665 | -40 | 18.8 | 19 | 13.0410 | 40.4836 | 34.4959 | 13.0384 | 25.9946 | 237.464 | 89.53 | 88.86 | 1.09 | 18 |
| HE406/41-1 | 2013-07-23T14:52 | 55.3060 | 4.0665 | -40 | 19.8 | 20 | 12.8634 | 40.3359 | 34.5167 | 12.8607 | 26.0462 | 239.330 | 89.91 | 88.85 | 0.99 | 20 |
| HE406/41-1 | 2013-07-23T14:52 | 55.3060 | 4.0665 | -40 | 20.8 | 21 | 12.7930 | 40.2745 | 34.5220 | 12.7902 | 26.0643 | 244.109 | 91.58 | 89.15 | 0.94 | 21 |
| HE406/41-1 | 2013-07-23T14:52 | 55.3060 | 4.0665 | -40 | 21.8 | 22 | 12.7063 | 40.2011 | 34.5307 | 12.7034 | 26.0882 | 243.525 | 91.20 | 89.87 | 1.02 | 19 |
| HE406/41-1 | 2013-07-23T14:52 | 55.3060 | 4.0665 | -40 | 22.8 | 23 | 12.5241 | 40.0431 | 34.5457 | 12.5210 | 26.1356 | 242.124 | 90.33 | 90.04 | 1.12 | 18 |
| HE406/41-1 | 2013-07-23T14:52 | 55.3060 | 4.0665 | -40 | 23.8 | 24 | 12.0708 | 39.6024 | 34.5369 | 12.0677 | 26.2165 | 241.929 | 89.40 | 89.87 | 1.29 | 17 |
| HE406/41-1 | 2013-07-23T14:52 | 55.3060 | 4.0665 | -40 | 24.8 | 25 | 10.8899 | 38.4402 | 34.4927 | 10.8869 | 26.4008 | 243.913 | 87.85 | 89.78 | 1.75 | 15 |
| HE406/41-1 | 2013-07-23T14:52 | 55.3060 | 4.0665 | -40 | 25.8 | 26 | 9.3920 | 37.0331 | 34.4869 | 9.3891 | 26.6533 | 244.142 | 85.09 | 89.51 | 2.45 | 17 |
| HE406/41-1 | 2013-07-23T14:52 | 55.3060 | 4.0665 | -40 | 26.8 | 27 | 8.3440 | 36.0809 | 34.5059 | 8.3412 | 26.8342 | 236.359 | 80.47 | 88.69 | 3.14 | 17 |
| HE406/41-1 | 2013-07-23T14:52 | 55.3060 | 4.0665 | -40 | 27.7 | 28 | 7.3278 | 35.2134 | 34.5772 | 7.3252 | 27.0401 | 241.462 | 80.35 | 87.00 | 5.94 | 20 |
| HE406/41-1 | 2013-07-23T14:52 | 55.3060 | 4.0665 | -40 | 28.7 | 29 | 7.1415 | 35.0676 | 34.6037 | 7.1388 | 27.0873 | 226.044 | 74.91 | 86.83 | 3.90 | 16 |
| HE406/41-1 | 2013-07-23T14:52 | 55.3060 | 4.0665 | -40 | 29.7 | 30 | 7.1144 | 35.0504 | 34.6116 | 7.1116 | 27.0973 | 205.532 | 68.08 | 86.52 | 2.80 | 18 |
| HE406/41-1 | 2013-07-23T14:52 | 55.3060 | 4.0665 | -40 | 30.7 | 31 | 7.0984 | 35.0441 | 34.6202 | 7.0955 | 27.1063 | 193.615 | 64.11 | 87.82 | 2.41 | 18 |
| HE406/41-1 | 2013-07-23T14:52 | 55.3060 | 4.0665 | -40 | 31.7 | 32 | 7.0970 | 35.0488 | 34.6262 | 7.0940 | 27.1113 | 191.589 | 63.44 | 88.05 | 1.65 | 17 |
| HE406/41-1 | 2013-07-23T14:52 | 55.3060 | 4.0665 | -40 | 32.7 | 33 | 7.0944 | 35.0500 | 34.6298 | 7.0913 | 27.1144 | 191.896 | 63.54 | 88.16 | 1.37 | 18 |
| HE406/41-1 | 2013-07-23T14:52 | 55.3060 | 4.0665 | -40 | 33.7 | 34 | 7.0994 | 35.0582 | 34.6332 | 7.0962 | 27.1164 | 192.045 | 63.59 | 88.69 | 1.46 | 19 |
| HE406/41-1 | 2013-07-23T14:52 | 55.3060 | 4.0665 | -40 | 34.7 | 35 | 7.0947 | 35.0570 | 34.6360 | 7.0915 | 27.1194 | 192.414 | 63.71 | 88.83 | 1.26 | 17 |
| HE406/41-1 | 2013-07-23T14:52 | 55.3060 | 4.0665 | -40 | 35.7 | 36 | 7.0909 | 35.0552 | 34.6374 | 7.0876 | 27.1210 | 192.469 | 63.72 | 88.76 | 1.52 | 17 |
| HE406/41-1 | 2013-07-23T14:52 | 55.3060 | 4.0665 | -40 | 36.7 | 37 | 7.0877 | 35.0542 | 34.6390 | 7.0843 | 27.1227 | 191.967 | 63.55 | 88.83 | 1.77 | 17 |
| HE406/41-1 | 2013-07-23T14:52 | 55.3060 | 4.0665 | -40 | 37.7 | 38 | 7.0859 | 35.0540 | 34.6402 | 7.0824 | 27.1239 | 191.895 | 63.53 | 88.94 | 1.39 | 17 |
| HE406/41-1 | 2013-07-23T14:52 | 55.3060 | 4.0665 | -40 | 38.6 | 39 | 7.0849 | 35.0541 | 34.6407 | 7.0813 | 27.1245 | 191.505 | 63.40 | 88.84 | 1.21 | 16 |
| HE406/41-1 | 2013-07-23T14:52 | 55.3060 | 4.0665 | -40 | 39.6 | 40 | 7.0849 | 35.0550 | 34.6412 | 7.0812 | 27.1249 | 191.199 | 63.30 | 88.95 | 1.91 | 15 |
| HE406/41-1 | 2013-07-23T14:52 | 55.3060 | 4.0665 | -40 | 40.6 | 41 | 7.0847 | 35.0539 | 34.6397 | 7.0809 | 27.1237 | 190.729 | 63.14 | 89.01 | 1.62 | 15 |
| HE406/41-1 | 2013-07-23T14:52 | 55.3060 | 4.0665 | -40 | 41.6 | 42 | 7.0845 | 35.0533 | 34.6388 | 7.0806 | 27.1230 | 190.725 | 63.14 | 89.09 | 1.34 | 17 |
| HE406/41-1 | 2013-07-23T14:52 | 55.3060 | 4.0665 | -40 | 42.6 | 43 | 7.0842 | 35.0530 | 34.6383 | 7.0802 | 27.1227 | 190.450 | 63.05 | 88.99 | 1.25 | 13 |
| HE406/42-1 | 2013-07-23T15:21 | 55.3058 | 4.0788 | -40 | 2.0 | 2 | 17.4740 | 44.8323 | 34.5337 | 17.4737 | 25.0431 | 219.882 | 90.63 | 91.28 | 0.15 | 2 |
| HE406/42-1 | 2013-07-23T15:21 | 55.3058 | 4.0788 | -40 | 3.0 | 3 | 17.4632 | 44.8207 | 34.5325 | 17.4627 | 25.0448 | 219.698 | 90.53 | 91.27 | 0.19 | 24 |
| HE406/42-1 | 2013-07-23T15:21 | 55.3058 | 4.0788 | -40 | 4.0 | 4 | 17.4539 | 44.8120 | 34.5326 | 17.4532 | 25.0471 | 219.503 | 90.44 | 91.30 | 0.21 | 24 |
| HE406/42-1 | 2013-07-23T15:21 | 55.3058 | 4.0788 | -40 | 5.0 | 5 | 17.4268 | 44.7850 | 34.5319 | 17.4260 | 25.0532 | 219.638 | 90.44 | 91.40 | 0.23 | 24 |
| HE406/42-1 | 2013-07-23T15:21 | 55.3058 | 4.0788 | -40 | 5.9 | 6 | 17.3715 | 44.7288 | 34.5302 | 17.3705 | 25.0653 | 220.161 | 90.56 | 91.27 | 0.24 | 27 |
| HE406/42-1 | 2013-07-23T15:21 | 55.3058 | 4.0788 | -40 | 6.9 | 7 | 17.1265 | 44.4851 | 34.5282 | 17.1253 | 25.1223 | 221.581 | 90.71 | 91.28 | 0.27 | 26 |
| HE406/42-1 | 2013-07-23T15:21 | 55.3058 | 4.0788 | -40 | 7.9 | 8 | 16.8470 | 44.1994 | 34.5187 | 16.8457 | 25.1813 | 221.771 | 90.29 | 91.14 | 0.29 | 22 |
| HE406/42-1 | 2013-07-23T15:21 | 55.3058 | 4.0788 | -40 | 8.9 | 9 | 16.6949 | 44.0467 | 34.5157 | 16.6934 | 25.2147 | 222.175 | 90.19 | 91.04 | 0.31 | 22 |
| HE406/42-1 | 2013-07-23T15:21 | 55.3058 | 4.0788 | -40 | 9.9 | 10 | 16.5994 | 43.9564 | 34.5184 | 16.5978 | 25.2392 | 225.343 | 91.30 | 90.98 | 0.32 | 22 |
| HE406/42-1 | 2013-07-23T15:21 | 55.3058 | 4.0788 | -40 | 10.9 | 11 | 16.5476 | 43.9041 | 34.5168 | 16.5458 | 25.2501 | 226.821 | 91.81 | 90.92 | 0.36 | 18 |
| HE406/42-1 | 2013-07-23T15:21 | 55.3058 | 4.0788 | -40 | 11.9 | 12 | 16.5157 | 43.8745 | 34.5179 | 16.5138 | 25.2584 | 227.619 | 92.08 | 90.60 | 0.36 | 24 |
| HE406/42-1 | 2013-07-23T15:21 | 55.3058 | 4.0788 | -40 | 12.9 | 13 | 16.4805 | 43.8422 | 34.5195 | 16.4784 | 25.2678 | 227.264 | 91.87 | 90.36 | 0.36 | 21 |
| HE406/42-1 | 2013-07-23T15:21 | 55.3058 | 4.0788 | -40 | 13.9 | 14 | 16.0911 | 43.4259 | 34.4884 | 16.0889 | 25.3338 | 227.959 | 91.43 | 90.33 | 0.43 | 20 |
| HE406/42-1 | 2013-07-23T15:21 | 55.3058 | 4.0788 | -40 | 14.9 | 15 | 15.1680 | 42.5059 | 34.4701 | 15.1657 | 25.5270 | 229.647 | 90.42 | 89.17 | 0.68 | 20 |
| HE406/42-1 | 2013-07-23T15:21 | 55.3058 | 4.0788 | -40 | 15.9 | 16 | 14.9654 | 42.3074 | 34.4680 | 14.9630 | 25.5699 | 236.628 | 92.79 | 89.26 | 0.70 | 19 |
| HE406/42-1 | 2013-07-23T15:21 | 55.3058 | 4.0788 | -40 | 16.8 | 17 | 14.9106 | 42.2663 | 34.4787 | 14.9081 | 25.5901 | 237.134 | 92.89 | 89.48 | 0.70 | 23 |
| HE406/42-1 | 2013-07-23T15:21 | 55.3058 | 4.0788 | -40 | 17.8 | 18 | 14.2856 | 41.6376 | 34.4564 | 14.2830 | 25.7073 | 236.989 | 91.65 | 89.15 | 0.80 | 21 |
| HE406/42-1 | 2013-07-23T15:21 | 55.3058 | 4.0788 | -40 | 18.8 | 19 | 13.2105 | 40.6311 | 34.4818 | 13.2079 | 25.9496 | 236.790 | 89.58 | 88.88 | 0.99 | 18 |
| HE406/42-1 | 2013-07-23T15:21 | 55.3058 | 4.0788 | -40 | 19.8 | 20 | 12.9059 | 40.3762 | 34.5164 | 12.9032 | 26.0375 | 239.421 | 90.03 | 88.78 | 1.17 | 19 |
| HE406/42-1 | 2013-07-23T15:21 | 55.3058 | 4.0788 | -40 | 20.8 | 21 | 12.8008 | 40.2870 | 34.5268 | 12.7980 | 26.0665 | 245.675 | 92.18 | 89.41 | 1.05 | 19 |
| HE406/42-1 | 2013-07-23T15:21 | 55.3058 | 4.0788 | -40 | 21.8 | 22 | 12.6667 | 40.1629 | 34.5303 | 12.6638 | 26.0957 | 245.592 | 91.89 | 89.38 | 1.10 | 15 |
| HE406/42-1 | 2013-07-23T15:21 | 55.3058 | 4.0788 | -40 | 22.8 | 23 | 12.4857 | 39.9965 | 34.5360 | 12.4827 | 26.1357 | 243.490 | 90.76 | 89.13 | 1.31 | 18 |
| HE406/42-1 | 2013-07-23T15:21 | 55.3058 | 4.0788 | -40 | 23.8 | 24 | 11.8414 | 39.3569 | 34.5101 | 11.8383 | 26.2392 | 244.760 | 89.99 | 88.58 | 1.51 | 15 |
| HE406/42-1 | 2013-07-23T15:21 | 55.3058 | 4.0788 | -40 | 24.8 | 25 | 10.5399 | 38.1148 | 34.4964 | 10.5369 | 26.4658 | 245.264 | 87.67 | 87.97 | 2.39 | 14 |
| HE406/42-1 | 2013-07-23T15:21 | 55.3058 | 4.0788 | -40 | 25.8 | 26 | 9.1832 | 36.8630 | 34.5119 | 9.1804 | 26.7069 | 233.987 | 81.18 | 86.87 | 3.81 | 18 |
| HE406/42-1 | 2013-07-23T15:21 | 55.3058 | 4.0788 | -40 | 26.8 | 27 | 8.6010 | 36.3229 | 34.5110 | 8.5982 | 26.7986 | 223.302 | 76.47 | 87.02 | 3.90 | 18 |
| HE406/42-1 | 2013-07-23T15:21 | 55.3058 | 4.0788 | -40 | 27.7 | 28 | 7.4999 | 35.3615 | 34.5666 | 7.4972 | 27.0072 | 217.859 | 72.78 | 86.04 | 7.24 | 18 |
| HE406/42-1 | 2013-07-23T15:21 | 55.3058 | 4.0788 | -40 | 28.7 | 29 | 7.1980 | 35.1249 | 34.6098 | 7.1953 | 27.0841 | 206.677 | 68.59 | 86.27 | 3.14 | 18 |
| HE406/42-1 | 2013-07-23T15:21 | 55.3058 | 4.0788 | -40 | 29.7 | 30 | 7.1642 | 35.1036 | 34.6200 | 7.1614 | 27.0969 | 193.243 | 64.08 | 86.82 | 2.09 | 21 |
| HE406/42-1 | 2013-07-23T15:21 | 55.3058 | 4.0788 | -40 | 30.7 | 31 | 7.1537 | 35.1003 | 34.6264 | 7.1508 | 27.1035 | 190.992 | 63.32 | 87.66 | 1.58 | 18 |
| HE406/42-1 | 2013-07-23T15:21 | 55.3058 | 4.0788 | -40 | 31.7 | 32 | 7.1479 | 35.0994 | 34.6307 | 7.1449 | 27.1077 | 190.987 | 63.31 | 88.28 | 1.38 | 18 |
| HE406/42-1 | 2013-07-23T15:21 | 55.3058 | 4.0788 | -40 | 32.7 | 33 | 7.1474 | 35.1025 | 34.6341 | 7.1443 | 27.1105 | 190.829 | 63.26 | 88.55 | 1.81 | 16 |
| HE406/42-1 | 2013-07-23T15:21 | 55.3058 | 4.0788 | -40 | 33.7 | 34 | 7.1464 | 35.1032 | 34.6354 | 7.1432 | 27.1116 | 190.484 | 63.15 | 88.65 | 1.17 | 18 |
| HE406/42-1 | 2013-07-23T15:21 | 55.3058 | 4.0788 | -40 | 34.7 | 35 | 7.1399 | 35.0995 | 34.6373 | 7.1366 | 27.1141 | 190.459 | 63.13 | 88.40 | 1.26 | 20 |
| HE406/42-1 | 2013-07-23T15:21 | 55.3058 | 4.0788 | -40 | 35.7 | 36 | 7.1400 | 35.1005 | 34.6379 | 7.1366 | 27.1145 | 190.275 | 63.07 | 88.62 | 1.17 | 16 |
| HE406/42-1 | 2013-07-23T15:21 | 55.3058 | 4.0788 | -40 | 36.7 | 37 | 7.1381 | 35.0995 | 34.6382 | 7.1347 | 27.1150 | 190.023 | 62.98 | 88.53 | 1.65 | 17 |
| HE406/42-1 | 2013-07-23T15:21 | 55.3058 | 4.0788 | -40 | 37.7 | 38 | 7.1377 | 35.0995 | 34.6381 | 7.1342 | 27.1150 | 189.901 | 62.94 | 88.60 | 1.76 | 20 |
| HE406/42-1 | 2013-07-23T15:21 | 55.3058 | 4.0788 | -40 | 38.6 | 39 | 7.1379 | 35.0998 | 34.6377 | 7.1343 | 27.1147 | 189.736 | 62.89 | 88.47 | 1.77 | 15 |
| HE406/42-1 | 2013-07-23T15:21 | 55.3058 | 4.0788 | -40 | 39.6 | 40 | 7.1369 | 35.0988 | 34.6371 | 7.1332 | 27.1143 | 189.673 | 62.87 | 88.52 | 1.29 | 18 |
| HE406/42-1 | 2013-07-23T15:21 | 55.3058 | 4.0788 | -40 | 40.6 | 41 | 7.1360 | 35.0979 | 34.6365 | 7.1322 | 27.1140 | 189.369 | 62.76 | 88.71 | 1.48 | 17 |
| HE406/42-1 | 2013-07-23T15:21 | 55.3058 | 4.0788 | -40 | 41.6 | 42 | 7.1349 | 35.0967 | 34.6358 | 7.1310 | 27.1136 | 189.186 | 62.70 | 88.41 | 1.40 | 18 |
| HE406/42-1 | 2013-07-23T15:21 | 55.3058 | 4.0788 | -40 | 42.6 | 43 | 7.1431 | 35.1025 | 34.6335 | 7.1391 | 27.1106 | 189.134 | 62.69 | 88.72 | 2.19 | 19 |
| HE406/43-1 | 2013-07-23T15:43 | 55.3058 | 4.0900 | -40 | 2.0 | 2 | 17.5310 | 44.8931 | 34.5375 | 17.5307 | 25.0322 | 215.862 | 89.07 | 91.04 | 0.23 | 1 |
| HE406/43-1 | 2013-07-23T15:43 | 55.3058 | 4.0900 | -40 | 3.0 | 3 | 17.5209 | 44.8828 | 34.5369 | 17.5204 | 25.0342 | 217.437 | 89.70 | 91.03 | 0.17 | 31 |
| HE406/43-1 | 2013-07-23T15:43 | 55.3058 | 4.0900 | -40 | 4.0 | 4 | 17.5043 | 44.8672 | 34.5371 | 17.5036 | 25.0385 | 218.696 | 90.19 | 90.87 | 0.20 | 21 |
| HE406/43-1 | 2013-07-23T15:43 | 55.3058 | 4.0900 | -40 | 5.0 | 5 | 17.4933 | 44.8566 | 34.5371 | 17.4925 | 25.0411 | 218.838 | 90.23 | 91.19 | 0.21 | 28 |
| HE406/43-1 | 2013-07-23T15:43 | 55.3058 | 4.0900 | -40 | 5.9 | 6 | 17.3993 | 44.7643 | 34.5372 | 17.3983 | 25.0639 | 219.267 | 90.25 | 91.16 | 0.22 | 23 |
| HE406/43-1 | 2013-07-23T15:43 | 55.3058 | 4.0900 | -40 | 6.9 | 7 | 17.2877 | 44.6567 | 34.5391 | 17.2865 | 25.0922 | 220.453 | 90.54 | 90.30 | 0.26 | 24 |
| HE406/43-1 | 2013-07-23T15:43 | 55.3058 | 4.0900 | -40 | 7.9 | 8 | 16.9887 | 44.3583 | 34.5357 | 16.9874 | 25.1609 | 221.666 | 90.51 | 90.80 | 0.29 | 29 |
| HE406/43-1 | 2013-07-23T15:43 | 55.3058 | 4.0900 | -40 | 8.9 | 9 | 16.6915 | 44.0669 | 34.5363 | 16.6900 | 25.2314 | 224.247 | 91.03 | 90.88 | 0.34 | 25 |
| HE406/43-1 | 2013-07-23T15:43 | 55.3058 | 4.0900 | -40 | 9.9 | 10 | 16.5934 | 43.9679 | 34.5337 | 16.5918 | 25.2523 | 226.359 | 91.71 | 90.90 | 0.36 | 26 |
| HE406/43-1 | 2013-07-23T15:43 | 55.3058 | 4.0900 | -40 | 10.9 | 11 | 16.5482 | 43.9254 | 34.5350 | 16.5464 | 25.2639 | 225.959 | 91.47 | 90.81 | 0.35 | 25 |
| HE406/43-1 | 2013-07-23T15:43 | 55.3058 | 4.0900 | -40 | 11.9 | 12 | 16.3871 | 43.7467 | 34.5165 | 16.3852 | 25.2872 | 226.044 | 91.21 | 90.88 | 0.37 | 21 |
| HE406/43-1 | 2013-07-23T15:43 | 55.3058 | 4.0900 | -40 | 12.9 | 13 | 15.6385 | 42.9649 | 34.4719 | 15.6365 | 25.4236 | 227.807 | 90.54 | 90.39 | 0.50 | 23 |
| HE406/43-1 | 2013-07-23T15:43 | 55.3058 | 4.0900 | -40 | 13.9 | 14 | 15.1534 | 42.4811 | 34.4609 | 15.1513 | 25.5231 | 233.374 | 91.85 | 89.80 | 0.65 | 23 |
| HE406/43-1 | 2013-07-23T15:43 | 55.3058 | 4.0900 | -40 | 14.9 | 15 | 15.0206 | 42.3572 | 34.4650 | 15.0183 | 25.5555 | 236.008 | 92.64 | 88.82 | 0.76 | 23 |
| HE406/43-1 | 2013-07-23T15:43 | 55.3058 | 4.0900 | -40 | 15.9 | 16 | 14.9464 | 42.2923 | 34.4711 | 14.9440 | 25.5764 | 235.125 | 92.16 | 88.79 | 0.84 | 24 |
| HE406/43-1 | 2013-07-23T15:43 | 55.3058 | 4.0900 | -40 | 16.8 | 17 | 14.8551 | 42.2132 | 34.4794 | 14.8526 | 25.6027 | 233.877 | 91.51 | 89.13 | 0.83 | 22 |
| HE406/43-1 | 2013-07-23T15:43 | 55.3058 | 4.0900 | -40 | 17.8 | 18 | 14.7913 | 42.1625 | 34.4891 | 14.7886 | 25.6241 | 234.120 | 91.49 | 89.41 | 0.86 | 21 |
| HE406/43-1 | 2013-07-23T15:43 | 55.3058 | 4.0900 | -40 | 18.8 | 19 | 14.3320 | 41.6996 | 34.4719 | 14.3292 | 25.7094 | 235.331 | 91.10 | 89.49 | 0.95 | 20 |
| HE406/43-1 | 2013-07-23T15:43 | 55.3058 | 4.0900 | -40 | 19.8 | 20 | 13.4225 | 40.8422 | 34.4887 | 13.4197 | 25.9119 | 237.981 | 90.44 | 89.07 | 1.04 | 18 |
| HE406/43-1 | 2013-07-23T15:43 | 55.3058 | 4.0900 | -40 | 20.8 | 21 | 12.8849 | 40.3589 | 34.5186 | 12.8821 | 26.0435 | 244.109 | 91.75 | 88.73 | 1.25 | 20 |
| HE406/43-1 | 2013-07-23T15:43 | 55.3058 | 4.0900 | -40 | 21.8 | 22 | 12.7168 | 40.1985 | 34.5185 | 12.7139 | 26.0767 | 245.484 | 91.94 | 89.29 | 0.94 | 19 |
| HE406/43-1 | 2013-07-23T15:43 | 55.3058 | 4.0900 | -40 | 22.8 | 23 | 12.5524 | 40.0634 | 34.5391 | 12.5493 | 26.1250 | 241.467 | 90.14 | 89.96 | 1.27 | 18 |
| HE406/43-1 | 2013-07-23T15:43 | 55.3058 | 4.0900 | -40 | 23.8 | 24 | 12.0112 | 39.5365 | 34.5279 | 12.0081 | 26.2208 | 244.184 | 90.11 | 89.35 | 1.61 | 16 |
| HE406/43-1 | 2013-07-23T15:43 | 55.3058 | 4.0900 | -40 | 24.8 | 25 | 11.4518 | 38.9972 | 34.5190 | 11.4487 | 26.3190 | 242.202 | 88.31 | 89.08 | 1.96 | 18 |
| HE406/43-1 | 2013-07-23T15:43 | 55.3058 | 4.0900 | -40 | 25.8 | 26 | 10.4041 | 37.9901 | 34.4988 | 10.4011 | 26.4914 | 242.574 | 86.46 | 88.20 | 2.86 | 16 |
| HE406/43-1 | 2013-07-23T15:43 | 55.3058 | 4.0900 | -40 | 26.8 | 27 | 9.4857 | 37.1458 | 34.5129 | 9.4827 | 26.6583 | 231.107 | 80.73 | 86.50 | 3.95 | 18 |
| HE406/43-1 | 2013-07-23T15:43 | 55.3058 | 4.0900 | -40 | 27.7 | 28 | 9.1644 | 36.8544 | 34.5203 | 9.1614 | 26.7165 | 224.417 | 77.84 | 86.92 | 4.75 | 20 |
| HE406/43-1 | 2013-07-23T15:43 | 55.3058 | 4.0900 | -40 | 28.7 | 29 | 7.9728 | 35.7543 | 34.5213 | 7.9699 | 26.9024 | 220.682 | 74.51 | 87.61 | 4.41 | 20 |
| HE406/43-1 | 2013-07-23T15:43 | 55.3058 | 4.0900 | -40 | 29.7 | 30 | 7.3340 | 35.2327 | 34.5910 | 7.3312 | 27.0501 | 206.498 | 68.73 | 87.35 | 3.99 | 18 |
| HE406/43-1 | 2013-07-23T15:43 | 55.3058 | 4.0900 | -40 | 30.7 | 31 | 7.2399 | 35.1630 | 34.6086 | 7.2370 | 27.0773 | 186.044 | 61.80 | 88.01 | 2.85 | 20 |
| HE406/43-1 | 2013-07-23T15:43 | 55.3058 | 4.0900 | -40 | 31.7 | 32 | 7.1883 | 35.1243 | 34.6175 | 7.1853 | 27.0916 | 185.907 | 61.68 | 88.09 | 1.89 | 19 |
| HE406/43-1 | 2013-07-23T15:43 | 55.3058 | 4.0900 | -40 | 32.7 | 33 | 7.1772 | 35.1201 | 34.6235 | 7.1741 | 27.0979 | 187.091 | 62.06 | 88.00 | 1.50 | 17 |
| HE406/43-1 | 2013-07-23T15:43 | 55.3058 | 4.0900 | -40 | 33.7 | 34 | 7.1760 | 35.1217 | 34.6259 | 7.1728 | 27.1000 | 187.308 | 62.13 | 87.90 | 1.94 | 22 |
| HE406/43-1 | 2013-07-23T15:43 | 55.3058 | 4.0900 | -40 | 34.7 | 35 | 7.1757 | 35.1226 | 34.6267 | 7.1724 | 27.1006 | 186.921 | 62.01 | 87.86 | 1.53 | 20 |
| HE406/43-1 | 2013-07-23T15:43 | 55.3058 | 4.0900 | -40 | 35.7 | 36 | 7.1716 | 35.1200 | 34.6275 | 7.1682 | 27.1019 | 187.104 | 62.06 | 87.99 | 2.59 | 18 |
| HE406/43-1 | 2013-07-23T15:43 | 55.3058 | 4.0900 | -40 | 36.7 | 37 | 7.1707 | 35.1198 | 34.6276 | 7.1672 | 27.1021 | 186.685 | 61.92 | 87.83 | 1.71 | 17 |
| HE406/43-1 | 2013-07-23T15:43 | 55.3058 | 4.0900 | -40 | 37.7 | 38 | 7.1701 | 35.1197 | 34.6277 | 7.1666 | 27.1022 | 186.383 | 61.82 | 87.99 | 1.97 | 18 |
| HE406/43-1 | 2013-07-23T15:43 | 55.3058 | 4.0900 | -40 | 38.6 | 39 | 7.1683 | 35.1188 | 34.6280 | 7.1647 | 27.1028 | 186.353 | 61.81 | 88.20 | 1.59 | 18 |
| HE406/43-1 | 2013-07-23T15:43 | 55.3058 | 4.0900 | -40 | 39.6 | 40 | 7.1676 | 35.1186 | 34.6279 | 7.1639 | 27.1028 | 186.342 | 61.80 | 87.99 | 1.31 | 16 |
| HE406/43-1 | 2013-07-23T15:43 | 55.3058 | 4.0900 | -40 | 40.6 | 41 | 7.1673 | 35.1185 | 34.6277 | 7.1635 | 27.1027 | 186.084 | 61.72 | 87.89 | 1.21 | 17 |
| HE406/43-1 | 2013-07-23T15:43 | 55.3058 | 4.0900 | -40 | 41.6 | 42 | 7.1653 | 35.1162 | 34.6266 | 7.1614 | 27.1022 | 185.903 | 61.65 | 87.77 | 2.04 | 16 |
| HE406/43-1 | 2013-07-23T15:43 | 55.3058 | 4.0900 | -40 | 42.6 | 43 | 7.1637 | 35.1143 | 34.6256 | 7.1597 | 27.1016 | 185.627 | 61.56 | 87.80 | 1.56 | 19 |
| HE406/51-1 | 2013-07-24T11:00 | 55.3065 | 4.0908 | -40 | 3.0 | 3 | 17.3480 | 44.7365 | 34.5581 | 17.3475 | 25.0922 | 218.129 | 89.70 | 90.71 | 0.06 | 11 |
| HE406/51-1 | 2013-07-24T11:00 | 55.3065 | 4.0908 | -40 | 4.0 | 4 | 17.3535 | 44.7413 | 34.5572 | 17.3528 | 25.0902 | 217.575 | 89.48 | 90.99 | 0.11 | 23 |
| HE406/51-1 | 2013-07-24T11:00 | 55.3065 | 4.0908 | -40 | 5.0 | 5 | 17.3535 | 44.7420 | 34.5574 | 17.3527 | 25.0904 | 217.366 | 89.40 | 91.32 | 0.11 | 20 |
| HE406/51-1 | 2013-07-24T11:00 | 55.3065 | 4.0908 | -40 | 5.9 | 6 | 17.3541 | 44.7426 | 34.5570 | 17.3531 | 25.0900 | 217.366 | 89.40 | 91.13 | 0.11 | 27 |
| HE406/51-1 | 2013-07-24T11:00 | 55.3065 | 4.0908 | -40 | 6.9 | 7 | 17.3536 | 44.7434 | 34.5578 | 17.3524 | 25.0907 | 217.983 | 89.65 | 91.46 | 0.13 | 25 |
| HE406/51-1 | 2013-07-24T11:00 | 55.3065 | 4.0908 | -40 | 7.9 | 8 | 17.3523 | 44.7418 | 34.5571 | 17.3510 | 25.0906 | 217.959 | 89.64 | 91.18 | 0.14 | 26 |
| HE406/51-1 | 2013-07-24T11:00 | 55.3065 | 4.0908 | -40 | 8.9 | 9 | 17.2410 | 44.6203 | 34.5467 | 17.2395 | 25.1093 | 218.658 | 89.73 | 91.53 | 0.15 | 25 |
| HE406/51-1 | 2013-07-24T11:00 | 55.3065 | 4.0908 | -40 | 9.9 | 10 | 17.3019 | 44.6937 | 34.5578 | 17.3002 | 25.1033 | 219.506 | 90.19 | 91.16 | 0.18 | 21 |
| HE406/51-1 | 2013-07-24T11:00 | 55.3065 | 4.0908 | -40 | 10.9 | 11 | 16.9166 | 44.3000 | 34.5456 | 16.9148 | 25.1857 | 222.677 | 90.80 | 90.42 | 0.21 | 24 |
| HE406/51-1 | 2013-07-24T11:00 | 55.3065 | 4.0908 | -40 | 11.9 | 12 | 16.1895 | 43.5456 | 34.5100 | 16.1876 | 25.3277 | 226.647 | 91.09 | 88.89 | 0.52 | 22 |
| HE406/51-1 | 2013-07-24T11:00 | 55.3065 | 4.0908 | -40 | 12.9 | 13 | 15.3081 | 42.7411 | 34.5605 | 15.3061 | 25.5656 | 235.341 | 92.97 | 89.00 | 0.59 | 27 |
| HE406/51-1 | 2013-07-24T11:00 | 55.3065 | 4.0908 | -40 | 13.9 | 14 | 15.2279 | 42.6690 | 34.5655 | 15.2258 | 25.5873 | 241.599 | 95.29 | 89.18 | 0.72 | 24 |
| HE406/51-1 | 2013-07-24T11:00 | 55.3065 | 4.0908 | -40 | 14.9 | 15 | 15.1786 | 42.6242 | 34.5680 | 15.1763 | 25.6001 | 239.203 | 94.26 | 89.55 | 0.80 | 22 |
| HE406/51-1 | 2013-07-24T11:00 | 55.3065 | 4.0908 | -40 | 15.9 | 16 | 15.1182 | 42.5657 | 34.5679 | 15.1158 | 25.6134 | 238.498 | 93.87 | 89.50 | 1.00 | 21 |
| HE406/51-1 | 2013-07-24T11:00 | 55.3065 | 4.0908 | -40 | 16.8 | 17 | 15.0730 | 42.5247 | 34.5703 | 15.0704 | 25.6251 | 237.920 | 93.55 | 89.62 | 1.04 | 20 |
| HE406/51-1 | 2013-07-24T11:00 | 55.3065 | 4.0908 | -40 | 17.8 | 18 | 15.0458 | 42.5073 | 34.5782 | 15.0431 | 25.6372 | 237.635 | 93.40 | 89.99 | 1.05 | 17 |
| HE406/51-1 | 2013-07-24T11:00 | 55.3065 | 4.0908 | -40 | 18.8 | 19 | 14.9375 | 42.4022 | 34.5780 | 14.9347 | 25.6609 | 237.547 | 93.16 | 89.81 | 1.09 | 22 |
| HE406/51-1 | 2013-07-24T11:00 | 55.3065 | 4.0908 | -40 | 19.8 | 20 | 14.5682 | 42.0320 | 34.5671 | 14.5653 | 25.7325 | 237.533 | 92.45 | 89.28 | 1.16 | 19 |
| HE406/51-1 | 2013-07-24T11:00 | 55.3065 | 4.0908 | -40 | 20.8 | 21 | 13.8599 | 41.3282 | 34.5493 | 13.8569 | 25.8687 | 239.081 | 91.71 | 89.08 | 1.30 | 22 |
| HE406/51-1 | 2013-07-24T11:00 | 55.3065 | 4.0908 | -40 | 21.8 | 22 | 13.1797 | 40.6462 | 34.5228 | 13.1767 | 25.9877 | 246.450 | 93.20 | 89.27 | 1.32 | 15 |
| HE406/51-1 | 2013-07-24T11:00 | 55.3065 | 4.0908 | -40 | 22.8 | 23 | 12.9700 | 40.4681 | 34.5442 | 12.9669 | 26.0464 | 248.809 | 93.70 | 89.74 | 1.25 | 14 |
| HE406/51-1 | 2013-07-24T11:00 | 55.3065 | 4.0908 | -40 | 23.8 | 24 | 12.9218 | 40.4542 | 34.5745 | 12.9185 | 26.0795 | 248.276 | 93.42 | 89.64 | 1.25 | 16 |
| HE406/51-1 | 2013-07-24T11:00 | 55.3065 | 4.0908 | -40 | 24.8 | 25 | 12.8721 | 40.4144 | 34.5816 | 12.8687 | 26.0950 | 249.720 | 93.87 | 89.72 | 1.35 | 18 |
| HE406/51-1 | 2013-07-24T11:00 | 55.3065 | 4.0908 | -40 | 25.8 | 26 | 12.7552 | 40.2981 | 34.5771 | 12.7517 | 26.1146 | 248.730 | 93.27 | 89.59 | 1.49 | 17 |
| HE406/51-1 | 2013-07-24T11:00 | 55.3065 | 4.0908 | -40 | 26.8 | 27 | 12.5813 | 40.1253 | 34.5705 | 12.5777 | 26.1438 | 248.198 | 92.73 | 89.49 | 1.68 | 19 |
| HE406/51-1 | 2013-07-24T11:00 | 55.3065 | 4.0908 | -40 | 27.7 | 28 | 12.2267 | 39.7794 | 34.5628 | 12.2230 | 26.2068 | 242.687 | 89.99 | 88.58 | 1.99 | 16 |
| HE406/51-1 | 2013-07-24T11:00 | 55.3065 | 4.0908 | -40 | 28.7 | 29 | 11.1932 | 38.7606 | 34.5251 | 11.1896 | 26.3713 | 241.691 | 87.64 | 85.53 | 3.01 | 19 |
| HE406/51-1 | 2013-07-24T11:00 | 55.3065 | 4.0908 | -40 | 29.7 | 30 | 9.7796 | 37.3899 | 34.4806 | 9.7762 | 26.5842 | 245.208 | 86.19 | 83.80 | 4.71 | 19 |
| HE406/51-1 | 2013-07-24T11:00 | 55.3065 | 4.0908 | -40 | 30.7 | 31 | 8.7290 | 36.4503 | 34.5185 | 8.7257 | 26.7845 | 239.425 | 82.23 | 83.53 | 7.46 | 21 |
| HE406/51-1 | 2013-07-24T11:00 | 55.3065 | 4.0908 | -40 | 31.7 | 32 | 7.5669 | 35.4416 | 34.5849 | 7.5638 | 27.0120 | 222.795 | 74.56 | 86.84 | 5.62 | 22 |
| HE406/51-1 | 2013-07-24T11:00 | 55.3065 | 4.0908 | -40 | 32.7 | 33 | 7.3433 | 35.2609 | 34.6110 | 7.3402 | 27.0646 | 195.080 | 64.96 | 88.26 | 2.67 | 20 |
| HE406/51-1 | 2013-07-24T11:00 | 55.3065 | 4.0908 | -40 | 33.7 | 34 | 7.2926 | 35.2241 | 34.6211 | 7.2894 | 27.0797 | 188.023 | 62.54 | 88.42 | 1.85 | 19 |
| HE406/51-1 | 2013-07-24T11:00 | 55.3065 | 4.0908 | -40 | 34.7 | 35 | 7.2690 | 35.2107 | 34.6296 | 7.2657 | 27.0898 | 188.088 | 62.53 | 88.85 | 1.59 | 24 |
| HE406/51-1 | 2013-07-24T11:00 | 55.3065 | 4.0908 | -40 | 35.7 | 36 | 7.2607 | 35.2070 | 34.6334 | 7.2573 | 27.0940 | 188.352 | 62.61 | 88.73 | 1.30 | 19 |
| HE406/51-1 | 2013-07-24T11:00 | 55.3065 | 4.0908 | -40 | 36.7 | 37 | 7.2532 | 35.2028 | 34.6358 | 7.2497 | 27.0969 | 188.267 | 62.57 | 88.86 | 1.79 | 18 |
| HE406/51-1 | 2013-07-24T11:00 | 55.3065 | 4.0908 | -40 | 37.7 | 38 | 7.2452 | 35.1972 | 34.6371 | 7.2416 | 27.0991 | 187.981 | 62.46 | 88.94 | 1.77 | 15 |
| HE406/51-1 | 2013-07-24T11:00 | 55.3065 | 4.0908 | -40 | 38.6 | 39 | 7.2448 | 35.1975 | 34.6374 | 7.2411 | 27.0994 | 187.624 | 62.34 | 88.74 | 1.69 | 16 |
| HE406/51-1 | 2013-07-24T11:00 | 55.3065 | 4.0908 | -40 | 39.6 | 40 | 7.2426 | 35.1959 | 34.6374 | 7.2388 | 27.0997 | 187.384 | 62.26 | 88.67 | 2.15 | 17 |
| HE406/51-1 | 2013-07-24T11:00 | 55.3065 | 4.0908 | -40 | 40.6 | 41 | 7.2400 | 35.1928 | 34.6362 | 7.2362 | 27.0991 | 186.941 | 62.11 | 88.94 | 1.54 | 21 |
| HE406/51-1 | 2013-07-24T11:00 | 55.3065 | 4.0908 | -40 | 41.6 | 42 | 7.2371 | 35.1896 | 34.6350 | 7.2332 | 27.0986 | 186.647 | 62.01 | 88.89 | 1.35 | 17 |
| HE406/51-1 | 2013-07-24T11:00 | 55.3065 | 4.0908 | -40 | 42.6 | 43 | 7.2372 | 35.1895 | 34.6343 | 7.2332 | 27.0981 | 186.326 | 61.90 | 87.75 | 1.53 | 13 |
| HE406/52-1 | 2013-07-24T11:54 | 55.3058 | 4.0428 | -39 | 4.0 | 4 | 17.5052 | 44.9177 | 34.5799 | 17.5045 | 25.0711 | 215.895 | 89.06 | 90.87 | 0.10 | 16 |
| HE406/52-1 | 2013-07-24T11:54 | 55.3058 | 4.0428 | -39 | 5.0 | 5 | 17.4997 | 44.9124 | 34.5797 | 17.4989 | 25.0723 | 215.882 | 89.05 | 91.25 | 0.11 | 26 |
| HE406/52-1 | 2013-07-24T11:54 | 55.3058 | 4.0428 | -39 | 5.9 | 6 | 17.4920 | 44.9052 | 34.5797 | 17.4910 | 25.0741 | 216.308 | 89.21 | 91.37 | 0.12 | 25 |
| HE406/52-1 | 2013-07-24T11:54 | 55.3058 | 4.0428 | -39 | 6.9 | 7 | 17.4889 | 44.9029 | 34.5799 | 17.4877 | 25.0752 | 216.604 | 89.33 | 91.51 | 0.14 | 27 |
| HE406/52-1 | 2013-07-24T11:54 | 55.3058 | 4.0428 | -39 | 7.9 | 8 | 17.4836 | 44.8977 | 34.5796 | 17.4823 | 25.0762 | 216.816 | 89.41 | 91.51 | 0.14 | 23 |
| HE406/52-1 | 2013-07-24T11:54 | 55.3058 | 4.0428 | -39 | 8.9 | 9 | 17.4526 | 44.8670 | 34.5792 | 17.4511 | 25.0834 | 217.189 | 89.51 | 91.54 | 0.15 | 22 |
| HE406/52-1 | 2013-07-24T11:54 | 55.3058 | 4.0428 | -39 | 9.9 | 10 | 17.4469 | 44.8619 | 34.5793 | 17.4452 | 25.0849 | 217.670 | 89.69 | 91.56 | 0.18 | 24 |
| HE406/52-1 | 2013-07-24T11:54 | 55.3058 | 4.0428 | -39 | 10.9 | 11 | 17.3786 | 44.7928 | 34.5776 | 17.3768 | 25.1001 | 218.301 | 89.83 | 91.55 | 0.20 | 24 |
| HE406/52-1 | 2013-07-24T11:54 | 55.3058 | 4.0428 | -39 | 11.9 | 12 | 17.2587 | 44.6734 | 34.5765 | 17.2567 | 25.1280 | 218.555 | 89.73 | 91.53 | 0.24 | 24 |
| HE406/52-1 | 2013-07-24T11:54 | 55.3058 | 4.0428 | -39 | 12.9 | 13 | 17.2060 | 44.6238 | 34.5782 | 17.2039 | 25.1420 | 218.664 | 89.68 | 91.28 | 0.27 | 19 |
| HE406/52-1 | 2013-07-24T11:54 | 55.3058 | 4.0428 | -39 | 13.9 | 14 | 15.7441 | 43.1036 | 34.5035 | 15.7419 | 25.4242 | 227.176 | 90.50 | 91.27 | 0.32 | 23 |
| HE406/52-1 | 2013-07-24T11:54 | 55.3058 | 4.0428 | -39 | 14.9 | 15 | 15.0973 | 42.4803 | 34.5093 | 15.0950 | 25.5727 | 222.730 | 87.59 | 91.11 | 0.86 | 18 |
| HE406/52-1 | 2013-07-24T11:54 | 55.3058 | 4.0428 | -39 | 15.9 | 16 | 15.0252 | 42.4057 | 34.5047 | 15.0228 | 25.5851 | 229.846 | 90.26 | 89.75 | 1.12 | 20 |
| HE406/52-1 | 2013-07-24T11:54 | 55.3058 | 4.0428 | -39 | 16.8 | 17 | 14.9250 | 42.3013 | 34.4978 | 14.9225 | 25.6017 | 239.399 | 93.81 | 88.45 | 1.11 | 19 |
| HE406/52-1 | 2013-07-24T11:54 | 55.3058 | 4.0428 | -39 | 17.8 | 18 | 14.6461 | 42.0218 | 34.4892 | 14.6434 | 25.6555 | 238.405 | 92.89 | 88.42 | 1.20 | 21 |
| HE406/52-1 | 2013-07-24T11:54 | 55.3058 | 4.0428 | -39 | 18.8 | 19 | 14.2691 | 41.6642 | 34.4953 | 14.2663 | 25.7409 | 236.733 | 91.54 | 88.15 | 1.48 | 18 |
| HE406/52-1 | 2013-07-24T11:54 | 55.3058 | 4.0428 | -39 | 19.8 | 20 | 13.4014 | 40.8619 | 34.5263 | 13.3986 | 25.9454 | 237.326 | 90.17 | 87.51 | 1.49 | 17 |
| HE406/52-1 | 2013-07-24T11:54 | 55.3058 | 4.0428 | -39 | 20.8 | 21 | 12.9537 | 40.4542 | 34.5467 | 12.9509 | 26.0515 | 235.960 | 88.83 | 87.39 | 1.38 | 17 |
| HE406/52-1 | 2013-07-24T11:54 | 55.3058 | 4.0428 | -39 | 21.8 | 22 | 12.8634 | 40.3757 | 34.5539 | 12.8604 | 26.0751 | 243.456 | 91.48 | 87.83 | 1.48 | 17 |
| HE406/52-1 | 2013-07-24T11:54 | 55.3058 | 4.0428 | -39 | 22.8 | 23 | 12.8045 | 40.3396 | 34.5728 | 12.8014 | 26.1015 | 249.805 | 93.76 | 88.71 | 1.49 | 14 |
| HE406/52-1 | 2013-07-24T11:54 | 55.3058 | 4.0428 | -39 | 23.8 | 24 | 12.7591 | 40.3111 | 34.5868 | 12.7559 | 26.1213 | 248.020 | 93.01 | 89.05 | 1.53 | 15 |
| HE406/52-1 | 2013-07-24T11:54 | 55.3058 | 4.0428 | -39 | 24.8 | 25 | 12.5100 | 40.0641 | 34.5780 | 12.5067 | 26.1635 | 248.694 | 92.78 | 89.47 | 1.74 | 16 |
| HE406/52-1 | 2013-07-24T11:54 | 55.3058 | 4.0428 | -39 | 25.8 | 26 | 11.6556 | 39.2199 | 34.5478 | 11.6523 | 26.3034 | 249.665 | 91.45 | 88.58 | 2.41 | 17 |
| HE406/52-1 | 2013-07-24T11:54 | 55.3058 | 4.0428 | -39 | 26.8 | 27 | 10.8029 | 38.4035 | 34.5371 | 10.7997 | 26.4510 | 245.515 | 88.29 | 87.85 | 3.61 | 15 |
| HE406/52-1 | 2013-07-24T11:54 | 55.3058 | 4.0428 | -39 | 27.7 | 28 | 10.1001 | 37.7290 | 34.5221 | 10.0969 | 26.5622 | 241.514 | 85.52 | 86.15 | 4.66 | 18 |
| HE406/52-1 | 2013-07-24T11:54 | 55.3058 | 4.0428 | -39 | 28.7 | 29 | 9.3662 | 37.0386 | 34.5161 | 9.3630 | 26.6805 | 236.380 | 82.35 | 85.32 | 5.59 | 18 |
| HE406/52-1 | 2013-07-24T11:54 | 55.3058 | 4.0428 | -39 | 29.7 | 30 | 8.9793 | 36.6957 | 34.5330 | 8.9761 | 26.7563 | 234.443 | 80.98 | 85.24 | 5.70 | 17 |
| HE406/52-1 | 2013-07-24T11:54 | 55.3058 | 4.0428 | -39 | 30.7 | 31 | 8.5157 | 36.2753 | 34.5421 | 8.5125 | 26.8363 | 223.953 | 76.56 | 84.46 | 6.89 | 18 |
| HE406/52-1 | 2013-07-24T11:54 | 55.3058 | 4.0428 | -39 | 31.7 | 32 | 7.9289 | 35.7625 | 34.5721 | 7.9257 | 26.9488 | 211.662 | 71.41 | 84.95 | 4.08 | 17 |
| HE406/52-1 | 2013-07-24T11:54 | 55.3058 | 4.0428 | -39 | 32.7 | 33 | 7.6977 | 35.5665 | 34.5895 | 7.6945 | 26.9966 | 192.108 | 64.48 | 87.54 | 2.10 | 20 |
| HE406/52-1 | 2013-07-24T11:54 | 55.3058 | 4.0428 | -39 | 33.7 | 34 | 7.5062 | 35.4122 | 34.6125 | 7.5029 | 27.0425 | 182.043 | 60.84 | 88.32 | 2.09 | 21 |
| HE406/52-1 | 2013-07-24T11:54 | 55.3058 | 4.0428 | -39 | 34.7 | 35 | 7.4556 | 35.3749 | 34.6220 | 7.4523 | 27.0573 | 183.344 | 61.21 | 88.16 | 2.42 | 19 |
| HE406/52-1 | 2013-07-24T11:54 | 55.3058 | 4.0428 | -39 | 35.7 | 36 | 7.4371 | 35.3632 | 34.6272 | 7.4337 | 27.0640 | 183.749 | 61.32 | 87.57 | 3.25 | 20 |
| HE406/52-1 | 2013-07-24T11:54 | 55.3058 | 4.0428 | -39 | 36.7 | 37 | 7.4228 | 35.3524 | 34.6293 | 7.4193 | 27.0677 | 183.478 | 61.21 | 87.21 | 3.17 | 20 |
| HE406/52-1 | 2013-07-24T11:54 | 55.3058 | 4.0428 | -39 | 37.7 | 38 | 7.4090 | 35.3413 | 34.6305 | 7.4054 | 27.0706 | 183.322 | 61.14 | 87.15 | 2.62 | 19 |
| HE406/52-1 | 2013-07-24T11:54 | 55.3058 | 4.0428 | -39 | 38.6 | 39 | 7.4003 | 35.3339 | 34.6307 | 7.3966 | 27.0720 | 183.394 | 61.15 | 86.76 | 2.87 | 17 |
| HE406/52-1 | 2013-07-24T11:54 | 55.3058 | 4.0428 | -39 | 39.6 | 40 | 7.3988 | 35.3318 | 34.6293 | 7.3950 | 27.0712 | 182.894 | 60.98 | 86.17 | 3.16 | 17 |
| HE406/52-1 | 2013-07-24T11:54 | 55.3058 | 4.0428 | -39 | 40.6 | 41 | 7.3980 | 35.3307 | 34.6285 | 7.3941 | 27.0707 | 182.888 | 60.98 | 86.12 | 3.10 | 18 |
| HE406/52-1 | 2013-07-24T11:54 | 55.3058 | 4.0428 | -39 | 41.6 | 42 | 7.3987 | 35.3308 | 34.6273 | 7.3947 | 27.0697 | 182.530 | 60.86 | 85.60 | 3.19 | 12 |
